<?xml version="1.0" encoding="utf-8"?>
<gpx xmlns:xsi="http://www.w3.org/2001/XMLSchema-instance" xmlns:xsd="http://www.w3.org/2001/XMLSchema" version="1.1" creator="Shapelink.com" xmlns="http://www.topografix.com/GPX/1/1" xmlns:gpxtpx="http://www.garmin.com/xmlschemas/TrackPointExtension/v1">
  <metadata>
    <name>Cycling 60.57 km, 2020-06-20</name>
    <desc></desc>
    <author><name>Marian Moron</name></author> 
    <time>2020-06-20T09:24:56Z</time>
  </metadata>
  <trk>
    <name>Cycling 60.57 km, 2020-06-20</name>
    <trkseg>
      <trkpt lat="51.228819542245" lon="4.448203502945">
        <ele>6</ele>
        <time>2020-06-20T09:24:56Z</time>
      </trkpt>
      <trkpt lat="51.228662800715" lon="4.447767811783">
        <ele>7.4</ele>
        <time>2020-06-20T09:25:06Z</time>
      </trkpt>
      <trkpt lat="51.228267258854" lon="4.447145204251">
        <ele>7.2</ele>
        <time>2020-06-20T09:25:20Z</time>
      </trkpt>
      <trkpt lat="51.228209423744" lon="4.447169344123">
        <ele>7.2</ele>
        <time>2020-06-20T09:25:22Z</time>
      </trkpt>
      <trkpt lat="51.227776582428" lon="4.447779714081">
        <ele>6.6</ele>
        <time>2020-06-20T09:25:35Z</time>
      </trkpt>
      <trkpt lat="51.227358241799" lon="4.448407350753">
        <ele>4.2</ele>
        <time>2020-06-20T09:25:48Z</time>
      </trkpt>
      <trkpt lat="51.22724081138" lon="4.44859368039">
        <ele>3.2</ele>
        <time>2020-06-20T09:25:52Z</time>
      </trkpt>
      <trkpt lat="51.227084824221" lon="4.448918562834">
        <ele>2.6</ele>
        <time>2020-06-20T09:25:58Z</time>
      </trkpt>
      <trkpt lat="51.227058169779" lon="4.449048901379">
        <ele>2.4</ele>
        <time>2020-06-20T09:26:00Z</time>
      </trkpt>
      <trkpt lat="51.226666567411" lon="4.449567070437">
        <ele>1.6</ele>
        <time>2020-06-20T09:26:20Z</time>
      </trkpt>
      <trkpt lat="51.226600182763" lon="4.449625324642">
        <ele>1.2</ele>
        <time>2020-06-20T09:26:23Z</time>
      </trkpt>
      <trkpt lat="51.226583251325" lon="4.449500099056">
        <ele>0.2</ele>
        <time>2020-06-20T09:26:27Z</time>
      </trkpt>
      <trkpt lat="51.226590208302" lon="4.449367245941">
        <ele>0</ele>
        <time>2020-06-20T09:26:30Z</time>
      </trkpt>
      <trkpt lat="51.226263733297" lon="4.448850082711">
        <ele>0</ele>
        <time>2020-06-20T09:26:44Z</time>
      </trkpt>
      <trkpt lat="51.226038763101" lon="4.449367665036">
        <ele>0</ele>
        <time>2020-06-20T09:26:54Z</time>
      </trkpt>
      <trkpt lat="51.225900377932" lon="4.449549049352">
        <ele>0</ele>
        <time>2020-06-20T09:26:58Z</time>
      </trkpt>
      <trkpt lat="51.225703151825" lon="4.44966823997">
        <ele>0</ele>
        <time>2020-06-20T09:27:02Z</time>
      </trkpt>
      <trkpt lat="51.22515790923" lon="4.449809642623">
        <ele>0</ele>
        <time>2020-06-20T09:27:13Z</time>
      </trkpt>
      <trkpt lat="51.22506487014" lon="4.449869657027">
        <ele>0</ele>
        <time>2020-06-20T09:27:15Z</time>
      </trkpt>
      <trkpt lat="51.2246239822" lon="4.450449768326">
        <ele>0</ele>
        <time>2020-06-20T09:27:25Z</time>
      </trkpt>
      <trkpt lat="51.224204971019" lon="4.451106657829">
        <ele>0</ele>
        <time>2020-06-20T09:27:36Z</time>
      </trkpt>
      <trkpt lat="51.224089468437" lon="4.451262812626">
        <ele>0</ele>
        <time>2020-06-20T09:27:39Z</time>
      </trkpt>
      <trkpt lat="51.223998524822" lon="4.451335651337">
        <ele>0</ele>
        <time>2020-06-20T09:27:41Z</time>
      </trkpt>
      <trkpt lat="51.223901210963" lon="4.451371022955">
        <ele>0</ele>
        <time>2020-06-20T09:27:43Z</time>
      </trkpt>
      <trkpt lat="51.223633744534" lon="4.45133456169">
        <ele>0</ele>
        <time>2020-06-20T09:27:49Z</time>
      </trkpt>
      <trkpt lat="51.223524779834" lon="4.451333052948">
        <ele>0.2</ele>
        <time>2020-06-20T09:27:52Z</time>
      </trkpt>
      <trkpt lat="51.223516900848" lon="4.451413854464">
        <ele>0</ele>
        <time>2020-06-20T09:27:54Z</time>
      </trkpt>
      <trkpt lat="51.224021072133" lon="4.451874104593">
        <ele>0</ele>
        <time>2020-06-20T09:28:07Z</time>
      </trkpt>
      <trkpt lat="51.224494146569" lon="4.452082143351">
        <ele>0</ele>
        <time>2020-06-20T09:28:18Z</time>
      </trkpt>
      <trkpt lat="51.224959174381" lon="4.452164872704">
        <ele>0</ele>
        <time>2020-06-20T09:28:29Z</time>
      </trkpt>
      <trkpt lat="51.225016758034" lon="4.452239639252">
        <ele>0</ele>
        <time>2020-06-20T09:28:31Z</time>
      </trkpt>
      <trkpt lat="51.225034192386" lon="4.452370480711">
        <ele>0</ele>
        <time>2020-06-20T09:28:33Z</time>
      </trkpt>
      <trkpt lat="51.224917516338" lon="4.453091827025">
        <ele>0</ele>
        <time>2020-06-20T09:28:42Z</time>
      </trkpt>
      <trkpt lat="51.224905446402" lon="4.453226440339">
        <ele>0</ele>
        <time>2020-06-20T09:28:45Z</time>
      </trkpt>
      <trkpt lat="51.224852472794" lon="4.454146856778">
        <ele>0</ele>
        <time>2020-06-20T09:28:57Z</time>
      </trkpt>
      <trkpt lat="51.224847695111" lon="4.45430678343">
        <ele>0</ele>
        <time>2020-06-20T09:28:59Z</time>
      </trkpt>
      <trkpt lat="51.22481341314" lon="4.454440977649">
        <ele>0</ele>
        <time>2020-06-20T09:29:01Z</time>
      </trkpt>
      <trkpt lat="51.224709142304" lon="4.454506607926">
        <ele>0</ele>
        <time>2020-06-20T09:29:03Z</time>
      </trkpt>
      <trkpt lat="51.224497583148" lon="4.454535693119">
        <ele>0</ele>
        <time>2020-06-20T09:29:07Z</time>
      </trkpt>
      <trkpt lat="51.224227266873" lon="4.454615740264">
        <ele>0</ele>
        <time>2020-06-20T09:29:13Z</time>
      </trkpt>
      <trkpt lat="51.223662242994" lon="4.454605681984">
        <ele>0</ele>
        <time>2020-06-20T09:29:24Z</time>
      </trkpt>
      <trkpt lat="51.223090848871" lon="4.454535860757">
        <ele>0</ele>
        <time>2020-06-20T09:29:35Z</time>
      </trkpt>
      <trkpt lat="51.222543846077" lon="4.454461261847">
        <ele>0</ele>
        <time>2020-06-20T09:29:45Z</time>
      </trkpt>
      <trkpt lat="51.221979241293" lon="4.454456148888">
        <ele>0</ele>
        <time>2020-06-20T09:29:55Z</time>
      </trkpt>
      <trkpt lat="51.221427293178" lon="4.454454472508">
        <ele>0</ele>
        <time>2020-06-20T09:30:05Z</time>
      </trkpt>
      <trkpt lat="51.220849947906" lon="4.454461345666">
        <ele>0</ele>
        <time>2020-06-20T09:30:16Z</time>
      </trkpt>
      <trkpt lat="51.220760010119" lon="4.454497639293">
        <ele>0</ele>
        <time>2020-06-20T09:30:18Z</time>
      </trkpt>
      <trkpt lat="51.220676442576" lon="4.45456578414">
        <ele>0</ele>
        <time>2020-06-20T09:30:20Z</time>
      </trkpt>
      <trkpt lat="51.220608046272" lon="4.454658655592">
        <ele>0</ele>
        <time>2020-06-20T09:30:22Z</time>
      </trkpt>
      <trkpt lat="51.220483658876" lon="4.454978341258">
        <ele>0</ele>
        <time>2020-06-20T09:30:27Z</time>
      </trkpt>
      <trkpt lat="51.220410065794" lon="4.455096861324">
        <ele>0</ele>
        <time>2020-06-20T09:30:29Z</time>
      </trkpt>
      <trkpt lat="51.22013212199" lon="4.455393412946">
        <ele>0</ele>
        <time>2020-06-20T09:30:36Z</time>
      </trkpt>
      <trkpt lat="51.219902290292" lon="4.455030392857">
        <ele>0</ele>
        <time>2020-06-20T09:31:02Z</time>
      </trkpt>
      <trkpt lat="51.219701879063" lon="4.454639628679">
        <ele>0</ele>
        <time>2020-06-20T09:31:08Z</time>
      </trkpt>
      <trkpt lat="51.219490319907" lon="4.45381141314">
        <ele>0</ele>
        <time>2020-06-20T09:31:18Z</time>
      </trkpt>
      <trkpt lat="51.219279598941" lon="4.453194756757">
        <ele>0</ele>
        <time>2020-06-20T09:31:26Z</time>
      </trkpt>
      <trkpt lat="51.219408261106" lon="4.453542940883">
        <ele>3.4</ele>
        <time>2020-06-20T09:32:39Z</time>
      </trkpt>
      <trkpt lat="51.219108943457" lon="4.452743139985">
        <ele>2.2</ele>
        <time>2020-06-20T09:32:52Z</time>
      </trkpt>
      <trkpt lat="51.219064770844" lon="4.452616573295">
        <ele>2.8</ele>
        <time>2020-06-20T09:32:53Z</time>
      </trkpt>
      <trkpt lat="51.219011881055" lon="4.452427393812">
        <ele>2.8</ele>
        <time>2020-06-20T09:32:57Z</time>
      </trkpt>
      <trkpt lat="51.219030656511" lon="4.452288673367">
        <ele>2.8</ele>
        <time>2020-06-20T09:32:59Z</time>
      </trkpt>
      <trkpt lat="51.219081115549" lon="4.452151629302">
        <ele>3</ele>
        <time>2020-06-20T09:33:01Z</time>
      </trkpt>
      <trkpt lat="51.219049767243" lon="4.45199840817">
        <ele>2.2</ele>
        <time>2020-06-20T09:33:03Z</time>
      </trkpt>
      <trkpt lat="51.218916662671" lon="4.451792381068">
        <ele>0.8</ele>
        <time>2020-06-20T09:33:06Z</time>
      </trkpt>
      <trkpt lat="51.218805686315" lon="4.45170839443">
        <ele>0</ele>
        <time>2020-06-20T09:33:08Z</time>
      </trkpt>
      <trkpt lat="51.218541991741" lon="4.451663467446">
        <ele>0</ele>
        <time>2020-06-20T09:33:13Z</time>
      </trkpt>
      <trkpt lat="51.218433781412" lon="4.451736725252">
        <ele>0</ele>
        <time>2020-06-20T09:33:15Z</time>
      </trkpt>
      <trkpt lat="51.218343005435" lon="4.451884162873">
        <ele>0</ele>
        <time>2020-06-20T09:33:17Z</time>
      </trkpt>
      <trkpt lat="51.218290367103" lon="4.4520713307">
        <ele>0</ele>
        <time>2020-06-20T09:33:19Z</time>
      </trkpt>
      <trkpt lat="51.2182202106" lon="4.452707097815">
        <ele>0</ele>
        <time>2020-06-20T09:33:26Z</time>
      </trkpt>
      <trkpt lat="51.21814058255" lon="4.452774236834">
        <ele>0</ele>
        <time>2020-06-20T09:33:28Z</time>
      </trkpt>
      <trkpt lat="51.217943524081" lon="4.452801058914">
        <ele>0</ele>
        <time>2020-06-20T09:33:32Z</time>
      </trkpt>
      <trkpt lat="51.217768090914" lon="4.452727382013">
        <ele>0</ele>
        <time>2020-06-20T09:33:36Z</time>
      </trkpt>
      <trkpt lat="51.217592322471" lon="4.452587907197">
        <ele>0</ele>
        <time>2020-06-20T09:33:40Z</time>
      </trkpt>
      <trkpt lat="51.217399538771" lon="4.45249210208">
        <ele>0.6</ele>
        <time>2020-06-20T09:33:45Z</time>
      </trkpt>
      <trkpt lat="51.217300967627" lon="4.452526719327">
        <ele>0.8</ele>
        <time>2020-06-20T09:33:47Z</time>
      </trkpt>
      <trkpt lat="51.217215053152" lon="4.45261363963">
        <ele>0</ele>
        <time>2020-06-20T09:33:49Z</time>
      </trkpt>
      <trkpt lat="51.216946832352" lon="4.453412602338">
        <ele>0</ele>
        <time>2020-06-20T09:33:59Z</time>
      </trkpt>
      <trkpt lat="51.216881369713" lon="4.453760115912">
        <ele>0</ele>
        <time>2020-06-20T09:34:03Z</time>
      </trkpt>
      <trkpt lat="51.216790761374" lon="4.454671731356">
        <ele>0</ele>
        <time>2020-06-20T09:34:15Z</time>
      </trkpt>
      <trkpt lat="51.216821858223" lon="4.455066099751">
        <ele>0</ele>
        <time>2020-06-20T09:34:20Z</time>
      </trkpt>
      <trkpt lat="51.216951274759" lon="4.455982744335">
        <ele>0</ele>
        <time>2020-06-20T09:34:30Z</time>
      </trkpt>
      <trkpt lat="51.216981114323" lon="4.456226489987">
        <ele>0</ele>
        <time>2020-06-20T09:34:33Z</time>
      </trkpt>
      <trkpt lat="51.216940881203" lon="4.456301843268">
        <ele>0</ele>
        <time>2020-06-20T09:34:35Z</time>
      </trkpt>
      <trkpt lat="51.216544082057" lon="4.456894946512">
        <ele>0</ele>
        <time>2020-06-20T09:34:48Z</time>
      </trkpt>
      <trkpt lat="51.2162001727" lon="4.45760841384">
        <ele>0</ele>
        <time>2020-06-20T09:34:58Z</time>
      </trkpt>
      <trkpt lat="51.215836314421" lon="4.458282150962">
        <ele>0</ele>
        <time>2020-06-20T09:35:09Z</time>
      </trkpt>
      <trkpt lat="51.215405484761" lon="4.458836278371">
        <ele>0</ele>
        <time>2020-06-20T09:35:21Z</time>
      </trkpt>
      <trkpt lat="51.214942552424" lon="4.459306335323">
        <ele>0</ele>
        <time>2020-06-20T09:35:31Z</time>
      </trkpt>
      <trkpt lat="51.214450534894" lon="4.45973909282">
        <ele>0</ele>
        <time>2020-06-20T09:35:43Z</time>
      </trkpt>
      <trkpt lat="51.214389514662" lon="4.459773793886">
        <ele>0</ele>
        <time>2020-06-20T09:35:46Z</time>
      </trkpt>
      <trkpt lat="51.214340648185" lon="4.459850823547">
        <ele>0</ele>
        <time>2020-06-20T09:35:48Z</time>
      </trkpt>
      <trkpt lat="51.214061363277" lon="4.460352899357">
        <ele>0</ele>
        <time>2020-06-20T09:35:58Z</time>
      </trkpt>
      <trkpt lat="51.213605555555" lon="4.460852460597">
        <ele>0</ele>
        <time>2020-06-20T09:36:10Z</time>
      </trkpt>
      <trkpt lat="51.213159806113" lon="4.461358056805">
        <ele>0</ele>
        <time>2020-06-20T09:36:21Z</time>
      </trkpt>
      <trkpt lat="51.212685390573" lon="4.461918722096">
        <ele>3</ele>
        <time>2020-06-20T09:36:32Z</time>
      </trkpt>
      <trkpt lat="51.212254644732" lon="4.462539737067">
        <ele>3.2</ele>
        <time>2020-06-20T09:36:42Z</time>
      </trkpt>
      <trkpt lat="51.211934288514" lon="4.463280194113">
        <ele>0.6</ele>
        <time>2020-06-20T09:36:53Z</time>
      </trkpt>
      <trkpt lat="51.211603874016" lon="4.464008916499">
        <ele>1.6</ele>
        <time>2020-06-20T09:37:05Z</time>
      </trkpt>
      <trkpt lat="51.211452413083" lon="4.464124167624">
        <ele>0.6</ele>
        <time>2020-06-20T09:37:10Z</time>
      </trkpt>
      <trkpt lat="51.211451742531" lon="4.464268755399">
        <ele>0</ele>
        <time>2020-06-20T09:37:12Z</time>
      </trkpt>
      <trkpt lat="51.211447216305" lon="4.464440416711">
        <ele>0</ele>
        <time>2020-06-20T09:37:14Z</time>
      </trkpt>
      <trkpt lat="51.211327522773" lon="4.465318839831">
        <ele>0</ele>
        <time>2020-06-20T09:37:24Z</time>
      </trkpt>
      <trkpt lat="51.211333893017" lon="4.465496787568">
        <ele>0</ele>
        <time>2020-06-20T09:37:26Z</time>
      </trkpt>
      <trkpt lat="51.211489293443" lon="4.466379485457">
        <ele>0</ele>
        <time>2020-06-20T09:37:36Z</time>
      </trkpt>
      <trkpt lat="51.211526173803" lon="4.467282719001">
        <ele>0</ele>
        <time>2020-06-20T09:37:46Z</time>
      </trkpt>
      <trkpt lat="51.211476050041" lon="4.468166422718">
        <ele>0</ele>
        <time>2020-06-20T09:37:56Z</time>
      </trkpt>
      <trkpt lat="51.211391057575" lon="4.469035290472">
        <ele>0</ele>
        <time>2020-06-20T09:38:06Z</time>
      </trkpt>
      <trkpt lat="51.211478564611" lon="4.469909103547">
        <ele>0</ele>
        <time>2020-06-20T09:38:16Z</time>
      </trkpt>
      <trkpt lat="51.211671013035" lon="4.470746455357">
        <ele>0</ele>
        <time>2020-06-20T09:38:26Z</time>
      </trkpt>
      <trkpt lat="51.211809565842" lon="4.471143841236">
        <ele>0</ele>
        <time>2020-06-20T09:38:31Z</time>
      </trkpt>
      <trkpt lat="51.212159510167" lon="4.471819590014">
        <ele>0</ele>
        <time>2020-06-20T09:38:41Z</time>
      </trkpt>
      <trkpt lat="51.212500904954" lon="4.472510845307">
        <ele>0</ele>
        <time>2020-06-20T09:38:51Z</time>
      </trkpt>
      <trkpt lat="51.212820003887" lon="4.473244764471">
        <ele>0</ele>
        <time>2020-06-20T09:39:01Z</time>
      </trkpt>
      <trkpt lat="51.213108760342" lon="4.474008104104">
        <ele>0</ele>
        <time>2020-06-20T09:39:11Z</time>
      </trkpt>
      <trkpt lat="51.21324555295" lon="4.474475227391">
        <ele>0</ele>
        <time>2020-06-20T09:39:17Z</time>
      </trkpt>
      <trkpt lat="51.213408413267" lon="4.475311657192">
        <ele>0</ele>
        <time>2020-06-20T09:39:27Z</time>
      </trkpt>
      <trkpt lat="51.213531543378" lon="4.476203826628">
        <ele>0</ele>
        <time>2020-06-20T09:39:38Z</time>
      </trkpt>
      <trkpt lat="51.213710077848" lon="4.477051739632">
        <ele>0</ele>
        <time>2020-06-20T09:39:48Z</time>
      </trkpt>
      <trkpt lat="51.213789286803" lon="4.47729162961">
        <ele>0</ele>
        <time>2020-06-20T09:39:51Z</time>
      </trkpt>
      <trkpt lat="51.214076953611" lon="4.477799153655">
        <ele>0</ele>
        <time>2020-06-20T09:39:59Z</time>
      </trkpt>
      <trkpt lat="51.214085754606" lon="4.477934856616">
        <ele>0</ele>
        <time>2020-06-20T09:40:01Z</time>
      </trkpt>
      <trkpt lat="51.214036636672" lon="4.478056729442">
        <ele>0</ele>
        <time>2020-06-20T09:40:03Z</time>
      </trkpt>
      <trkpt lat="51.21392364866" lon="4.478241969432">
        <ele>1</ele>
        <time>2020-06-20T09:40:06Z</time>
      </trkpt>
      <trkpt lat="51.213810576829" lon="4.478301900017">
        <ele>1.8</ele>
        <time>2020-06-20T09:40:08Z</time>
      </trkpt>
      <trkpt lat="51.213509750438" lon="4.47828069381">
        <ele>2.6</ele>
        <time>2020-06-20T09:40:13Z</time>
      </trkpt>
      <trkpt lat="51.213433139872" lon="4.478336517264">
        <ele>3</ele>
        <time>2020-06-20T09:40:15Z</time>
      </trkpt>
      <trkpt lat="51.213384776309" lon="4.478459815013">
        <ele>2.6</ele>
        <time>2020-06-20T09:40:17Z</time>
      </trkpt>
      <trkpt lat="51.213175312628" lon="4.479353996105">
        <ele>1</ele>
        <time>2020-06-20T09:40:28Z</time>
      </trkpt>
      <trkpt lat="51.212983618575" lon="4.479925893142">
        <ele>2.2</ele>
        <time>2020-06-20T09:40:35Z</time>
      </trkpt>
      <trkpt lat="51.213073137267" lon="4.480697530856">
        <ele>0.8</ele>
        <time>2020-06-20T09:40:52Z</time>
      </trkpt>
      <trkpt lat="51.213561634399" lon="4.481086534835">
        <ele>0.2</ele>
        <time>2020-06-20T09:41:01Z</time>
      </trkpt>
      <trkpt lat="51.214059938354" lon="4.481467911285">
        <ele>0</ele>
        <time>2020-06-20T09:41:10Z</time>
      </trkpt>
      <trkpt lat="51.214550195685" lon="4.481849623011">
        <ele>0</ele>
        <time>2020-06-20T09:41:19Z</time>
      </trkpt>
      <trkpt lat="51.215089990045" lon="4.482151119954">
        <ele>0</ele>
        <time>2020-06-20T09:41:29Z</time>
      </trkpt>
      <trkpt lat="51.215665491299" lon="4.482326553121">
        <ele>0</ele>
        <time>2020-06-20T09:41:39Z</time>
      </trkpt>
      <trkpt lat="51.216239986725" lon="4.482388914457">
        <ele>0</ele>
        <time>2020-06-20T09:41:49Z</time>
      </trkpt>
      <trkpt lat="51.216972061871" lon="4.482270981124">
        <ele>0</ele>
        <time>2020-06-20T09:42:02Z</time>
      </trkpt>
      <trkpt lat="51.217524009986" lon="4.482014159708">
        <ele>0.8</ele>
        <time>2020-06-20T09:42:13Z</time>
      </trkpt>
      <trkpt lat="51.218066402735" lon="4.48173655118">
        <ele>0</ele>
        <time>2020-06-20T09:42:24Z</time>
      </trkpt>
      <trkpt lat="51.218598653385" lon="4.481478053384">
        <ele>0</ele>
        <time>2020-06-20T09:42:36Z</time>
      </trkpt>
      <trkpt lat="51.219114810787" lon="4.481225422918">
        <ele>0</ele>
        <time>2020-06-20T09:42:47Z</time>
      </trkpt>
      <trkpt lat="51.21929979932" lon="4.481143028841">
        <ele>0</ele>
        <time>2020-06-20T09:42:51Z</time>
      </trkpt>
      <trkpt lat="51.219427036562" lon="4.481208826756">
        <ele>1.8</ele>
        <time>2020-06-20T09:42:54Z</time>
      </trkpt>
      <trkpt lat="51.219584281006" lon="4.48159154431">
        <ele>4.8</ele>
        <time>2020-06-20T09:43:00Z</time>
      </trkpt>
      <trkpt lat="51.219812268686" lon="4.48244817449">
        <ele>10</ele>
        <time>2020-06-20T09:43:11Z</time>
      </trkpt>
      <trkpt lat="51.219979236134" lon="4.483293740562">
        <ele>8.8</ele>
        <time>2020-06-20T09:43:22Z</time>
      </trkpt>
      <trkpt lat="51.220148299057" lon="4.484156489529">
        <ele>8</ele>
        <time>2020-06-20T09:43:33Z</time>
      </trkpt>
      <trkpt lat="51.22030227456" lon="4.484979927385">
        <ele>7</ele>
        <time>2020-06-20T09:43:43Z</time>
      </trkpt>
      <trkpt lat="51.220469828741" lon="4.485846783483">
        <ele>5.6</ele>
        <time>2020-06-20T09:43:53Z</time>
      </trkpt>
      <trkpt lat="51.220548199506" lon="4.486737360358">
        <ele>2.6</ele>
        <time>2020-06-20T09:44:03Z</time>
      </trkpt>
      <trkpt lat="51.2207263987" lon="4.48763405602">
        <ele>0.8</ele>
        <time>2020-06-20T09:44:14Z</time>
      </trkpt>
      <trkpt lat="51.220884229877" lon="4.488482388119">
        <ele>0.8</ele>
        <time>2020-06-20T09:44:24Z</time>
      </trkpt>
      <trkpt lat="51.221055388275" lon="4.489330804037">
        <ele>0.6</ele>
        <time>2020-06-20T09:44:34Z</time>
      </trkpt>
      <trkpt lat="51.221224199741" lon="4.490164216354">
        <ele>0</ele>
        <time>2020-06-20T09:44:44Z</time>
      </trkpt>
      <trkpt lat="51.221398207985" lon="4.491035263402">
        <ele>0</ele>
        <time>2020-06-20T09:44:54Z</time>
      </trkpt>
      <trkpt lat="51.221566767994" lon="4.491857946887">
        <ele>0</ele>
        <time>2020-06-20T09:45:03Z</time>
      </trkpt>
      <trkpt lat="51.221730466501" lon="4.492685575693">
        <ele>0</ele>
        <time>2020-06-20T09:45:12Z</time>
      </trkpt>
      <trkpt lat="51.221885280194" lon="4.493568022125">
        <ele>0</ele>
        <time>2020-06-20T09:45:22Z</time>
      </trkpt>
      <trkpt lat="51.222040596801" lon="4.494439404449">
        <ele>0</ele>
        <time>2020-06-20T09:45:32Z</time>
      </trkpt>
      <trkpt lat="51.222227932266" lon="4.4953135528">
        <ele>0</ele>
        <time>2020-06-20T09:45:42Z</time>
      </trkpt>
      <trkpt lat="51.222277385476" lon="4.495574648985">
        <ele>0</ele>
        <time>2020-06-20T09:45:45Z</time>
      </trkpt>
      <trkpt lat="51.222453740652" lon="4.496472937208">
        <ele>0</ele>
        <time>2020-06-20T09:45:55Z</time>
      </trkpt>
      <trkpt lat="51.222629592914" lon="4.497327304275">
        <ele>0</ele>
        <time>2020-06-20T09:46:04Z</time>
      </trkpt>
      <trkpt lat="51.222666976188" lon="4.497522602545">
        <ele>0</ele>
        <time>2020-06-20T09:46:06Z</time>
      </trkpt>
      <trkpt lat="51.222729253705" lon="4.497814041208">
        <ele>0</ele>
        <time>2020-06-20T09:46:09Z</time>
      </trkpt>
      <trkpt lat="51.222899070999" lon="4.498463806096">
        <ele>1.6</ele>
        <time>2020-06-20T09:46:16Z</time>
      </trkpt>
      <trkpt lat="51.223084646265" lon="4.499308282521">
        <ele>2.6</ele>
        <time>2020-06-20T09:46:25Z</time>
      </trkpt>
      <trkpt lat="51.22324432146" lon="4.500183101424">
        <ele>0</ele>
        <time>2020-06-20T09:46:35Z</time>
      </trkpt>
      <trkpt lat="51.223391088529" lon="4.5010803">
        <ele>0</ele>
        <time>2020-06-20T09:46:46Z</time>
      </trkpt>
      <trkpt lat="51.223437859531" lon="4.501405769177">
        <ele>0</ele>
        <time>2020-06-20T09:46:50Z</time>
      </trkpt>
      <trkpt lat="51.223451102933" lon="4.501565947286">
        <ele>0</ele>
        <time>2020-06-20T09:46:52Z</time>
      </trkpt>
      <trkpt lat="51.223487731836" lon="4.501714306916">
        <ele>0</ele>
        <time>2020-06-20T09:46:54Z</time>
      </trkpt>
      <trkpt lat="51.223648412859" lon="4.502535062564">
        <ele>0</ele>
        <time>2020-06-20T09:47:04Z</time>
      </trkpt>
      <trkpt lat="51.223825941501" lon="4.503421699946">
        <ele>0</ele>
        <time>2020-06-20T09:47:14Z</time>
      </trkpt>
      <trkpt lat="51.224024508712" lon="4.504268690941">
        <ele>0</ele>
        <time>2020-06-20T09:47:23Z</time>
      </trkpt>
      <trkpt lat="51.224216035127" lon="4.505092380254">
        <ele>1.2</ele>
        <time>2020-06-20T09:47:34Z</time>
      </trkpt>
      <trkpt lat="51.224349977889" lon="4.505690680276">
        <ele>2.8</ele>
        <time>2020-06-20T09:47:42Z</time>
      </trkpt>
      <trkpt lat="51.224955989259" lon="4.506833887617">
        <ele>7.6</ele>
        <time>2020-06-20T09:56:57Z</time>
      </trkpt>
      <trkpt lat="51.224925982057" lon="4.506963387972">
        <ele>7.6</ele>
        <time>2020-06-20T09:57:01Z</time>
      </trkpt>
      <trkpt lat="51.224966634272" lon="4.507083249142">
        <ele>7.4</ele>
        <time>2020-06-20T09:57:03Z</time>
      </trkpt>
      <trkpt lat="51.225131841521" lon="4.507965444117">
        <ele>7.2</ele>
        <time>2020-06-20T09:57:15Z</time>
      </trkpt>
      <trkpt lat="51.225311884733" lon="4.508795419855">
        <ele>8</ele>
        <time>2020-06-20T09:57:26Z</time>
      </trkpt>
      <trkpt lat="51.225490083927" lon="4.509680297038">
        <ele>8.2</ele>
        <time>2020-06-20T09:57:37Z</time>
      </trkpt>
      <trkpt lat="51.225650429674" lon="4.510528964413">
        <ele>7.8</ele>
        <time>2020-06-20T09:57:47Z</time>
      </trkpt>
      <trkpt lat="51.225822426262" lon="4.511420714754">
        <ele>7.4</ele>
        <time>2020-06-20T09:57:57Z</time>
      </trkpt>
      <trkpt lat="51.225993836117" lon="4.512273237803">
        <ele>7</ele>
        <time>2020-06-20T09:58:07Z</time>
      </trkpt>
      <trkpt lat="51.226020071464" lon="4.512446826952">
        <ele>7</ele>
        <time>2020-06-20T09:58:09Z</time>
      </trkpt>
      <trkpt lat="51.226046306811" lon="4.512619913187">
        <ele>6.8</ele>
        <time>2020-06-20T09:58:11Z</time>
      </trkpt>
      <trkpt lat="51.226210089137" lon="4.513501940524">
        <ele>6.6</ele>
        <time>2020-06-20T09:58:22Z</time>
      </trkpt>
      <trkpt lat="51.226300865114" lon="4.514350607899">
        <ele>4.6</ele>
        <time>2020-06-20T09:58:34Z</time>
      </trkpt>
      <trkpt lat="51.226466994372" lon="4.515240514222">
        <ele>2.8</ele>
        <time>2020-06-20T09:58:44Z</time>
      </trkpt>
      <trkpt lat="51.226563050946" lon="4.515815512562">
        <ele>2</ele>
        <time>2020-06-20T09:58:51Z</time>
      </trkpt>
      <trkpt lat="51.226678050614" lon="4.516733330612">
        <ele>2.2</ele>
        <time>2020-06-20T09:59:04Z</time>
      </trkpt>
      <trkpt lat="51.226766814935" lon="4.517580237788">
        <ele>3.8</ele>
        <time>2020-06-20T09:59:14Z</time>
      </trkpt>
      <trkpt lat="51.22691978461" lon="4.51846184603">
        <ele>3.8</ele>
        <time>2020-06-20T09:59:24Z</time>
      </trkpt>
      <trkpt lat="51.227075939407" lon="4.519332893078">
        <ele>4.4</ele>
        <time>2020-06-20T09:59:34Z</time>
      </trkpt>
      <trkpt lat="51.227108964093" lon="4.519390141455">
        <ele>4.6</ele>
        <time>2020-06-20T09:59:35Z</time>
      </trkpt>
      <trkpt lat="51.227147101738" lon="4.519516540507">
        <ele>4.8</ele>
        <time>2020-06-20T09:59:37Z</time>
      </trkpt>
      <trkpt lat="51.227144754806" lon="4.519651321459">
        <ele>4.6</ele>
        <time>2020-06-20T09:59:39Z</time>
      </trkpt>
      <trkpt lat="51.227166044832" lon="4.519994308807">
        <ele>4.6</ele>
        <time>2020-06-20T09:59:42Z</time>
      </trkpt>
      <trkpt lat="51.227264951252" lon="4.520927298096">
        <ele>4.8</ele>
        <time>2020-06-20T09:59:53Z</time>
      </trkpt>
      <trkpt lat="51.227373580676" lon="4.521837320979">
        <ele>3.6</ele>
        <time>2020-06-20T10:00:03Z</time>
      </trkpt>
      <trkpt lat="51.227508026352" lon="4.522745499844">
        <ele>3.2</ele>
        <time>2020-06-20T10:00:13Z</time>
      </trkpt>
      <trkpt lat="51.227659822561" lon="4.523645045352">
        <ele>2.2</ele>
        <time>2020-06-20T10:00:23Z</time>
      </trkpt>
      <trkpt lat="51.227885630947" lon="4.524490443786">
        <ele>0.6</ele>
        <time>2020-06-20T10:00:33Z</time>
      </trkpt>
      <trkpt lat="51.228074475154" lon="4.525357970436">
        <ele>0</ele>
        <time>2020-06-20T10:00:43Z</time>
      </trkpt>
      <trkpt lat="51.228203221138" lon="4.526205464345">
        <ele>0</ele>
        <time>2020-06-20T10:00:52Z</time>
      </trkpt>
      <trkpt lat="51.228334565511" lon="4.527128143897">
        <ele>0</ele>
        <time>2020-06-20T10:01:02Z</time>
      </trkpt>
      <trkpt lat="51.228421904909" lon="4.527975805444">
        <ele>0</ele>
        <time>2020-06-20T10:01:11Z</time>
      </trkpt>
      <trkpt lat="51.228410673163" lon="4.528901921575">
        <ele>0.2</ele>
        <time>2020-06-20T10:01:21Z</time>
      </trkpt>
      <trkpt lat="51.228382929074" lon="4.529650509064">
        <ele>1.2</ele>
        <time>2020-06-20T10:01:29Z</time>
      </trkpt>
      <trkpt lat="51.228310509458" lon="4.529886878644">
        <ele>2</ele>
        <time>2020-06-20T10:01:32Z</time>
      </trkpt>
      <trkpt lat="51.228287794509" lon="4.530045296554">
        <ele>2.4</ele>
        <time>2020-06-20T10:01:34Z</time>
      </trkpt>
      <trkpt lat="51.228258876954" lon="4.530569249123">
        <ele>4.2</ele>
        <time>2020-06-20T10:01:40Z</time>
      </trkpt>
      <trkpt lat="51.228108757125" lon="4.530996893661">
        <ele>5.6</ele>
        <time>2020-06-20T10:01:46Z</time>
      </trkpt>
      <trkpt lat="51.228011443266" lon="4.531183810031">
        <ele>6.6</ele>
        <time>2020-06-20T10:01:50Z</time>
      </trkpt>
      <trkpt lat="51.227821928507" lon="4.53196927788">
        <ele>8.4</ele>
        <time>2020-06-20T10:02:06Z</time>
      </trkpt>
      <trkpt lat="51.227682621329" lon="4.532841917489">
        <ele>7.8</ele>
        <time>2020-06-20T10:02:19Z</time>
      </trkpt>
      <trkpt lat="51.227782449758" lon="4.53357608811">
        <ele>9.8</ele>
        <time>2020-06-20T10:02:28Z</time>
      </trkpt>
      <trkpt lat="51.228123928364" lon="4.534343534874">
        <ele>13.2</ele>
        <time>2020-06-20T10:02:38Z</time>
      </trkpt>
      <trkpt lat="51.228172962479" lon="4.534416373585">
        <ele>12.6</ele>
        <time>2020-06-20T10:02:39Z</time>
      </trkpt>
      <trkpt lat="51.228518380578" lon="4.534791798886">
        <ele>11.4</ele>
        <time>2020-06-20T10:02:45Z</time>
      </trkpt>
      <trkpt lat="51.228622902871" lon="4.534966980596">
        <ele>10.6</ele>
        <time>2020-06-20T10:02:47Z</time>
      </trkpt>
      <trkpt lat="51.228688784605" lon="4.535196896113">
        <ele>9.6</ele>
        <time>2020-06-20T10:02:49Z</time>
      </trkpt>
      <trkpt lat="51.228697417962" lon="4.5354544719">
        <ele>8.8</ele>
        <time>2020-06-20T10:02:51Z</time>
      </trkpt>
      <trkpt lat="51.228567833788" lon="4.536318561971">
        <ele>6.2</ele>
        <time>2020-06-20T10:02:58Z</time>
      </trkpt>
      <trkpt lat="51.228402123625" lon="4.537211737235">
        <ele>2.4</ele>
        <time>2020-06-20T10:03:06Z</time>
      </trkpt>
      <trkpt lat="51.22827765241" lon="4.53789947213">
        <ele>0.2</ele>
        <time>2020-06-20T10:03:13Z</time>
      </trkpt>
      <trkpt lat="51.228164245303" lon="4.537778186037">
        <ele>0.2</ele>
        <time>2020-06-20T10:03:17Z</time>
      </trkpt>
      <trkpt lat="51.228156533955" lon="4.537626389828">
        <ele>0.6</ele>
        <time>2020-06-20T10:03:19Z</time>
      </trkpt>
      <trkpt lat="51.228168268615" lon="4.53671510966">
        <ele>4.8</ele>
        <time>2020-06-20T10:03:30Z</time>
      </trkpt>
      <trkpt lat="51.228182182569" lon="4.536443452281">
        <ele>4.6</ele>
        <time>2020-06-20T10:03:33Z</time>
      </trkpt>
      <trkpt lat="51.228143458191" lon="4.536303306913">
        <ele>4.4</ele>
        <time>2020-06-20T10:03:35Z</time>
      </trkpt>
      <trkpt lat="51.228023597021" lon="4.536261145956">
        <ele>4.2</ele>
        <time>2020-06-20T10:03:38Z</time>
      </trkpt>
      <trkpt lat="51.227926366981" lon="4.536337253608">
        <ele>3.6</ele>
        <time>2020-06-20T10:03:40Z</time>
      </trkpt>
      <trkpt lat="51.22756267634" lon="4.536913257776">
        <ele>5.6</ele>
        <time>2020-06-20T10:03:49Z</time>
      </trkpt>
      <trkpt lat="51.227293114436" lon="4.537734516338">
        <ele>7.8</ele>
        <time>2020-06-20T10:04:01Z</time>
      </trkpt>
      <trkpt lat="51.227225640141" lon="4.537876338086">
        <ele>7.8</ele>
        <time>2020-06-20T10:04:03Z</time>
      </trkpt>
      <trkpt lat="51.226911151253" lon="4.538583770446">
        <ele>8.6</ele>
        <time>2020-06-20T10:04:12Z</time>
      </trkpt>
      <trkpt lat="51.22667084218" lon="4.539353061228">
        <ele>5.8</ele>
        <time>2020-06-20T10:04:21Z</time>
      </trkpt>
      <trkpt lat="51.226427180347" lon="4.540178426921">
        <ele>2.4</ele>
        <time>2020-06-20T10:04:31Z</time>
      </trkpt>
      <trkpt lat="51.226196761916" lon="4.541000020759">
        <ele>4.6</ele>
        <time>2020-06-20T10:04:40Z</time>
      </trkpt>
      <trkpt lat="51.225883949408" lon="4.542068042457">
        <ele>5</ele>
        <time>2020-06-20T10:04:52Z</time>
      </trkpt>
      <trkpt lat="51.225638443557" lon="4.542852504478">
        <ele>7.2</ele>
        <time>2020-06-20T10:05:01Z</time>
      </trkpt>
      <trkpt lat="51.225458987078" lon="4.543449379577">
        <ele>7.4</ele>
        <time>2020-06-20T10:05:08Z</time>
      </trkpt>
      <trkpt lat="51.225222030765" lon="4.54431330201">
        <ele>9.4</ele>
        <time>2020-06-20T10:05:18Z</time>
      </trkpt>
      <trkpt lat="51.224969987032" lon="4.545079491489">
        <ele>8.8</ele>
        <time>2020-06-20T10:05:27Z</time>
      </trkpt>
      <trkpt lat="51.224708555571" lon="4.545925225199">
        <ele>7.8</ele>
        <time>2020-06-20T10:05:37Z</time>
      </trkpt>
      <trkpt lat="51.224472018353" lon="4.546697701103">
        <ele>6.6</ele>
        <time>2020-06-20T10:05:46Z</time>
      </trkpt>
      <trkpt lat="51.224217627688" lon="4.547477720717">
        <ele>5.4</ele>
        <time>2020-06-20T10:05:56Z</time>
      </trkpt>
      <trkpt lat="51.223935660572" lon="4.548288334266">
        <ele>4</ele>
        <time>2020-06-20T10:06:07Z</time>
      </trkpt>
      <trkpt lat="51.223685293219" lon="4.549085452956">
        <ele>0.8</ele>
        <time>2020-06-20T10:06:17Z</time>
      </trkpt>
      <trkpt lat="51.223442301938" lon="4.549904699862">
        <ele>2.4</ele>
        <time>2020-06-20T10:06:27Z</time>
      </trkpt>
      <trkpt lat="51.223214733353" lon="4.550684132743">
        <ele>3.8</ele>
        <time>2020-06-20T10:06:36Z</time>
      </trkpt>
      <trkpt lat="51.22295933686" lon="4.5514722828">
        <ele>4.4</ele>
        <time>2020-06-20T10:06:45Z</time>
      </trkpt>
      <trkpt lat="51.222699749417" lon="4.552281806702">
        <ele>3.2</ele>
        <time>2020-06-20T10:06:54Z</time>
      </trkpt>
      <trkpt lat="51.222462122552" lon="4.553094096631">
        <ele>4.6</ele>
        <time>2020-06-20T10:07:03Z</time>
      </trkpt>
      <trkpt lat="51.222198679435" lon="4.553921893075">
        <ele>5.4</ele>
        <time>2020-06-20T10:07:12Z</time>
      </trkpt>
      <trkpt lat="51.221950910471" lon="4.554707277105">
        <ele>5.8</ele>
        <time>2020-06-20T10:07:21Z</time>
      </trkpt>
      <trkpt lat="51.221701465127" lon="4.555535911739">
        <ele>7.8</ele>
        <time>2020-06-20T10:07:31Z</time>
      </trkpt>
      <trkpt lat="51.221457970932" lon="4.556403606027">
        <ele>7.2</ele>
        <time>2020-06-20T10:07:41Z</time>
      </trkpt>
      <trkpt lat="51.221180865318" lon="4.557247914814">
        <ele>5.8</ele>
        <time>2020-06-20T10:07:51Z</time>
      </trkpt>
      <trkpt lat="51.220908453568" lon="4.558063473684">
        <ele>6.4</ele>
        <time>2020-06-20T10:08:00Z</time>
      </trkpt>
      <trkpt lat="51.220646603012" lon="4.558881714762">
        <ele>5.6</ele>
        <time>2020-06-20T10:08:09Z</time>
      </trkpt>
      <trkpt lat="51.220381986429" lon="4.559713199242">
        <ele>6.8</ele>
        <time>2020-06-20T10:08:18Z</time>
      </trkpt>
      <trkpt lat="51.220112759801" lon="4.560528590474">
        <ele>8.2</ele>
        <time>2020-06-20T10:08:27Z</time>
      </trkpt>
      <trkpt lat="51.21985635748" lon="4.561356638375">
        <ele>7.2</ele>
        <time>2020-06-20T10:08:36Z</time>
      </trkpt>
      <trkpt lat="51.219599536064" lon="4.562182171706">
        <ele>9.4</ele>
        <time>2020-06-20T10:08:45Z</time>
      </trkpt>
      <trkpt lat="51.219337266413" lon="4.562976524369">
        <ele>10</ele>
        <time>2020-06-20T10:08:54Z</time>
      </trkpt>
      <trkpt lat="51.219095700055" lon="4.563752520671">
        <ele>9.4</ele>
        <time>2020-06-20T10:09:03Z</time>
      </trkpt>
      <trkpt lat="51.218852541136" lon="4.564543604393">
        <ele>8.4</ele>
        <time>2020-06-20T10:09:12Z</time>
      </trkpt>
      <trkpt lat="51.218603011973" lon="4.565343824386">
        <ele>8.6</ele>
        <time>2020-06-20T10:09:21Z</time>
      </trkpt>
      <trkpt lat="51.218360272149" lon="4.566127532036">
        <ele>9.2</ele>
        <time>2020-06-20T10:09:30Z</time>
      </trkpt>
      <trkpt lat="51.218101439077" lon="4.566948371503">
        <ele>9.2</ele>
        <time>2020-06-20T10:09:40Z</time>
      </trkpt>
      <trkpt lat="51.217834307924" lon="4.567752279532">
        <ele>8.6</ele>
        <time>2020-06-20T10:09:50Z</time>
      </trkpt>
      <trkpt lat="51.217569104608" lon="4.568560546149">
        <ele>7.4</ele>
        <time>2020-06-20T10:10:00Z</time>
      </trkpt>
      <trkpt lat="51.217306332043" lon="4.569366382015">
        <ele>7</ele>
        <time>2020-06-20T10:10:10Z</time>
      </trkpt>
      <trkpt lat="51.217072225576" lon="4.570149335294">
        <ele>7.2</ele>
        <time>2020-06-20T10:10:20Z</time>
      </trkpt>
      <trkpt lat="51.216808111907" lon="4.570941089568">
        <ele>8.6</ele>
        <time>2020-06-20T10:10:30Z</time>
      </trkpt>
      <trkpt lat="51.216553637423" lon="4.571734352584">
        <ele>9.6</ele>
        <time>2020-06-20T10:10:40Z</time>
      </trkpt>
      <trkpt lat="51.216307293382" lon="4.572521664451">
        <ele>9.6</ele>
        <time>2020-06-20T10:10:50Z</time>
      </trkpt>
      <trkpt lat="51.21606270954" lon="4.573335379303">
        <ele>8</ele>
        <time>2020-06-20T10:11:00Z</time>
      </trkpt>
      <trkpt lat="51.215814018567" lon="4.574143394463">
        <ele>7.8</ele>
        <time>2020-06-20T10:11:10Z</time>
      </trkpt>
      <trkpt lat="51.215558873531" lon="4.574921570059">
        <ele>8.6</ele>
        <time>2020-06-20T10:11:20Z</time>
      </trkpt>
      <trkpt lat="51.215313283861" lon="4.575703601329">
        <ele>9</ele>
        <time>2020-06-20T10:11:30Z</time>
      </trkpt>
      <trkpt lat="51.215080937593" lon="4.576504324236">
        <ele>9.4</ele>
        <time>2020-06-20T10:11:40Z</time>
      </trkpt>
      <trkpt lat="51.214835683199" lon="4.577343603883">
        <ele>9.2</ele>
        <time>2020-06-20T10:11:51Z</time>
      </trkpt>
      <trkpt lat="51.214615406867" lon="4.578119600185">
        <ele>8.2</ele>
        <time>2020-06-20T10:12:02Z</time>
      </trkpt>
      <trkpt lat="51.214290021509" lon="4.578852010607">
        <ele>7.2</ele>
        <time>2020-06-20T10:12:13Z</time>
      </trkpt>
      <trkpt lat="51.214031188437" lon="4.579657762654">
        <ele>7.8</ele>
        <time>2020-06-20T10:12:23Z</time>
      </trkpt>
      <trkpt lat="51.213757603221" lon="4.580488660401">
        <ele>7.2</ele>
        <time>2020-06-20T10:12:33Z</time>
      </trkpt>
      <trkpt lat="51.213494914475" lon="4.581294160991">
        <ele>8.8</ele>
        <time>2020-06-20T10:12:43Z</time>
      </trkpt>
      <trkpt lat="51.213255862687" lon="4.582094883898">
        <ele>9.4</ele>
        <time>2020-06-20T10:12:53Z</time>
      </trkpt>
      <trkpt lat="51.212980601091" lon="4.58290859875">
        <ele>9.8</ele>
        <time>2020-06-20T10:13:03Z</time>
      </trkpt>
      <trkpt lat="51.212714894861" lon="4.583738239212">
        <ele>9.4</ele>
        <time>2020-06-20T10:13:13Z</time>
      </trkpt>
      <trkpt lat="51.212432424831" lon="4.584553462806">
        <ele>8</ele>
        <time>2020-06-20T10:13:23Z</time>
      </trkpt>
      <trkpt lat="51.212159426348" lon="4.585339098293">
        <ele>6.6</ele>
        <time>2020-06-20T10:13:33Z</time>
      </trkpt>
      <trkpt lat="51.211884248571" lon="4.586171588601">
        <ele>8</ele>
        <time>2020-06-20T10:13:43Z</time>
      </trkpt>
      <trkpt lat="51.211617117418" lon="4.587001731977">
        <ele>8.8</ele>
        <time>2020-06-20T10:13:53Z</time>
      </trkpt>
      <trkpt lat="51.211375467241" lon="4.587769514017">
        <ele>9.2</ele>
        <time>2020-06-20T10:14:02Z</time>
      </trkpt>
      <trkpt lat="51.21112157949" lon="4.588548024889">
        <ele>9.6</ele>
        <time>2020-06-20T10:14:11Z</time>
      </trkpt>
      <trkpt lat="51.210845563523" lon="4.589390070563">
        <ele>7.2</ele>
        <time>2020-06-20T10:14:21Z</time>
      </trkpt>
      <trkpt lat="51.210585054071" lon="4.590237983567">
        <ele>5.8</ele>
        <time>2020-06-20T10:14:31Z</time>
      </trkpt>
      <trkpt lat="51.210335608727" lon="4.591009621281">
        <ele>6.2</ele>
        <time>2020-06-20T10:14:40Z</time>
      </trkpt>
      <trkpt lat="51.210066968832" lon="4.591839345562">
        <ele>5.2</ele>
        <time>2020-06-20T10:14:50Z</time>
      </trkpt>
      <trkpt lat="51.209806543199" lon="4.592610731819">
        <ele>5.2</ele>
        <time>2020-06-20T10:15:00Z</time>
      </trkpt>
      <trkpt lat="51.209554667104" lon="4.593397373134">
        <ele>6.6</ele>
        <time>2020-06-20T10:15:10Z</time>
      </trkpt>
      <trkpt lat="51.209292229815" lon="4.594175967825">
        <ele>6.4</ele>
        <time>2020-06-20T10:15:20Z</time>
      </trkpt>
      <trkpt lat="51.209028451422" lon="4.595019941336">
        <ele>5.4</ele>
        <time>2020-06-20T10:15:31Z</time>
      </trkpt>
      <trkpt lat="51.208758386604" lon="4.595798368389">
        <ele>7.2</ele>
        <time>2020-06-20T10:15:41Z</time>
      </trkpt>
      <trkpt lat="51.20851983773" lon="4.596589116835">
        <ele>7.4</ele>
        <time>2020-06-20T10:15:51Z</time>
      </trkpt>
      <trkpt lat="51.208272990775" lon="4.59736905263">
        <ele>5.4</ele>
        <time>2020-06-20T10:16:01Z</time>
      </trkpt>
      <trkpt lat="51.207997729179" lon="4.598148066416">
        <ele>4.4</ele>
        <time>2020-06-20T10:16:11Z</time>
      </trkpt>
      <trkpt lat="51.207721210298" lon="4.598956668309">
        <ele>4.8</ele>
        <time>2020-06-20T10:16:21Z</time>
      </trkpt>
      <trkpt lat="51.20763303271" lon="4.599193373165">
        <ele>3.8</ele>
        <time>2020-06-20T10:16:24Z</time>
      </trkpt>
      <trkpt lat="51.207341677866" lon="4.599970710571">
        <ele>1.2</ele>
        <time>2020-06-20T10:16:34Z</time>
      </trkpt>
      <trkpt lat="51.207079324396" lon="4.600821473421">
        <ele>4</ele>
        <time>2020-06-20T10:16:44Z</time>
      </trkpt>
      <trkpt lat="51.206813534347" lon="4.601657484127">
        <ele>4.8</ele>
        <time>2020-06-20T10:16:54Z</time>
      </trkpt>
      <trkpt lat="51.20655931132" lon="4.602452507342">
        <ele>4.4</ele>
        <time>2020-06-20T10:17:04Z</time>
      </trkpt>
      <trkpt lat="51.206293688909" lon="4.603280052329">
        <ele>6.4</ele>
        <time>2020-06-20T10:17:14Z</time>
      </trkpt>
      <trkpt lat="51.206012643802" lon="4.604109525153">
        <ele>7.4</ele>
        <time>2020-06-20T10:17:24Z</time>
      </trkpt>
      <trkpt lat="51.20553755771" lon="4.605791353388">
        <ele>7.6</ele>
        <time>2020-06-20T10:17:43Z</time>
      </trkpt>
      <trkpt lat="51.205266319426" lon="4.606580509273">
        <ele>6</ele>
        <time>2020-06-20T10:17:53Z</time>
      </trkpt>
      <trkpt lat="51.20495250109" lon="4.607353320453">
        <ele>5.2</ele>
        <time>2020-06-20T10:18:04Z</time>
      </trkpt>
      <trkpt lat="51.204701295547" lon="4.608133256248">
        <ele>4.4</ele>
        <time>2020-06-20T10:18:15Z</time>
      </trkpt>
      <trkpt lat="51.204457046981" lon="4.608905396876">
        <ele>3.2</ele>
        <time>2020-06-20T10:18:25Z</time>
      </trkpt>
      <trkpt lat="51.204198800642" lon="4.609725817248">
        <ele>2.6</ele>
        <time>2020-06-20T10:18:35Z</time>
      </trkpt>
      <trkpt lat="51.204018003059" lon="4.61060994006">
        <ele>3</ele>
        <time>2020-06-20T10:18:45Z</time>
      </trkpt>
      <trkpt lat="51.203971651152" lon="4.611542761711">
        <ele>3.6</ele>
        <time>2020-06-20T10:18:55Z</time>
      </trkpt>
      <trkpt lat="51.204100145679" lon="4.612471224774">
        <ele>4.4</ele>
        <time>2020-06-20T10:19:05Z</time>
      </trkpt>
      <trkpt lat="51.204351267403" lon="4.613265661256">
        <ele>6</ele>
        <time>2020-06-20T10:19:14Z</time>
      </trkpt>
      <trkpt lat="51.204712192017" lon="4.613932189944">
        <ele>7.2</ele>
        <time>2020-06-20T10:19:23Z</time>
      </trkpt>
      <trkpt lat="51.20517462144" lon="4.614418507782">
        <ele>8.6</ele>
        <time>2020-06-20T10:19:32Z</time>
      </trkpt>
      <trkpt lat="51.205684157141" lon="4.614709443531">
        <ele>8.8</ele>
        <time>2020-06-20T10:19:41Z</time>
      </trkpt>
      <trkpt lat="51.206269549037" lon="4.614786724649">
        <ele>8.6</ele>
        <time>2020-06-20T10:19:51Z</time>
      </trkpt>
      <trkpt lat="51.206778498005" lon="4.614710197902">
        <ele>8.6</ele>
        <time>2020-06-20T10:20:00Z</time>
      </trkpt>
      <trkpt lat="51.206881092461" lon="4.61477490617">
        <ele>8.6</ele>
        <time>2020-06-20T10:20:02Z</time>
      </trkpt>
      <trkpt lat="51.206926857635" lon="4.614942292713">
        <ele>8.4</ele>
        <time>2020-06-20T10:20:04Z</time>
      </trkpt>
      <trkpt lat="51.206966001108" lon="4.615658106973">
        <ele>8</ele>
        <time>2020-06-20T10:20:12Z</time>
      </trkpt>
      <trkpt lat="51.2069800827" lon="4.615841000031">
        <ele>8</ele>
        <time>2020-06-20T10:20:14Z</time>
      </trkpt>
      <trkpt lat="51.207004474029" lon="4.61639428925">
        <ele>7.4</ele>
        <time>2020-06-20T10:20:20Z</time>
      </trkpt>
      <trkpt lat="51.206960301416" lon="4.616554634997">
        <ele>7.2</ele>
        <time>2020-06-20T10:20:22Z</time>
      </trkpt>
      <trkpt lat="51.206406844559" lon="4.616669550846">
        <ele>6.8</ele>
        <time>2020-06-20T10:20:31Z</time>
      </trkpt>
      <trkpt lat="51.205841066309" lon="4.61681673701">
        <ele>5.6</ele>
        <time>2020-06-20T10:20:41Z</time>
      </trkpt>
      <trkpt lat="51.205277299715" lon="4.617028212347">
        <ele>6.4</ele>
        <time>2020-06-20T10:20:51Z</time>
      </trkpt>
      <trkpt lat="51.204723759039" lon="4.617304731228">
        <ele>6.2</ele>
        <time>2020-06-20T10:21:01Z</time>
      </trkpt>
      <trkpt lat="51.204186060154" lon="4.617633553165">
        <ele>6.8</ele>
        <time>2020-06-20T10:21:11Z</time>
      </trkpt>
      <trkpt lat="51.203679374299" lon="4.617994561598">
        <ele>7</ele>
        <time>2020-06-20T10:21:21Z</time>
      </trkpt>
      <trkpt lat="51.20319062571" lon="4.618401586662">
        <ele>6.8</ele>
        <time>2020-06-20T10:21:31Z</time>
      </trkpt>
      <trkpt lat="51.202684526588" lon="4.618900058255">
        <ele>7</ele>
        <time>2020-06-20T10:21:42Z</time>
      </trkpt>
      <trkpt lat="51.202212709437" lon="4.619441528995">
        <ele>6.8</ele>
        <time>2020-06-20T10:21:52Z</time>
      </trkpt>
      <trkpt lat="51.201750866747" lon="4.620041756854">
        <ele>7.2</ele>
        <time>2020-06-20T10:22:02Z</time>
      </trkpt>
      <trkpt lat="51.2013223002" lon="4.620696047968">
        <ele>7.4</ele>
        <time>2020-06-20T10:22:12Z</time>
      </trkpt>
      <trkpt lat="51.200938073904" lon="4.621358469525">
        <ele>7</ele>
        <time>2020-06-20T10:22:22Z</time>
      </trkpt>
      <trkpt lat="51.200565079354" lon="4.622076043984">
        <ele>6.6</ele>
        <time>2020-06-20T10:22:32Z</time>
      </trkpt>
      <trkpt lat="51.200219158341" lon="4.62285338139">
        <ele>6</ele>
        <time>2020-06-20T10:22:42Z</time>
      </trkpt>
      <trkpt lat="51.199927887316" lon="4.623628958597">
        <ele>4.6</ele>
        <time>2020-06-20T10:22:51Z</time>
      </trkpt>
      <trkpt lat="51.199662013448" lon="4.624418701215">
        <ele>4</ele>
        <time>2020-06-20T10:23:00Z</time>
      </trkpt>
      <trkpt lat="51.199437965261" lon="4.625202408865">
        <ele>4.4</ele>
        <time>2020-06-20T10:23:09Z</time>
      </trkpt>
      <trkpt lat="51.199226741381" lon="4.625994163139">
        <ele>6</ele>
        <time>2020-06-20T10:23:18Z</time>
      </trkpt>
      <trkpt lat="51.199011661827" lon="4.626819025918">
        <ele>5.4</ele>
        <time>2020-06-20T10:23:28Z</time>
      </trkpt>
      <trkpt lat="51.198799432119" lon="4.627685379102">
        <ele>5.6</ele>
        <time>2020-06-20T10:23:39Z</time>
      </trkpt>
      <trkpt lat="51.198608157161" lon="4.628578889642">
        <ele>6.2</ele>
        <time>2020-06-20T10:23:49Z</time>
      </trkpt>
      <trkpt lat="51.198413864719" lon="4.629463683006">
        <ele>7.8</ele>
        <time>2020-06-20T10:23:58Z</time>
      </trkpt>
      <trkpt lat="51.19824865747" lon="4.630329533276">
        <ele>9</ele>
        <time>2020-06-20T10:24:07Z</time>
      </trkpt>
      <trkpt lat="51.198073224303" lon="4.631185325266">
        <ele>8.4</ele>
        <time>2020-06-20T10:24:16Z</time>
      </trkpt>
      <trkpt lat="51.197927463062" lon="4.632040195247">
        <ele>8.4</ele>
        <time>2020-06-20T10:24:25Z</time>
      </trkpt>
      <trkpt lat="51.197791760101" lon="4.632877127962">
        <ele>9.6</ele>
        <time>2020-06-20T10:24:34Z</time>
      </trkpt>
      <trkpt lat="51.197664019945" lon="4.633719592731">
        <ele>9.4</ele>
        <time>2020-06-20T10:24:43Z</time>
      </trkpt>
      <trkpt lat="51.197548098268" lon="4.634578653662">
        <ele>8.6</ele>
        <time>2020-06-20T10:24:52Z</time>
      </trkpt>
      <trkpt lat="51.197441815776" lon="4.635482306301">
        <ele>8.6</ele>
        <time>2020-06-20T10:25:01Z</time>
      </trkpt>
      <trkpt lat="51.197345256288" lon="4.636371458253">
        <ele>9.2</ele>
        <time>2020-06-20T10:25:10Z</time>
      </trkpt>
      <trkpt lat="51.197249702628" lon="4.637228423709">
        <ele>9.6</ele>
        <time>2020-06-20T10:25:19Z</time>
      </trkpt>
      <trkpt lat="51.197170158397" lon="4.638104583716">
        <ele>10</ele>
        <time>2020-06-20T10:25:28Z</time>
      </trkpt>
      <trkpt lat="51.197096062401" lon="4.63902206649">
        <ele>10</ele>
        <time>2020-06-20T10:25:37Z</time>
      </trkpt>
      <trkpt lat="51.196999335275" lon="4.639938794893">
        <ele>10.2</ele>
        <time>2020-06-20T10:25:47Z</time>
      </trkpt>
      <trkpt lat="51.196884503245" lon="4.640484540402">
        <ele>10.2</ele>
        <time>2020-06-20T10:25:54Z</time>
      </trkpt>
      <trkpt lat="51.196947535133" lon="4.640643712683">
        <ele>9.8</ele>
        <time>2020-06-20T10:25:57Z</time>
      </trkpt>
      <trkpt lat="51.197373670929" lon="4.641195157884">
        <ele>9.4</ele>
        <time>2020-06-20T10:26:07Z</time>
      </trkpt>
      <trkpt lat="51.197851690686" lon="4.641721373566">
        <ele>8.6</ele>
        <time>2020-06-20T10:26:17Z</time>
      </trkpt>
      <trkpt lat="51.198354688505" lon="4.642130410286">
        <ele>9</ele>
        <time>2020-06-20T10:26:27Z</time>
      </trkpt>
      <trkpt lat="51.198877467608" lon="4.642427129546">
        <ele>9</ele>
        <time>2020-06-20T10:26:37Z</time>
      </trkpt>
      <trkpt lat="51.199084165262" lon="4.642538022083">
        <ele>9.2</ele>
        <time>2020-06-20T10:26:41Z</time>
      </trkpt>
      <trkpt lat="51.199185083338" lon="4.642592588252">
        <ele>9.2</ele>
        <time>2020-06-20T10:26:43Z</time>
      </trkpt>
      <trkpt lat="51.199226322286" lon="4.642728458851">
        <ele>9.2</ele>
        <time>2020-06-20T10:26:45Z</time>
      </trkpt>
      <trkpt lat="51.199191202125" lon="4.642814373326">
        <ele>8.8</ele>
        <time>2020-06-20T10:26:47Z</time>
      </trkpt>
      <trkpt lat="51.199109730057" lon="4.643048312155">
        <ele>5.2</ele>
        <time>2020-06-20T10:27:35Z</time>
      </trkpt>
      <trkpt lat="51.198855674668" lon="4.642829628384">
        <ele>7.2</ele>
        <time>2020-06-20T10:27:41Z</time>
      </trkpt>
      <trkpt lat="51.198301211983" lon="4.642605412559">
        <ele>7</ele>
        <time>2020-06-20T10:27:51Z</time>
      </trkpt>
      <trkpt lat="51.198004492723" lon="4.642576243547">
        <ele>5.6</ele>
        <time>2020-06-20T10:27:57Z</time>
      </trkpt>
      <trkpt lat="51.197918829705" lon="4.642613291545">
        <ele>4.8</ele>
        <time>2020-06-20T10:27:59Z</time>
      </trkpt>
      <trkpt lat="51.197835765076" lon="4.64268495679">
        <ele>3.8</ele>
        <time>2020-06-20T10:28:01Z</time>
      </trkpt>
      <trkpt lat="51.19775663994" lon="4.642801549019">
        <ele>3.6</ele>
        <time>2020-06-20T10:28:03Z</time>
      </trkpt>
      <trkpt lat="51.197597970573" lon="4.643428682777">
        <ele>2.8</ele>
        <time>2020-06-20T10:28:11Z</time>
      </trkpt>
      <trkpt lat="51.197590762139" lon="4.643637475906">
        <ele>5</ele>
        <time>2020-06-20T10:28:14Z</time>
      </trkpt>
      <trkpt lat="51.197538207626" lon="4.643668069841">
        <ele>5.8</ele>
        <time>2020-06-20T10:28:16Z</time>
      </trkpt>
      <trkpt lat="51.19745489154" lon="4.643558518408">
        <ele>6.2</ele>
        <time>2020-06-20T10:28:19Z</time>
      </trkpt>
      <trkpt lat="51.197353722007" lon="4.643553153992">
        <ele>7.8</ele>
        <time>2020-06-20T10:28:21Z</time>
      </trkpt>
      <trkpt lat="51.197024229518" lon="4.643604283582">
        <ele>10.8</ele>
        <time>2020-06-20T10:28:27Z</time>
      </trkpt>
      <trkpt lat="51.196856172423" lon="4.643458941436">
        <ele>14.2</ele>
        <time>2020-06-20T10:28:30Z</time>
      </trkpt>
      <trkpt lat="51.196585856148" lon="4.643492301398">
        <ele>13.6</ele>
        <time>2020-06-20T10:28:35Z</time>
      </trkpt>
      <trkpt lat="51.196513268894" lon="4.643577712959">
        <ele>13</ele>
        <time>2020-06-20T10:28:37Z</time>
      </trkpt>
      <trkpt lat="51.196472951955" lon="4.643733783937">
        <ele>13</ele>
        <time>2020-06-20T10:28:39Z</time>
      </trkpt>
      <trkpt lat="51.19648175295" lon="4.643931764415">
        <ele>12.6</ele>
        <time>2020-06-20T10:28:41Z</time>
      </trkpt>
      <trkpt lat="51.196436825966" lon="4.644840362375">
        <ele>9.8</ele>
        <time>2020-06-20T10:28:50Z</time>
      </trkpt>
      <trkpt lat="51.196366418006" lon="4.645713085803">
        <ele>7.8</ele>
        <time>2020-06-20T10:28:59Z</time>
      </trkpt>
      <trkpt lat="51.196244880456" lon="4.646571811458">
        <ele>7.6</ele>
        <time>2020-06-20T10:29:08Z</time>
      </trkpt>
      <trkpt lat="51.196104902726" lon="4.647424166869">
        <ele>6.8</ele>
        <time>2020-06-20T10:29:17Z</time>
      </trkpt>
      <trkpt lat="51.195957381286" lon="4.648283730714">
        <ele>6.6</ele>
        <time>2020-06-20T10:29:26Z</time>
      </trkpt>
      <trkpt lat="51.195785971431" lon="4.649196351986">
        <ele>7</ele>
        <time>2020-06-20T10:29:36Z</time>
      </trkpt>
      <trkpt lat="51.195622021467" lon="4.650086677404">
        <ele>6.2</ele>
        <time>2020-06-20T10:29:46Z</time>
      </trkpt>
      <trkpt lat="51.195412725424" lon="4.650930483277">
        <ele>10.4</ele>
        <time>2020-06-20T10:29:56Z</time>
      </trkpt>
      <trkpt lat="51.195235783515" lon="4.651772696589">
        <ele>8.2</ele>
        <time>2020-06-20T10:30:06Z</time>
      </trkpt>
      <trkpt lat="51.1950274933" lon="4.65261499372">
        <ele>7.2</ele>
        <time>2020-06-20T10:30:16Z</time>
      </trkpt>
      <trkpt lat="51.194816101782" lon="4.653464666923">
        <ele>5</ele>
        <time>2020-06-20T10:30:26Z</time>
      </trkpt>
      <trkpt lat="51.194579229288" lon="4.654320291275">
        <ele>4.6</ele>
        <time>2020-06-20T10:30:36Z</time>
      </trkpt>
      <trkpt lat="51.194326179727" lon="4.655153703592">
        <ele>4.2</ele>
        <time>2020-06-20T10:30:46Z</time>
      </trkpt>
      <trkpt lat="51.194140520642" lon="4.655737000013">
        <ele>5.8</ele>
        <time>2020-06-20T10:30:53Z</time>
      </trkpt>
      <trkpt lat="51.193760820572" lon="4.656470248625">
        <ele>5.2</ele>
        <time>2020-06-20T10:31:03Z</time>
      </trkpt>
      <trkpt lat="51.19348606189" lon="4.657208526377">
        <ele>5.6</ele>
        <time>2020-06-20T10:31:12Z</time>
      </trkpt>
      <trkpt lat="51.193263857721" lon="4.658492717276">
        <ele>5.2</ele>
        <time>2020-06-20T10:31:26Z</time>
      </trkpt>
      <trkpt lat="51.193105188354" lon="4.659350604741">
        <ele>9.4</ele>
        <time>2020-06-20T10:31:37Z</time>
      </trkpt>
      <trkpt lat="51.19286831586" lon="4.660148142526">
        <ele>12.6</ele>
        <time>2020-06-20T10:31:48Z</time>
      </trkpt>
      <trkpt lat="51.192628006787" lon="4.661022961429">
        <ele>12.4</ele>
        <time>2020-06-20T10:31:58Z</time>
      </trkpt>
      <trkpt lat="51.192418124011" lon="4.661829300209">
        <ele>11.6</ele>
        <time>2020-06-20T10:32:07Z</time>
      </trkpt>
      <trkpt lat="51.192216958411" lon="4.662648044201">
        <ele>12</ele>
        <time>2020-06-20T10:32:16Z</time>
      </trkpt>
      <trkpt lat="51.192016547182" lon="4.663488916409">
        <ele>12.6</ele>
        <time>2020-06-20T10:32:25Z</time>
      </trkpt>
      <trkpt lat="51.191845556422" lon="4.664314533559">
        <ele>10.4</ele>
        <time>2020-06-20T10:32:34Z</time>
      </trkpt>
      <trkpt lat="51.191675822947" lon="4.665141910908">
        <ele>6.8</ele>
        <time>2020-06-20T10:32:43Z</time>
      </trkpt>
      <trkpt lat="51.191487062559" lon="4.665966438411">
        <ele>5.4</ele>
        <time>2020-06-20T10:32:52Z</time>
      </trkpt>
      <trkpt lat="51.191304169501" lon="4.666813261768">
        <ele>8.2</ele>
        <time>2020-06-20T10:33:01Z</time>
      </trkpt>
      <trkpt lat="51.191128149601" lon="4.667703168091">
        <ele>6</ele>
        <time>2020-06-20T10:33:11Z</time>
      </trkpt>
      <trkpt lat="51.190953303167" lon="4.668598941744">
        <ele>6.8</ele>
        <time>2020-06-20T10:33:20Z</time>
      </trkpt>
      <trkpt lat="51.190784826977" lon="4.669442244703">
        <ele>5.6</ele>
        <time>2020-06-20T10:33:28Z</time>
      </trkpt>
      <trkpt lat="51.190608639439" lon="4.670257635935">
        <ele>6.2</ele>
        <time>2020-06-20T10:33:36Z</time>
      </trkpt>
      <trkpt lat="51.190447539321" lon="4.671117870332">
        <ele>4.4</ele>
        <time>2020-06-20T10:33:45Z</time>
      </trkpt>
      <trkpt lat="51.190277722027" lon="4.671983469145">
        <ele>5</ele>
        <time>2020-06-20T10:33:54Z</time>
      </trkpt>
      <trkpt lat="51.190119807031" lon="4.672852420718">
        <ele>3.6</ele>
        <time>2020-06-20T10:34:03Z</time>
      </trkpt>
      <trkpt lat="51.189948313357" lon="4.673696645686">
        <ele>4.6</ele>
        <time>2020-06-20T10:34:12Z</time>
      </trkpt>
      <trkpt lat="51.189769862706" lon="4.674571548408">
        <ele>4.4</ele>
        <time>2020-06-20T10:34:22Z</time>
      </trkpt>
      <trkpt lat="51.189615551927" lon="4.675398925757">
        <ele>4.8</ele>
        <time>2020-06-20T10:34:31Z</time>
      </trkpt>
      <trkpt lat="51.189449590307" lon="4.676255639756">
        <ele>6.6</ele>
        <time>2020-06-20T10:34:40Z</time>
      </trkpt>
      <trkpt lat="51.189280275927" lon="4.677111431746">
        <ele>7</ele>
        <time>2020-06-20T10:34:49Z</time>
      </trkpt>
      <trkpt lat="51.189114733402" lon="4.677966637003">
        <ele>6.8</ele>
        <time>2020-06-20T10:34:58Z</time>
      </trkpt>
      <trkpt lat="51.188947682135" lon="4.67881681312">
        <ele>6.8</ele>
        <time>2020-06-20T10:35:07Z</time>
      </trkpt>
      <trkpt lat="51.188774679719" lon="4.679671515463">
        <ele>6.4</ele>
        <time>2020-06-20T10:35:16Z</time>
      </trkpt>
      <trkpt lat="51.18860276695" lon="4.680536946638">
        <ele>6.6</ele>
        <time>2020-06-20T10:35:25Z</time>
      </trkpt>
      <trkpt lat="51.188428842525" lon="4.681426433866">
        <ele>6</ele>
        <time>2020-06-20T10:35:34Z</time>
      </trkpt>
      <trkpt lat="51.188249469865" lon="4.682323548623">
        <ele>4.2</ele>
        <time>2020-06-20T10:35:43Z</time>
      </trkpt>
      <trkpt lat="51.188073785241" lon="4.683221082475">
        <ele>3.6</ele>
        <time>2020-06-20T10:35:52Z</time>
      </trkpt>
      <trkpt lat="51.18789701097" lon="4.684107971314">
        <ele>5.2</ele>
        <time>2020-06-20T10:36:01Z</time>
      </trkpt>
      <trkpt lat="51.187716716301" lon="4.685001984768">
        <ele>6.2</ele>
        <time>2020-06-20T10:36:11Z</time>
      </trkpt>
      <trkpt lat="51.187530219026" lon="4.685899937715">
        <ele>7</ele>
        <time>2020-06-20T10:36:21Z</time>
      </trkpt>
      <trkpt lat="51.187349086167" lon="4.686796046644">
        <ele>6.6</ele>
        <time>2020-06-20T10:36:31Z</time>
      </trkpt>
      <trkpt lat="51.187186477307" lon="4.687625687106">
        <ele>6.8</ele>
        <time>2020-06-20T10:36:40Z</time>
      </trkpt>
      <trkpt lat="51.186998303652" lon="4.688525903166">
        <ele>6.8</ele>
        <time>2020-06-20T10:36:50Z</time>
      </trkpt>
      <trkpt lat="51.186840640113" lon="4.689436764239">
        <ele>6.6</ele>
        <time>2020-06-20T10:37:00Z</time>
      </trkpt>
      <trkpt lat="51.186694040682" lon="4.690300351396">
        <ele>7.6</ele>
        <time>2020-06-20T10:37:09Z</time>
      </trkpt>
      <trkpt lat="51.186550710192" lon="4.691167291313">
        <ele>7</ele>
        <time>2020-06-20T10:37:18Z</time>
      </trkpt>
      <trkpt lat="51.186419198181" lon="4.692019395267">
        <ele>6.8</ele>
        <time>2020-06-20T10:37:27Z</time>
      </trkpt>
      <trkpt lat="51.186282740849" lon="4.692871918316">
        <ele>8</ele>
        <time>2020-06-20T10:37:36Z</time>
      </trkpt>
      <trkpt lat="51.186160029833" lon="4.693740534613">
        <ele>9.4</ele>
        <time>2020-06-20T10:37:45Z</time>
      </trkpt>
      <trkpt lat="51.186050646038" lon="4.694612168394">
        <ele>8.8</ele>
        <time>2020-06-20T10:37:54Z</time>
      </trkpt>
      <trkpt lat="51.185939753501" lon="4.69546997204">
        <ele>9.2</ele>
        <time>2020-06-20T10:38:03Z</time>
      </trkpt>
      <trkpt lat="51.185853922845" lon="4.696327608048">
        <ele>9.8</ele>
        <time>2020-06-20T10:38:12Z</time>
      </trkpt>
      <trkpt lat="51.18576297923" lon="4.697192536309">
        <ele>8.6</ele>
        <time>2020-06-20T10:38:21Z</time>
      </trkpt>
      <trkpt lat="51.185660971507" lon="4.698052100154">
        <ele>8</ele>
        <time>2020-06-20T10:38:30Z</time>
      </trkpt>
      <trkpt lat="51.185547815857" lon="4.698981569045">
        <ele>9</ele>
        <time>2020-06-20T10:38:40Z</time>
      </trkpt>
      <trkpt lat="51.185439689347" lon="4.699915564162">
        <ele>10.2</ele>
        <time>2020-06-20T10:38:50Z</time>
      </trkpt>
      <trkpt lat="51.185342794583" lon="4.700774541274">
        <ele>10</ele>
        <time>2020-06-20T10:38:59Z</time>
      </trkpt>
      <trkpt lat="51.185251431873" lon="4.701639804811">
        <ele>9.6</ele>
        <time>2020-06-20T10:39:08Z</time>
      </trkpt>
      <trkpt lat="51.185158308964" lon="4.702503475787">
        <ele>9.4</ele>
        <time>2020-06-20T10:39:17Z</time>
      </trkpt>
      <trkpt lat="51.185059570182" lon="4.703362201442">
        <ele>9.4</ele>
        <time>2020-06-20T10:39:26Z</time>
      </trkpt>
      <trkpt lat="51.184966447273" lon="4.704241127476">
        <ele>9.2</ele>
        <time>2020-06-20T10:39:35Z</time>
      </trkpt>
      <trkpt lat="51.184873492002" lon="4.705098428208">
        <ele>9.4</ele>
        <time>2020-06-20T10:39:44Z</time>
      </trkpt>
      <trkpt lat="51.184768299157" lon="4.706021359217">
        <ele>9.4</ele>
        <time>2020-06-20T10:39:54Z</time>
      </trkpt>
      <trkpt lat="51.184673751325" lon="4.706869775135">
        <ele>9.8</ele>
        <time>2020-06-20T10:40:03Z</time>
      </trkpt>
      <trkpt lat="51.184585741375" lon="4.70776202839">
        <ele>10.4</ele>
        <time>2020-06-20T10:40:12Z</time>
      </trkpt>
      <trkpt lat="51.18448138672" lon="4.708672805644">
        <ele>10.2</ele>
        <time>2020-06-20T10:40:21Z</time>
      </trkpt>
      <trkpt lat="51.184377367341" lon="4.709582744708">
        <ele>10</ele>
        <time>2020-06-20T10:40:30Z</time>
      </trkpt>
      <trkpt lat="51.184270414297" lon="4.710503161147">
        <ele>10</ele>
        <time>2020-06-20T10:40:39Z</time>
      </trkpt>
      <trkpt lat="51.184164969995" lon="4.711390217624">
        <ele>9.6</ele>
        <time>2020-06-20T10:40:48Z</time>
      </trkpt>
      <trkpt lat="51.184069583973" lon="4.712265539441">
        <ele>9.8</ele>
        <time>2020-06-20T10:40:57Z</time>
      </trkpt>
      <trkpt lat="51.183967660069" lon="4.713150081348">
        <ele>10</ele>
        <time>2020-06-20T10:41:06Z</time>
      </trkpt>
      <trkpt lat="51.183867915459" lon="4.714050213589">
        <ele>10.2</ele>
        <time>2020-06-20T10:41:15Z</time>
      </trkpt>
      <trkpt lat="51.183765907736" lon="4.714954955875">
        <ele>9.8</ele>
        <time>2020-06-20T10:41:24Z</time>
      </trkpt>
      <trkpt lat="51.183681669641" lon="4.715665908633">
        <ele>9.4</ele>
        <time>2020-06-20T10:41:31Z</time>
      </trkpt>
      <trkpt lat="51.183586115981" lon="4.716583810502">
        <ele>9.2</ele>
        <time>2020-06-20T10:41:40Z</time>
      </trkpt>
      <trkpt lat="51.183482683335" lon="4.717512189746">
        <ele>9.4</ele>
        <time>2020-06-20T10:41:49Z</time>
      </trkpt>
      <trkpt lat="51.18338922515" lon="4.718363371691">
        <ele>9.8</ele>
        <time>2020-06-20T10:41:57Z</time>
      </trkpt>
      <trkpt lat="51.183292665662" lon="4.719284877777">
        <ele>9.6</ele>
        <time>2020-06-20T10:42:06Z</time>
      </trkpt>
      <trkpt lat="51.183185461161" lon="4.72022256093">
        <ele>8.4</ele>
        <time>2020-06-20T10:42:15Z</time>
      </trkpt>
      <trkpt lat="51.183088817854" lon="4.721134427831">
        <ele>8.4</ele>
        <time>2020-06-20T10:42:24Z</time>
      </trkpt>
      <trkpt lat="51.182982786819" lon="4.722006899802">
        <ele>8.6</ele>
        <time>2020-06-20T10:42:33Z</time>
      </trkpt>
      <trkpt lat="51.182883377485" lon="4.722941397833">
        <ele>9.8</ele>
        <time>2020-06-20T10:42:43Z</time>
      </trkpt>
      <trkpt lat="51.182785393074" lon="4.723810600863">
        <ele>8.6</ele>
        <time>2020-06-20T10:42:53Z</time>
      </trkpt>
      <trkpt lat="51.182661592411" lon="4.724740991763">
        <ele>9.8</ele>
        <time>2020-06-20T10:43:04Z</time>
      </trkpt>
      <trkpt lat="51.182560003783" lon="4.725619750159">
        <ele>10.2</ele>
        <time>2020-06-20T10:43:13Z</time>
      </trkpt>
      <trkpt lat="51.182461013544" lon="4.726482750583">
        <ele>11.2</ele>
        <time>2020-06-20T10:43:22Z</time>
      </trkpt>
      <trkpt lat="51.182328244248" lon="4.727654624022">
        <ele>9.8</ele>
        <time>2020-06-20T10:43:35Z</time>
      </trkpt>
      <trkpt lat="51.18223000838" lon="4.728555510634">
        <ele>10.2</ele>
        <time>2020-06-20T10:43:46Z</time>
      </trkpt>
      <trkpt lat="51.182137891299" lon="4.729483051688">
        <ele>8.4</ele>
        <time>2020-06-20T10:43:57Z</time>
      </trkpt>
      <trkpt lat="51.182045858037" lon="4.730376729866">
        <ele>7.6</ele>
        <time>2020-06-20T10:44:07Z</time>
      </trkpt>
      <trkpt lat="51.181950807291" lon="4.73128666893">
        <ele>8.8</ele>
        <time>2020-06-20T10:44:17Z</time>
      </trkpt>
      <trkpt lat="51.181830946121" lon="4.73218437042">
        <ele>9</ele>
        <time>2020-06-20T10:44:27Z</time>
      </trkpt>
      <trkpt lat="51.181725585638" lon="4.733082407186">
        <ele>8.8</ele>
        <time>2020-06-20T10:44:37Z</time>
      </trkpt>
      <trkpt lat="51.181625170476" lon="4.734003326539">
        <ele>9</ele>
        <time>2020-06-20T10:44:47Z</time>
      </trkpt>
      <trkpt lat="51.181526347875" lon="4.73488753317">
        <ele>8.4</ele>
        <time>2020-06-20T10:44:57Z</time>
      </trkpt>
      <trkpt lat="51.181471111154" lon="4.735409809359">
        <ele>8.2</ele>
        <time>2020-06-20T10:45:03Z</time>
      </trkpt>
      <trkpt lat="51.181385196679" lon="4.736261578037">
        <ele>7.6</ele>
        <time>2020-06-20T10:45:12Z</time>
      </trkpt>
      <trkpt lat="51.18129458834" lon="4.737122566805">
        <ele>7.8</ele>
        <time>2020-06-20T10:45:21Z</time>
      </trkpt>
      <trkpt lat="51.181189395495" lon="4.737979699899">
        <ele>9</ele>
        <time>2020-06-20T10:45:30Z</time>
      </trkpt>
      <trkpt lat="51.181089147971" lon="4.738917885966">
        <ele>9.6</ele>
        <time>2020-06-20T10:45:40Z</time>
      </trkpt>
      <trkpt lat="51.181005664247" lon="4.739782478951">
        <ele>9.2</ele>
        <time>2020-06-20T10:45:49Z</time>
      </trkpt>
      <trkpt lat="51.18090147723" lon="4.740698955897">
        <ele>8</ele>
        <time>2020-06-20T10:45:59Z</time>
      </trkpt>
      <trkpt lat="51.180803409" lon="4.741634711213">
        <ele>7.4</ele>
        <time>2020-06-20T10:46:09Z</time>
      </trkpt>
      <trkpt lat="51.180703161476" lon="4.742541548974">
        <ele>6.6</ele>
        <time>2020-06-20T10:46:19Z</time>
      </trkpt>
      <trkpt lat="51.180599225916" lon="4.74345551135">
        <ele>6.6</ele>
        <time>2020-06-20T10:46:29Z</time>
      </trkpt>
      <trkpt lat="51.180461678937" lon="4.744036796115">
        <ele>5.6</ele>
        <time>2020-06-20T10:46:36Z</time>
      </trkpt>
      <trkpt lat="51.180337962093" lon="4.744887894241">
        <ele>9.2</ele>
        <time>2020-06-20T10:46:46Z</time>
      </trkpt>
      <trkpt lat="51.180289347073" lon="4.745399106322">
        <ele>8</ele>
        <time>2020-06-20T10:46:52Z</time>
      </trkpt>
      <trkpt lat="51.180435359771" lon="4.745505304995">
        <ele>9</ele>
        <time>2020-06-20T10:46:56Z</time>
      </trkpt>
      <trkpt lat="51.180987307886" lon="4.74533640971">
        <ele>15.2</ele>
        <time>2020-06-20T10:47:10Z</time>
      </trkpt>
      <trkpt lat="51.181037431648" lon="4.745267594311">
        <ele>15</ele>
        <time>2020-06-20T10:47:13Z</time>
      </trkpt>
      <trkpt lat="51.180502917885" lon="4.745157539964">
        <ele>16</ele>
        <time>2020-06-20T10:47:27Z</time>
      </trkpt>
      <trkpt lat="51.180461008385" lon="4.745150666806">
        <ele>16</ele>
        <time>2020-06-20T10:47:28Z</time>
      </trkpt>
      <trkpt lat="51.180156242501" lon="4.745075481163">
        <ele>16.4</ele>
        <time>2020-06-20T10:47:37Z</time>
      </trkpt>
      <trkpt lat="51.180058174271" lon="4.745006246669">
        <ele>17</ele>
        <time>2020-06-20T10:48:53Z</time>
      </trkpt>
      <trkpt lat="51.179525001612" lon="4.744872303907">
        <ele>16.6</ele>
        <time>2020-06-20T10:49:04Z</time>
      </trkpt>
      <trkpt lat="51.179283938168" lon="4.744789658373">
        <ele>15.8</ele>
        <time>2020-06-20T10:49:09Z</time>
      </trkpt>
      <trkpt lat="51.179195257666" lon="4.744709611228">
        <ele>16.2</ele>
        <time>2020-06-20T10:49:13Z</time>
      </trkpt>
      <trkpt lat="51.179211770009" lon="4.744640879648">
        <ele>16.8</ele>
        <time>2020-06-20T10:49:15Z</time>
      </trkpt>
      <trkpt lat="51.179277735562" lon="4.744504254678">
        <ele>16.8</ele>
        <time>2020-06-20T10:49:18Z</time>
      </trkpt>
      <trkpt lat="51.179422323337" lon="4.7435602851">
        <ele>13.4</ele>
        <time>2020-06-20T10:49:27Z</time>
      </trkpt>
      <trkpt lat="51.179546626914" lon="4.742716311589">
        <ele>9.8</ele>
        <time>2020-06-20T10:49:34Z</time>
      </trkpt>
      <trkpt lat="51.179615442313" lon="4.742102169776">
        <ele>7.4</ele>
        <time>2020-06-20T10:49:39Z</time>
      </trkpt>
      <trkpt lat="51.179406649184" lon="4.741250065822">
        <ele>5.4</ele>
        <time>2020-06-20T10:49:48Z</time>
      </trkpt>
      <trkpt lat="51.179157287659" lon="4.7404170726">
        <ele>6.4</ele>
        <time>2020-06-20T10:49:58Z</time>
      </trkpt>
      <trkpt lat="51.179089226631" lon="4.740183301409">
        <ele>6.8</ele>
        <time>2020-06-20T10:50:01Z</time>
      </trkpt>
      <trkpt lat="51.179091992658" lon="4.740031589019">
        <ele>8</ele>
        <time>2020-06-20T10:50:03Z</time>
      </trkpt>
      <trkpt lat="51.179226270696" lon="4.739129361303">
        <ele>9.4</ele>
        <time>2020-06-20T10:50:15Z</time>
      </trkpt>
      <trkpt lat="51.179337917604" lon="4.738236521315">
        <ele>7.8</ele>
        <time>2020-06-20T10:50:26Z</time>
      </trkpt>
      <trkpt lat="51.179348897893" lon="4.738009371825">
        <ele>6.8</ele>
        <time>2020-06-20T10:50:29Z</time>
      </trkpt>
      <trkpt lat="51.179358117983" lon="4.737775181539">
        <ele>6.6</ele>
        <time>2020-06-20T10:50:34Z</time>
      </trkpt>
      <trkpt lat="51.179435818196" lon="4.737787419113">
        <ele>7.2</ele>
        <time>2020-06-20T10:50:36Z</time>
      </trkpt>
      <trkpt lat="51.179580573609" lon="4.737833854839">
        <ele>7.6</ele>
        <time>2020-06-20T10:50:39Z</time>
      </trkpt>
      <trkpt lat="51.180028837621" lon="4.737732433849">
        <ele>8.4</ele>
        <time>2020-06-20T10:50:47Z</time>
      </trkpt>
      <trkpt lat="51.180120954702" lon="4.737638975664">
        <ele>8.4</ele>
        <time>2020-06-20T10:50:49Z</time>
      </trkpt>
      <trkpt lat="51.180179376545" lon="4.737496315726">
        <ele>8</ele>
        <time>2020-06-20T10:50:51Z</time>
      </trkpt>
      <trkpt lat="51.180204857521" lon="4.737329432097">
        <ele>7.8</ele>
        <time>2020-06-20T10:50:53Z</time>
      </trkpt>
      <trkpt lat="51.180292699833" lon="4.736439274317">
        <ele>6.2</ele>
        <time>2020-06-20T10:51:04Z</time>
      </trkpt>
      <trkpt lat="51.180389426959" lon="4.73554635051">
        <ele>6.4</ele>
        <time>2020-06-20T10:51:15Z</time>
      </trkpt>
      <trkpt lat="51.180481292583" lon="4.734685361742">
        <ele>6.8</ele>
        <time>2020-06-20T10:51:26Z</time>
      </trkpt>
      <trkpt lat="51.180580534279" lon="4.733785061863">
        <ele>6.8</ele>
        <time>2020-06-20T10:51:37Z</time>
      </trkpt>
      <trkpt lat="51.180672483722" lon="4.732924073095">
        <ele>7.2</ele>
        <time>2020-06-20T10:51:48Z</time>
      </trkpt>
      <trkpt lat="51.180770132857" lon="4.732003908113">
        <ele>9</ele>
        <time>2020-06-20T10:52:00Z</time>
      </trkpt>
      <trkpt lat="51.180877002082" lon="4.731136381463">
        <ele>8.8</ele>
        <time>2020-06-20T10:52:12Z</time>
      </trkpt>
      <trkpt lat="51.180969202982" lon="4.730247061873">
        <ele>8.8</ele>
        <time>2020-06-20T10:52:23Z</time>
      </trkpt>
      <trkpt lat="51.181054614543" lon="4.729456648703">
        <ele>9</ele>
        <time>2020-06-20T10:52:33Z</time>
      </trkpt>
      <trkpt lat="51.181146144891" lon="4.728591971899">
        <ele>9</ele>
        <time>2020-06-20T10:52:44Z</time>
      </trkpt>
      <trkpt lat="51.181260893102" lon="4.727684295948">
        <ele>8.8</ele>
        <time>2020-06-20T10:52:55Z</time>
      </trkpt>
      <trkpt lat="51.181345969387" lon="4.726836885858">
        <ele>8.8</ele>
        <time>2020-06-20T10:53:05Z</time>
      </trkpt>
      <trkpt lat="51.181406654343" lon="4.726321901922">
        <ele>8.2</ele>
        <time>2020-06-20T10:53:12Z</time>
      </trkpt>
      <trkpt lat="51.181500447804" lon="4.725411376125">
        <ele>7.8</ele>
        <time>2020-06-20T10:53:24Z</time>
      </trkpt>
      <trkpt lat="51.181586362279" lon="4.724552734289">
        <ele>7.4</ele>
        <time>2020-06-20T10:53:34Z</time>
      </trkpt>
      <trkpt lat="51.181677222075" lon="4.723664252889">
        <ele>7</ele>
        <time>2020-06-20T10:53:45Z</time>
      </trkpt>
      <trkpt lat="51.18178157673" lon="4.722821955758">
        <ele>7.2</ele>
        <time>2020-06-20T10:53:55Z</time>
      </trkpt>
      <trkpt lat="51.181811835389" lon="4.722498330599">
        <ele>7</ele>
        <time>2020-06-20T10:53:59Z</time>
      </trkpt>
      <trkpt lat="51.181789455716" lon="4.722359023421">
        <ele>6.8</ele>
        <time>2020-06-20T10:54:01Z</time>
      </trkpt>
      <trkpt lat="51.181719215394" lon="4.722261458105">
        <ele>6.6</ele>
        <time>2020-06-20T10:54:03Z</time>
      </trkpt>
      <trkpt lat="51.181611088884" lon="4.72223086417">
        <ele>6.2</ele>
        <time>2020-06-20T10:54:05Z</time>
      </trkpt>
      <trkpt lat="51.1810464841" lon="4.722107817878">
        <ele>6.2</ele>
        <time>2020-06-20T10:54:15Z</time>
      </trkpt>
      <trkpt lat="51.180459164367" lon="4.722010587838">
        <ele>5.4</ele>
        <time>2020-06-20T10:54:26Z</time>
      </trkpt>
      <trkpt lat="51.179961950059" lon="4.721984101034">
        <ele>6.6</ele>
        <time>2020-06-20T10:54:37Z</time>
      </trkpt>
      <trkpt lat="51.179940324757" lon="4.721900365853">
        <ele>7.4</ele>
        <time>2020-06-20T10:54:39Z</time>
      </trkpt>
      <trkpt lat="51.180016767685" lon="4.721303155478">
        <ele>7.6</ele>
        <time>2020-06-20T10:54:49Z</time>
      </trkpt>
      <trkpt lat="51.180081140677" lon="4.720760930367">
        <ele>8.8</ele>
        <time>2020-06-20T10:55:41Z</time>
      </trkpt>
      <trkpt lat="51.180165211134" lon="4.719824839775">
        <ele>7</ele>
        <time>2020-06-20T10:55:52Z</time>
      </trkpt>
      <trkpt lat="51.180240564415" lon="4.718954211822">
        <ele>4.6</ele>
        <time>2020-06-20T10:56:01Z</time>
      </trkpt>
      <trkpt lat="51.180302087561" lon="4.718041674369">
        <ele>5.2</ele>
        <time>2020-06-20T10:56:10Z</time>
      </trkpt>
      <trkpt lat="51.180290771996" lon="4.717760461624">
        <ele>5.2</ele>
        <time>2020-06-20T10:56:13Z</time>
      </trkpt>
      <trkpt lat="51.180349864391" lon="4.716907435661">
        <ele>6</ele>
        <time>2020-06-20T10:56:22Z</time>
      </trkpt>
      <trkpt lat="51.180410046433" lon="4.71603328731">
        <ele>6.4</ele>
        <time>2020-06-20T10:56:32Z</time>
      </trkpt>
      <trkpt lat="51.180465366973" lon="4.715128377386">
        <ele>7</ele>
        <time>2020-06-20T10:56:43Z</time>
      </trkpt>
      <trkpt lat="51.180523034445" lon="4.714250708637">
        <ele>6.8</ele>
        <time>2020-06-20T10:56:54Z</time>
      </trkpt>
      <trkpt lat="51.18060308159" lon="4.713520980423">
        <ele>5.2</ele>
        <time>2020-06-20T10:57:03Z</time>
      </trkpt>
      <trkpt lat="51.180627640557" lon="4.713352336595">
        <ele>5</ele>
        <time>2020-06-20T10:57:05Z</time>
      </trkpt>
      <trkpt lat="51.180636693009" lon="4.713010522713">
        <ele>5.4</ele>
        <time>2020-06-20T10:57:09Z</time>
      </trkpt>
      <trkpt lat="51.180714728498" lon="4.712102260029">
        <ele>5.6</ele>
        <time>2020-06-20T10:57:20Z</time>
      </trkpt>
      <trkpt lat="51.180774407626" lon="4.711218640131">
        <ele>5.2</ele>
        <time>2020-06-20T10:57:31Z</time>
      </trkpt>
      <trkpt lat="51.18079167434" lon="4.710879173181">
        <ele>5.4</ele>
        <time>2020-06-20T10:57:35Z</time>
      </trkpt>
      <trkpt lat="51.180791087607" lon="4.710632158588">
        <ele>5.4</ele>
        <time>2020-06-20T10:57:38Z</time>
      </trkpt>
      <trkpt lat="51.180787986304" lon="4.71047357304">
        <ele>5.2</ele>
        <time>2020-06-20T10:57:40Z</time>
      </trkpt>
      <trkpt lat="51.180778179481" lon="4.710311550913">
        <ele>5.2</ele>
        <time>2020-06-20T10:57:42Z</time>
      </trkpt>
      <trkpt lat="51.180802738448" lon="4.709445784462">
        <ele>6</ele>
        <time>2020-06-20T10:57:53Z</time>
      </trkpt>
      <trkpt lat="51.1808537004" lon="4.708554453216">
        <ele>6.8</ele>
        <time>2020-06-20T10:58:04Z</time>
      </trkpt>
      <trkpt lat="51.180904662352" lon="4.707695308466">
        <ele>7.2</ele>
        <time>2020-06-20T10:58:14Z</time>
      </trkpt>
      <trkpt lat="51.180966772231" lon="4.706793332207">
        <ele>6.6</ele>
        <time>2020-06-20T10:58:25Z</time>
      </trkpt>
      <trkpt lat="51.181032653965" lon="4.705912897431">
        <ele>6.2</ele>
        <time>2020-06-20T10:58:36Z</time>
      </trkpt>
      <trkpt lat="51.18109090817" lon="4.705017375235">
        <ele>5.8</ele>
        <time>2020-06-20T10:58:47Z</time>
      </trkpt>
      <trkpt lat="51.181155616438" lon="4.704142137237">
        <ele>6</ele>
        <time>2020-06-20T10:58:57Z</time>
      </trkpt>
      <trkpt lat="51.181222001086" lon="4.703233371639">
        <ele>5.4</ele>
        <time>2020-06-20T10:59:08Z</time>
      </trkpt>
      <trkpt lat="51.181278075997" lon="4.702326533878">
        <ele>5.2</ele>
        <time>2020-06-20T10:59:20Z</time>
      </trkpt>
      <trkpt lat="51.181339347686" lon="4.701387174345">
        <ele>6</ele>
        <time>2020-06-20T10:59:31Z</time>
      </trkpt>
      <trkpt lat="51.181401792841" lon="4.700534232201">
        <ele>7</ele>
        <time>2020-06-20T10:59:41Z</time>
      </trkpt>
      <trkpt lat="51.181493323189" lon="4.699291950802">
        <ele>6.6</ele>
        <time>2020-06-20T10:59:55Z</time>
      </trkpt>
      <trkpt lat="51.181555935982" lon="4.698366505223">
        <ele>7</ele>
        <time>2020-06-20T11:00:06Z</time>
      </trkpt>
      <trkpt lat="51.181607317029" lon="4.697507276654">
        <ele>7.4</ele>
        <time>2020-06-20T11:00:16Z</time>
      </trkpt>
      <trkpt lat="51.181653249841" lon="4.696832701342">
        <ele>7.6</ele>
        <time>2020-06-20T11:00:24Z</time>
      </trkpt>
      <trkpt lat="51.181704547069" lon="4.696686018092">
        <ele>7.4</ele>
        <time>2020-06-20T11:00:26Z</time>
      </trkpt>
      <trkpt lat="51.181800603643" lon="4.696585686749">
        <ele>6.6</ele>
        <time>2020-06-20T11:00:28Z</time>
      </trkpt>
      <trkpt lat="51.18231718014" lon="4.696113450503">
        <ele>7</ele>
        <time>2020-06-20T11:00:38Z</time>
      </trkpt>
      <trkpt lat="51.182794613164" lon="4.695640878981">
        <ele>9.4</ele>
        <time>2020-06-20T11:00:48Z</time>
      </trkpt>
      <trkpt lat="51.183264670116" lon="4.695196303005">
        <ele>9.2</ele>
        <time>2020-06-20T11:00:58Z</time>
      </trkpt>
      <trkpt lat="51.183731290489" lon="4.694743512767">
        <ele>8.4</ele>
        <time>2020-06-20T11:01:08Z</time>
      </trkpt>
      <trkpt lat="51.184201095984" lon="4.694288627054">
        <ele>7.8</ele>
        <time>2020-06-20T11:01:18Z</time>
      </trkpt>
      <trkpt lat="51.184657155163" lon="4.693811445487">
        <ele>7.4</ele>
        <time>2020-06-20T11:01:29Z</time>
      </trkpt>
      <trkpt lat="51.184707362744" lon="4.693616650131">
        <ele>7.8</ele>
        <time>2020-06-20T11:01:32Z</time>
      </trkpt>
      <trkpt lat="51.184661681389" lon="4.69345663966">
        <ele>7.2</ele>
        <time>2020-06-20T11:01:34Z</time>
      </trkpt>
      <trkpt lat="51.184496725597" lon="4.693237201518">
        <ele>6.2</ele>
        <time>2020-06-20T11:01:37Z</time>
      </trkpt>
      <trkpt lat="51.184351634908" lon="4.693232759111">
        <ele>6</ele>
        <time>2020-06-20T11:01:39Z</time>
      </trkpt>
      <trkpt lat="51.183808990702" lon="4.69354716418">
        <ele>3.4</ele>
        <time>2020-06-20T11:01:47Z</time>
      </trkpt>
      <trkpt lat="51.183300544648" lon="4.694046054868">
        <ele>1</ele>
        <time>2020-06-20T11:01:56Z</time>
      </trkpt>
      <trkpt lat="51.182803162702" lon="4.694517117648">
        <ele>3</ele>
        <time>2020-06-20T11:02:05Z</time>
      </trkpt>
      <trkpt lat="51.182334111578" lon="4.694972003361">
        <ele>4.8</ele>
        <time>2020-06-20T11:02:15Z</time>
      </trkpt>
      <trkpt lat="51.181872771802" lon="4.695468463298">
        <ele>2.8</ele>
        <time>2020-06-20T11:02:28Z</time>
      </trkpt>
      <trkpt lat="51.181418305184" lon="4.695983447234">
        <ele>7.6</ele>
        <time>2020-06-20T11:02:41Z</time>
      </trkpt>
      <trkpt lat="51.180885132525" lon="4.695986045623">
        <ele>8.4</ele>
        <time>2020-06-20T11:02:56Z</time>
      </trkpt>
      <trkpt lat="51.180346176355" lon="4.695918990423">
        <ele>7.4</ele>
        <time>2020-06-20T11:03:06Z</time>
      </trkpt>
      <trkpt lat="51.179750558541" lon="4.695843972418">
        <ele>6.8</ele>
        <time>2020-06-20T11:03:15Z</time>
      </trkpt>
      <trkpt lat="51.179166172473" lon="4.69578764605">
        <ele>3.8</ele>
        <time>2020-06-20T11:03:23Z</time>
      </trkpt>
      <trkpt lat="51.178902813175" lon="4.695728302198">
        <ele>1.8</ele>
        <time>2020-06-20T11:03:27Z</time>
      </trkpt>
      <trkpt lat="51.178812372474" lon="4.695550019185">
        <ele>0.6</ele>
        <time>2020-06-20T11:03:31Z</time>
      </trkpt>
      <trkpt lat="51.179373792136" lon="4.695596622549">
        <ele>9.2</ele>
        <time>2020-06-20T11:04:24Z</time>
      </trkpt>
      <trkpt lat="51.179914257048" lon="4.695559239275">
        <ele>3.6</ele>
        <time>2020-06-20T11:04:38Z</time>
      </trkpt>
      <trkpt lat="51.17997024814" lon="4.695558065809">
        <ele>3.6</ele>
        <time>2020-06-20T11:04:39Z</time>
      </trkpt>
      <trkpt lat="51.180520603694" lon="4.695644902293">
        <ele>6.2</ele>
        <time>2020-06-20T11:04:49Z</time>
      </trkpt>
      <trkpt lat="51.180686481495" lon="4.695668120156">
        <ele>4.8</ele>
        <time>2020-06-20T11:04:52Z</time>
      </trkpt>
      <trkpt lat="51.180802486991" lon="4.695538200706">
        <ele>4.8</ele>
        <time>2020-06-20T11:04:55Z</time>
      </trkpt>
      <trkpt lat="51.18082101099" lon="4.695363354272">
        <ele>4.4</ele>
        <time>2020-06-20T11:04:57Z</time>
      </trkpt>
      <trkpt lat="51.180831656003" lon="4.695105527028">
        <ele>4.2</ele>
        <time>2020-06-20T11:05:00Z</time>
      </trkpt>
      <trkpt lat="51.180847749251" lon="4.694790954321">
        <ele>3.8</ele>
        <time>2020-06-20T11:05:04Z</time>
      </trkpt>
      <trkpt lat="51.180899884669" lon="4.69385645629">
        <ele>2.6</ele>
        <time>2020-06-20T11:05:15Z</time>
      </trkpt>
      <trkpt lat="51.180955456666" lon="4.692991360391">
        <ele>2.2</ele>
        <time>2020-06-20T11:05:26Z</time>
      </trkpt>
      <trkpt lat="51.181025194074" lon="4.692095502919">
        <ele>2.8</ele>
        <time>2020-06-20T11:05:38Z</time>
      </trkpt>
      <trkpt lat="51.181095602034" lon="4.691244153336">
        <ele>2.6</ele>
        <time>2020-06-20T11:05:51Z</time>
      </trkpt>
      <trkpt lat="51.181129381091" lon="4.690554155328">
        <ele>2</ele>
        <time>2020-06-20T11:06:01Z</time>
      </trkpt>
      <trkpt lat="51.18117891812" lon="4.689678582054">
        <ele>1.8</ele>
        <time>2020-06-20T11:06:13Z</time>
      </trkpt>
      <trkpt lat="51.181257791799" lon="4.688794123966">
        <ele>2</ele>
        <time>2020-06-20T11:06:25Z</time>
      </trkpt>
      <trkpt lat="51.181281344938" lon="4.688661270851">
        <ele>1.8</ele>
        <time>2020-06-20T11:06:27Z</time>
      </trkpt>
      <trkpt lat="51.181385029041" lon="4.687783602102">
        <ele>0</ele>
        <time>2020-06-20T11:06:40Z</time>
      </trkpt>
      <trkpt lat="51.181412940768" lon="4.68749710876">
        <ele>0</ele>
        <time>2020-06-20T11:06:44Z</time>
      </trkpt>
      <trkpt lat="51.181512014826" lon="4.686582140556">
        <ele>0.8</ele>
        <time>2020-06-20T11:06:56Z</time>
      </trkpt>
      <trkpt lat="51.181628858512" lon="4.685737161217">
        <ele>2</ele>
        <time>2020-06-20T11:07:08Z</time>
      </trkpt>
      <trkpt lat="51.181746624207" lon="4.684850356197">
        <ele>2.4</ele>
        <time>2020-06-20T11:07:21Z</time>
      </trkpt>
      <trkpt lat="51.181884506462" lon="4.68400772379">
        <ele>2.6</ele>
        <time>2020-06-20T11:07:33Z</time>
      </trkpt>
      <trkpt lat="51.182021801984" lon="4.683167438315">
        <ele>2.4</ele>
        <time>2020-06-20T11:07:45Z</time>
      </trkpt>
      <trkpt lat="51.182183405016" lon="4.682311897782">
        <ele>1.2</ele>
        <time>2020-06-20T11:07:58Z</time>
      </trkpt>
      <trkpt lat="51.182228080543" lon="4.68144621515">
        <ele>2.6</ele>
        <time>2020-06-20T11:08:13Z</time>
      </trkpt>
      <trkpt lat="51.182224560145" lon="4.681320402831">
        <ele>3.2</ele>
        <time>2020-06-20T11:08:16Z</time>
      </trkpt>
      <trkpt lat="51.182412985257" lon="4.68006236346">
        <ele>4</ele>
        <time>2020-06-20T11:17:05Z</time>
      </trkpt>
      <trkpt lat="51.182402843158" lon="4.679594234345">
        <ele>3</ele>
        <time>2020-06-20T11:17:16Z</time>
      </trkpt>
      <trkpt lat="51.182422205347" lon="4.679560539107">
        <ele>2.8</ele>
        <time>2020-06-20T11:17:21Z</time>
      </trkpt>
      <trkpt lat="51.182509041831" lon="4.678700639986">
        <ele>2.4</ele>
        <time>2020-06-20T11:17:37Z</time>
      </trkpt>
      <trkpt lat="51.182545670734" lon="4.678449518262">
        <ele>3</ele>
        <time>2020-06-20T11:17:41Z</time>
      </trkpt>
      <trkpt lat="51.18291313323" lon="4.677763124471">
        <ele>5.2</ele>
        <time>2020-06-20T11:17:56Z</time>
      </trkpt>
      <trkpt lat="51.18328026045" lon="4.6770834362">
        <ele>4.6</ele>
        <time>2020-06-20T11:18:11Z</time>
      </trkpt>
      <trkpt lat="51.183631042965" lon="4.676393941106">
        <ele>2</ele>
        <time>2020-06-20T11:18:27Z</time>
      </trkpt>
      <trkpt lat="51.183653757914" lon="4.676378853686">
        <ele>2</ele>
        <time>2020-06-20T11:18:28Z</time>
      </trkpt>
      <trkpt lat="51.183947794966" lon="4.675579555702">
        <ele>2.6</ele>
        <time>2020-06-20T11:18:41Z</time>
      </trkpt>
      <trkpt lat="51.184187936401" lon="4.674769696524">
        <ele>3</ele>
        <time>2020-06-20T11:18:51Z</time>
      </trkpt>
      <trkpt lat="51.184433106976" lon="4.673921196787">
        <ele>2.2</ele>
        <time>2020-06-20T11:19:02Z</time>
      </trkpt>
      <trkpt lat="51.184665453244" lon="4.67305258049">
        <ele>0.4</ele>
        <time>2020-06-20T11:19:14Z</time>
      </trkpt>
      <trkpt lat="51.18470769802" lon="4.672817971109">
        <ele>0</ele>
        <time>2020-06-20T11:19:17Z</time>
      </trkpt>
      <trkpt lat="51.184702417423" lon="4.672656200439">
        <ele>0</ele>
        <time>2020-06-20T11:19:19Z</time>
      </trkpt>
      <trkpt lat="51.184669057461" lon="4.672499794185">
        <ele>0</ele>
        <time>2020-06-20T11:19:21Z</time>
      </trkpt>
      <trkpt lat="51.184512651207" lon="4.671619694685">
        <ele>0</ele>
        <time>2020-06-20T11:19:32Z</time>
      </trkpt>
      <trkpt lat="51.184461773074" lon="4.670704475024">
        <ele>1.4</ele>
        <time>2020-06-20T11:19:44Z</time>
      </trkpt>
      <trkpt lat="51.184426988189" lon="4.67025889322">
        <ele>1.2</ele>
        <time>2020-06-20T11:19:50Z</time>
      </trkpt>
      <trkpt lat="51.184373595486" lon="4.669741897628">
        <ele>0.8</ele>
        <time>2020-06-20T11:19:57Z</time>
      </trkpt>
      <trkpt lat="51.18445707921" lon="4.669541570218">
        <ele>1.2</ele>
        <time>2020-06-20T11:20:01Z</time>
      </trkpt>
      <trkpt lat="51.184982791978" lon="4.669246192062">
        <ele>1.4</ele>
        <time>2020-06-20T11:20:13Z</time>
      </trkpt>
      <trkpt lat="51.185251431873" lon="4.669093892939">
        <ele>1.2</ele>
        <time>2020-06-20T11:20:19Z</time>
      </trkpt>
      <trkpt lat="51.185780832677" lon="4.668789965245">
        <ele>3</ele>
        <time>2020-06-20T11:20:31Z</time>
      </trkpt>
      <trkpt lat="51.185858868166" lon="4.668704302227">
        <ele>3</ele>
        <time>2020-06-20T11:20:33Z</time>
      </trkpt>
      <trkpt lat="51.185922067692" lon="4.668593577328">
        <ele>3.2</ele>
        <time>2020-06-20T11:20:35Z</time>
      </trkpt>
      <trkpt lat="51.18614938482" lon="4.667798470294">
        <ele>7</ele>
        <time>2020-06-20T11:20:46Z</time>
      </trkpt>
      <trkpt lat="51.186302354495" lon="4.667299914882">
        <ele>6.2</ele>
        <time>2020-06-20T11:20:53Z</time>
      </trkpt>
      <trkpt lat="51.186271090008" lon="4.667117943833">
        <ele>5.4</ele>
        <time>2020-06-20T11:20:56Z</time>
      </trkpt>
      <trkpt lat="51.186198335116" lon="4.667045859493">
        <ele>4.2</ele>
        <time>2020-06-20T11:20:58Z</time>
      </trkpt>
      <trkpt lat="51.185677986764" lon="4.666728604578">
        <ele>3.4</ele>
        <time>2020-06-20T11:21:08Z</time>
      </trkpt>
      <trkpt lat="51.185190830736" lon="4.6663546042">
        <ele>3.2</ele>
        <time>2020-06-20T11:21:19Z</time>
      </trkpt>
      <trkpt lat="51.184706608373" lon="4.665945483661">
        <ele>3.2</ele>
        <time>2020-06-20T11:21:30Z</time>
      </trkpt>
      <trkpt lat="51.184225990227" lon="4.665467128628">
        <ele>3.4</ele>
        <time>2020-06-20T11:21:41Z</time>
      </trkpt>
      <trkpt lat="51.183798848603" lon="4.664916353979">
        <ele>2.4</ele>
        <time>2020-06-20T11:21:51Z</time>
      </trkpt>
      <trkpt lat="51.183433816858" lon="4.664470688356">
        <ele>2.4</ele>
        <time>2020-06-20T11:22:00Z</time>
      </trkpt>
      <trkpt lat="51.183043220318" lon="4.663880686415">
        <ele>2.2</ele>
        <time>2020-06-20T11:22:12Z</time>
      </trkpt>
      <trkpt lat="51.18265832347" lon="4.663236202124">
        <ele>2.4</ele>
        <time>2020-06-20T11:22:23Z</time>
      </trkpt>
      <trkpt lat="51.182291782983" lon="4.662535978198">
        <ele>3.2</ele>
        <time>2020-06-20T11:22:35Z</time>
      </trkpt>
      <trkpt lat="51.181972851688" lon="4.661780349913">
        <ele>3</ele>
        <time>2020-06-20T11:22:47Z</time>
      </trkpt>
      <trkpt lat="51.181659368628" lon="4.661068475146">
        <ele>3.2</ele>
        <time>2020-06-20T11:22:59Z</time>
      </trkpt>
      <trkpt lat="51.181383687937" lon="4.660303040038">
        <ele>2.6</ele>
        <time>2020-06-20T11:23:10Z</time>
      </trkpt>
      <trkpt lat="51.181124519589" lon="4.659501311303">
        <ele>2.2</ele>
        <time>2020-06-20T11:23:23Z</time>
      </trkpt>
      <trkpt lat="51.180925030369" lon="4.658700504577">
        <ele>1.8</ele>
        <time>2020-06-20T11:23:34Z</time>
      </trkpt>
      <trkpt lat="51.180693103196" lon="4.657851250469">
        <ele>3</ele>
        <time>2020-06-20T11:23:47Z</time>
      </trkpt>
      <trkpt lat="51.180484393886" lon="4.657019179256">
        <ele>3.2</ele>
        <time>2020-06-20T11:23:59Z</time>
      </trkpt>
      <trkpt lat="51.180271409807" lon="4.656211918467">
        <ele>2.2</ele>
        <time>2020-06-20T11:24:10Z</time>
      </trkpt>
      <trkpt lat="51.180067142904" lon="4.655413291035">
        <ele>2</ele>
        <time>2020-06-20T11:24:21Z</time>
      </trkpt>
      <trkpt lat="51.179848291495" lon="4.654572502646">
        <ele>1.8</ele>
        <time>2020-06-20T11:24:33Z</time>
      </trkpt>
      <trkpt lat="51.179620052358" lon="4.653721991253">
        <ele>3.6</ele>
        <time>2020-06-20T11:24:46Z</time>
      </trkpt>
      <trkpt lat="51.179399692207" lon="4.652873575335">
        <ele>3.6</ele>
        <time>2020-06-20T11:24:58Z</time>
      </trkpt>
      <trkpt lat="51.179073468659" lon="4.651626264796">
        <ele>2.2</ele>
        <time>2020-06-20T11:25:17Z</time>
      </trkpt>
      <trkpt lat="51.178863418245" lon="4.650785895502">
        <ele>3</ele>
        <time>2020-06-20T11:25:30Z</time>
      </trkpt>
      <trkpt lat="51.178657391143" lon="4.649991039925">
        <ele>3</ele>
        <time>2020-06-20T11:25:42Z</time>
      </trkpt>
      <trkpt lat="51.178442395408" lon="4.649191322846">
        <ele>3.2</ele>
        <time>2020-06-20T11:25:53Z</time>
      </trkpt>
      <trkpt lat="51.178428900549" lon="4.649123764732">
        <ele>3.2</ele>
        <time>2020-06-20T11:25:54Z</time>
      </trkpt>
      <trkpt lat="51.178225304198" lon="4.648302757627">
        <ele>2.4</ele>
        <time>2020-06-20T11:26:06Z</time>
      </trkpt>
      <trkpt lat="51.177998238527" lon="4.647474542088">
        <ele>2.2</ele>
        <time>2020-06-20T11:26:19Z</time>
      </trkpt>
      <trkpt lat="51.177794725995" lon="4.646674908828">
        <ele>0</ele>
        <time>2020-06-20T11:26:32Z</time>
      </trkpt>
      <trkpt lat="51.177568582333" lon="4.645840993597">
        <ele>1.6</ele>
        <time>2020-06-20T11:26:46Z</time>
      </trkpt>
      <trkpt lat="51.177347132535" lon="4.644991823308">
        <ele>2.2</ele>
        <time>2020-06-20T11:26:57Z</time>
      </trkpt>
      <trkpt lat="51.177136411569" lon="4.644178276094">
        <ele>4</ele>
        <time>2020-06-20T11:27:09Z</time>
      </trkpt>
      <trkpt lat="51.176923930404" lon="4.643386186544">
        <ele>4.8</ele>
        <time>2020-06-20T11:27:20Z</time>
      </trkpt>
      <trkpt lat="51.176710024316" lon="4.642533328219">
        <ele>6</ele>
        <time>2020-06-20T11:27:32Z</time>
      </trkpt>
      <trkpt lat="51.176495531495" lon="4.641696227866">
        <ele>5.6</ele>
        <time>2020-06-20T11:27:44Z</time>
      </trkpt>
      <trkpt lat="51.176273578783" lon="4.640896678425">
        <ele>5.2</ele>
        <time>2020-06-20T11:27:55Z</time>
      </trkpt>
      <trkpt lat="51.17605422446" lon="4.640049603611">
        <ele>4.6</ele>
        <time>2020-06-20T11:28:07Z</time>
      </trkpt>
      <trkpt lat="51.175842246209" lon="4.639233877103">
        <ele>4</ele>
        <time>2020-06-20T11:28:18Z</time>
      </trkpt>
      <trkpt lat="51.1756233948" lon="4.638407757039">
        <ele>2.4</ele>
        <time>2020-06-20T11:28:29Z</time>
      </trkpt>
      <trkpt lat="51.17540043626" lon="4.637560514587">
        <ele>2.6</ele>
        <time>2020-06-20T11:28:40Z</time>
      </trkpt>
      <trkpt lat="51.175143698663" lon="4.636785859389">
        <ele>3.2</ele>
        <time>2020-06-20T11:28:50Z</time>
      </trkpt>
      <trkpt lat="51.174929624937" lon="4.636318736102">
        <ele>3.6</ele>
        <time>2020-06-20T11:28:57Z</time>
      </trkpt>
      <trkpt lat="51.174854187837" lon="4.63625017216">
        <ele>4.2</ele>
        <time>2020-06-20T11:28:59Z</time>
      </trkpt>
      <trkpt lat="51.174730219536" lon="4.636257632051">
        <ele>4.8</ele>
        <time>2020-06-20T11:29:02Z</time>
      </trkpt>
      <trkpt lat="51.17461169947" lon="4.636364668914">
        <ele>5.2</ele>
        <time>2020-06-20T11:29:05Z</time>
      </trkpt>
      <trkpt lat="51.174245997173" lon="4.637005716626">
        <ele>1.4</ele>
        <time>2020-06-20T11:29:21Z</time>
      </trkpt>
      <trkpt lat="51.173952546854" lon="4.637793028493">
        <ele>0</ele>
        <time>2020-06-20T11:29:30Z</time>
      </trkpt>
      <trkpt lat="51.173680386561" lon="4.638544130552">
        <ele>0</ele>
        <time>2020-06-20T11:29:39Z</time>
      </trkpt>
      <trkpt lat="51.173602351072" lon="4.638600708377">
        <ele>0</ele>
        <time>2020-06-20T11:29:41Z</time>
      </trkpt>
      <trkpt lat="51.173822878861" lon="4.637826472274">
        <ele>4.8</ele>
        <time>2020-06-20T11:29:53Z</time>
      </trkpt>
      <trkpt lat="51.174102582864" lon="4.637068077962">
        <ele>4.8</ele>
        <time>2020-06-20T11:30:05Z</time>
      </trkpt>
      <trkpt lat="51.174439619063" lon="4.636386880949">
        <ele>4.8</ele>
        <time>2020-06-20T11:30:21Z</time>
      </trkpt>
      <trkpt lat="51.174471386464" lon="4.636342959793">
        <ele>5.2</ele>
        <time>2020-06-20T11:30:22Z</time>
      </trkpt>
      <trkpt lat="51.174924931073" lon="4.635860832905">
        <ele>9</ele>
        <time>2020-06-20T11:30:37Z</time>
      </trkpt>
      <trkpt lat="51.175161803567" lon="4.635580877445">
        <ele>9.2</ele>
        <time>2020-06-20T11:30:44Z</time>
      </trkpt>
      <trkpt lat="51.175235815744" lon="4.635470068727">
        <ele>9</ele>
        <time>2020-06-20T11:30:46Z</time>
      </trkpt>
      <trkpt lat="51.17568374448" lon="4.634946199977">
        <ele>7.8</ele>
        <time>2020-06-20T11:30:55Z</time>
      </trkpt>
      <trkpt lat="51.176165116997" lon="4.634429288204">
        <ele>5</ele>
        <time>2020-06-20T11:31:04Z</time>
      </trkpt>
      <trkpt lat="51.176644477858" lon="4.633953783017">
        <ele>3.8</ele>
        <time>2020-06-20T11:31:13Z</time>
      </trkpt>
      <trkpt lat="51.17712962223" lon="4.633491102137">
        <ele>1.2</ele>
        <time>2020-06-20T11:31:22Z</time>
      </trkpt>
      <trkpt lat="51.177616945896" lon="4.632981566436">
        <ele>0.8</ele>
        <time>2020-06-20T11:31:31Z</time>
      </trkpt>
      <trkpt lat="51.178083566269" lon="4.632410507589">
        <ele>2</ele>
        <time>2020-06-20T11:31:41Z</time>
      </trkpt>
      <trkpt lat="51.178257658332" lon="4.6321815979">
        <ele>1.6</ele>
        <time>2020-06-20T11:31:45Z</time>
      </trkpt>
      <trkpt lat="51.178349523956" lon="4.63199049058">
        <ele>1.6</ele>
        <time>2020-06-20T11:31:48Z</time>
      </trkpt>
      <trkpt lat="51.178784125471" lon="4.631438710103">
        <ele>0.6</ele>
        <time>2020-06-20T11:32:00Z</time>
      </trkpt>
      <trkpt lat="51.178815976691" lon="4.631384395391">
        <ele>0</ele>
        <time>2020-06-20T11:32:01Z</time>
      </trkpt>
      <trkpt lat="51.178858892019" lon="4.631264450402">
        <ele>0</ele>
        <time>2020-06-20T11:32:03Z</time>
      </trkpt>
      <trkpt lat="51.179119150014" lon="4.631090777434">
        <ele>1.4</ele>
        <time>2020-06-20T11:32:46Z</time>
      </trkpt>
      <trkpt lat="51.179137506375" lon="4.631078958955">
        <ele>1.4</ele>
        <time>2020-06-20T11:32:47Z</time>
      </trkpt>
      <trkpt lat="51.179568922768" lon="4.630792549432">
        <ele>2.6</ele>
        <time>2020-06-20T11:32:57Z</time>
      </trkpt>
      <trkpt lat="51.179658609098" lon="4.630667742941">
        <ele>2.6</ele>
        <time>2020-06-20T11:32:59Z</time>
      </trkpt>
      <trkpt lat="51.179718120588" lon="4.630503625339">
        <ele>2</ele>
        <time>2020-06-20T11:33:01Z</time>
      </trkpt>
      <trkpt lat="51.179837478844" lon="4.629794768056">
        <ele>0.2</ele>
        <time>2020-06-20T11:33:09Z</time>
      </trkpt>
      <trkpt lat="51.180163283297" lon="4.629079037615">
        <ele>0</ele>
        <time>2020-06-20T11:33:20Z</time>
      </trkpt>
      <trkpt lat="51.180552622552" lon="4.628416280782">
        <ele>0.6</ele>
        <time>2020-06-20T11:33:32Z</time>
      </trkpt>
      <trkpt lat="51.181005999523" lon="4.627847652686">
        <ele>1.8</ele>
        <time>2020-06-20T11:33:44Z</time>
      </trkpt>
      <trkpt lat="51.181447641834" lon="4.627304924661">
        <ele>2.6</ele>
        <time>2020-06-20T11:33:54Z</time>
      </trkpt>
      <trkpt lat="51.181540680924" lon="4.627110464581">
        <ele>3.4</ele>
        <time>2020-06-20T11:33:57Z</time>
      </trkpt>
      <trkpt lat="51.181725334181" lon="4.626278561006">
        <ele>2.6</ele>
        <time>2020-06-20T11:34:09Z</time>
      </trkpt>
      <trkpt lat="51.181794233399" lon="4.626082676003">
        <ele>3.2</ele>
        <time>2020-06-20T11:34:12Z</time>
      </trkpt>
      <trkpt lat="51.18193077455" lon="4.625860220377">
        <ele>4.6</ele>
        <time>2020-06-20T11:34:16Z</time>
      </trkpt>
      <trkpt lat="51.182413739628" lon="4.625375746557">
        <ele>4</ele>
        <time>2020-06-20T11:34:28Z</time>
      </trkpt>
      <trkpt lat="51.182449697979" lon="4.625332831229">
        <ele>3.6</ele>
        <time>2020-06-20T11:34:29Z</time>
      </trkpt>
      <trkpt lat="51.182745579049" lon="4.624742745469">
        <ele>3</ele>
        <time>2020-06-20T11:34:39Z</time>
      </trkpt>
      <trkpt lat="51.182814645905" lon="4.623822748125">
        <ele>4</ele>
        <time>2020-06-20T11:34:50Z</time>
      </trkpt>
      <trkpt lat="51.182847586772" lon="4.622905768265">
        <ele>6</ele>
        <time>2020-06-20T11:35:02Z</time>
      </trkpt>
      <trkpt lat="51.182969878693" lon="4.622062213849">
        <ele>4.8</ele>
        <time>2020-06-20T11:35:13Z</time>
      </trkpt>
      <trkpt lat="51.18313776815" lon="4.621192340267">
        <ele>4.8</ele>
        <time>2020-06-20T11:35:25Z</time>
      </trkpt>
      <trkpt lat="51.183325941805" lon="4.620345349272">
        <ele>5</ele>
        <time>2020-06-20T11:35:39Z</time>
      </trkpt>
      <trkpt lat="51.183827430882" lon="4.619862970927">
        <ele>6.2</ele>
        <time>2020-06-20T11:35:52Z</time>
      </trkpt>
      <trkpt lat="51.18439337677" lon="4.619804800541">
        <ele>6</ele>
        <time>2020-06-20T11:36:03Z</time>
      </trkpt>
      <trkpt lat="51.184928058171" lon="4.620133538659">
        <ele>6</ele>
        <time>2020-06-20T11:36:14Z</time>
      </trkpt>
      <trkpt lat="51.185479587191" lon="4.620422546571">
        <ele>6</ele>
        <time>2020-06-20T11:36:24Z</time>
      </trkpt>
      <trkpt lat="51.185996918059" lon="4.620709375189">
        <ele>2</ele>
        <time>2020-06-20T11:36:34Z</time>
      </trkpt>
      <trkpt lat="51.186102697637" lon="4.620745249721">
        <ele>1.4</ele>
        <time>2020-06-20T11:36:36Z</time>
      </trkpt>
      <trkpt lat="51.186661602729" lon="4.620711554483">
        <ele>3.6</ele>
        <time>2020-06-20T11:36:47Z</time>
      </trkpt>
      <trkpt lat="51.187189159515" lon="4.620603176516">
        <ele>4.4</ele>
        <time>2020-06-20T11:36:58Z</time>
      </trkpt>
      <trkpt lat="51.187282869157" lon="4.62064223617">
        <ele>4.2</ele>
        <time>2020-06-20T11:37:00Z</time>
      </trkpt>
      <trkpt lat="51.187339446982" lon="4.620786153393">
        <ele>5.4</ele>
        <time>2020-06-20T11:37:02Z</time>
      </trkpt>
      <trkpt lat="51.187422260154" lon="4.620995784712">
        <ele>4.8</ele>
        <time>2020-06-20T11:37:05Z</time>
      </trkpt>
      <trkpt lat="51.187496942883" lon="4.62107390402">
        <ele>4.4</ele>
        <time>2020-06-20T11:37:07Z</time>
      </trkpt>
      <trkpt lat="51.187595514027" lon="4.621030737235">
        <ele>3.2</ele>
        <time>2020-06-20T11:37:09Z</time>
      </trkpt>
      <trkpt lat="51.187668436557" lon="4.62092638258">
        <ele>2</ele>
        <time>2020-06-20T11:37:11Z</time>
      </trkpt>
      <trkpt lat="51.187697186474" lon="4.620770311602">
        <ele>1.4</ele>
        <time>2020-06-20T11:37:13Z</time>
      </trkpt>
      <trkpt lat="51.187751668824" lon="4.619831790259">
        <ele>2</ele>
        <time>2020-06-20T11:37:24Z</time>
      </trkpt>
      <trkpt lat="51.187805564441" lon="4.618977087916">
        <ele>2.8</ele>
        <time>2020-06-20T11:37:35Z</time>
      </trkpt>
      <trkpt lat="51.187920396471" lon="4.618330256693">
        <ele>5.4</ele>
        <time>2020-06-20T11:37:44Z</time>
      </trkpt>
      <trkpt lat="51.188130698342" lon="4.617843016846">
        <ele>5.4</ele>
        <time>2020-06-20T11:37:51Z</time>
      </trkpt>
      <trkpt lat="51.188473434233" lon="4.617106415474">
        <ele>5</ele>
        <time>2020-06-20T11:38:03Z</time>
      </trkpt>
      <trkpt lat="51.188585835512" lon="4.616853114456">
        <ele>5.2</ele>
        <time>2020-06-20T11:38:07Z</time>
      </trkpt>
      <trkpt lat="51.1886237217" lon="4.616705341559">
        <ele>5.2</ele>
        <time>2020-06-20T11:38:09Z</time>
      </trkpt>
      <trkpt lat="51.188634701989" lon="4.616546085459">
        <ele>5</ele>
        <time>2020-06-20T11:38:11Z</time>
      </trkpt>
      <trkpt lat="51.188619279293" lon="4.616389595386">
        <ele>5</ele>
        <time>2020-06-20T11:38:13Z</time>
      </trkpt>
      <trkpt lat="51.188483073418" lon="4.615554841965">
        <ele>7.2</ele>
        <time>2020-06-20T11:38:24Z</time>
      </trkpt>
      <trkpt lat="51.18837058832" lon="4.614700474898">
        <ele>8.2</ele>
        <time>2020-06-20T11:38:35Z</time>
      </trkpt>
      <trkpt lat="51.188268915873" lon="4.613857423396">
        <ele>7.6</ele>
        <time>2020-06-20T11:38:45Z</time>
      </trkpt>
      <trkpt lat="51.188157520422" lon="4.612945807952">
        <ele>8.2</ele>
        <time>2020-06-20T11:38:57Z</time>
      </trkpt>
      <trkpt lat="51.188081077494" lon="4.612050201937">
        <ele>9.8</ele>
        <time>2020-06-20T11:39:10Z</time>
      </trkpt>
      <trkpt lat="51.188065319522" lon="4.61118410021">
        <ele>9.6</ele>
        <time>2020-06-20T11:39:21Z</time>
      </trkpt>
      <trkpt lat="51.188075210164" lon="4.61029142786">
        <ele>8.2</ele>
        <time>2020-06-20T11:39:34Z</time>
      </trkpt>
      <trkpt lat="51.188136398034" lon="4.609410741627">
        <ele>8.4</ele>
        <time>2020-06-20T11:39:48Z</time>
      </trkpt>
      <trkpt lat="51.188177888439" lon="4.609049733194">
        <ele>9</ele>
        <time>2020-06-20T11:39:53Z</time>
      </trkpt>
      <trkpt lat="51.188282494551" lon="4.608149936229">
        <ele>9</ele>
        <time>2020-06-20T11:40:07Z</time>
      </trkpt>
      <trkpt lat="51.18840243954" lon="4.607388105338">
        <ele>8.4</ele>
        <time>2020-06-20T11:40:18Z</time>
      </trkpt>
      <trkpt lat="51.188565216038" lon="4.606498199015">
        <ele>8</ele>
        <time>2020-06-20T11:40:30Z</time>
      </trkpt>
      <trkpt lat="51.188715168229" lon="4.605623463931">
        <ele>7.8</ele>
        <time>2020-06-20T11:40:41Z</time>
      </trkpt>
      <trkpt lat="51.188769650579" lon="4.604765157371">
        <ele>6</ele>
        <time>2020-06-20T11:40:53Z</time>
      </trkpt>
      <trkpt lat="51.188883309143" lon="4.604656192671">
        <ele>6.4</ele>
        <time>2020-06-20T11:40:57Z</time>
      </trkpt>
      <trkpt lat="51.189441711321" lon="4.60456659016">
        <ele>8.2</ele>
        <time>2020-06-20T11:41:07Z</time>
      </trkpt>
      <trkpt lat="51.190170601345" lon="4.604441783669">
        <ele>6.4</ele>
        <time>2020-06-20T11:41:20Z</time>
      </trkpt>
      <trkpt lat="51.1907527243" lon="4.604329130933">
        <ele>7.2</ele>
        <time>2020-06-20T11:41:31Z</time>
      </trkpt>
      <trkpt lat="51.191307941356" lon="4.604209185944">
        <ele>6.8</ele>
        <time>2020-06-20T11:41:41Z</time>
      </trkpt>
      <trkpt lat="51.191882855877" lon="4.604097119941">
        <ele>7.4</ele>
        <time>2020-06-20T11:41:52Z</time>
      </trkpt>
      <trkpt lat="51.192451232516" lon="4.603978935151">
        <ele>6.2</ele>
        <time>2020-06-20T11:42:03Z</time>
      </trkpt>
      <trkpt lat="51.193015921119" lon="4.603804004898">
        <ele>5</ele>
        <time>2020-06-20T11:42:15Z</time>
      </trkpt>
      <trkpt lat="51.193527887571" lon="4.603410223236">
        <ele>5.6</ele>
        <time>2020-06-20T11:42:27Z</time>
      </trkpt>
      <trkpt lat="51.194001884016" lon="4.602932622574">
        <ele>6.2</ele>
        <time>2020-06-20T11:42:38Z</time>
      </trkpt>
      <trkpt lat="51.194487447483" lon="4.602442197605">
        <ele>6.2</ele>
        <time>2020-06-20T11:42:49Z</time>
      </trkpt>
      <trkpt lat="51.194975106425" lon="4.601997453991">
        <ele>4.2</ele>
        <time>2020-06-20T11:43:00Z</time>
      </trkpt>
      <trkpt lat="51.195536693725" lon="4.601759072755">
        <ele>6.2</ele>
        <time>2020-06-20T11:43:13Z</time>
      </trkpt>
      <trkpt lat="51.196088390383" lon="4.601575425326">
        <ele>9.6</ele>
        <time>2020-06-20T11:43:28Z</time>
      </trkpt>
      <trkpt lat="51.196647882208" lon="4.601464029875">
        <ele>12.6</ele>
        <time>2020-06-20T11:43:44Z</time>
      </trkpt>
      <trkpt lat="51.19718667074" lon="4.601582885217">
        <ele>12.6</ele>
        <time>2020-06-20T11:44:00Z</time>
      </trkpt>
      <trkpt lat="51.197759322148" lon="4.601559499716">
        <ele>11.6</ele>
        <time>2020-06-20T11:44:10Z</time>
      </trkpt>
      <trkpt lat="51.198058891254" lon="4.601307539802">
        <ele>7.8</ele>
        <time>2020-06-20T11:44:15Z</time>
      </trkpt>
      <trkpt lat="51.198399783127" lon="4.600623409124">
        <ele>3.6</ele>
        <time>2020-06-20T11:44:23Z</time>
      </trkpt>
      <trkpt lat="51.198706476848" lon="4.599862835518">
        <ele>1.4</ele>
        <time>2020-06-20T11:44:31Z</time>
      </trkpt>
      <trkpt lat="51.199034963509" lon="4.599090611071">
        <ele>3</ele>
        <time>2020-06-20T11:44:40Z</time>
      </trkpt>
      <trkpt lat="51.199211821599" lon="4.598801603159">
        <ele>2.8</ele>
        <time>2020-06-20T11:44:43Z</time>
      </trkpt>
      <trkpt lat="51.199428996628" lon="4.598598006808">
        <ele>4</ele>
        <time>2020-06-20T11:44:48Z</time>
      </trkpt>
      <trkpt lat="51.19999041629" lon="4.59846624334">
        <ele>1.8</ele>
        <time>2020-06-20T11:44:58Z</time>
      </trkpt>
      <trkpt lat="51.200579412403" lon="4.598382340521">
        <ele>0.8</ele>
        <time>2020-06-20T11:45:09Z</time>
      </trkpt>
      <trkpt lat="51.201165223394" lon="4.598270442156">
        <ele>2.4</ele>
        <time>2020-06-20T11:45:20Z</time>
      </trkpt>
      <trkpt lat="51.201701916451" lon="4.598159046705">
        <ele>2.8</ele>
        <time>2020-06-20T11:45:30Z</time>
      </trkpt>
      <trkpt lat="51.2022526911" lon="4.598128033675">
        <ele>4.8</ele>
        <time>2020-06-20T11:45:41Z</time>
      </trkpt>
      <trkpt lat="51.202358219221" lon="4.598124848553">
        <ele>5</ele>
        <time>2020-06-20T11:45:42Z</time>
      </trkpt>
      <trkpt lat="51.202923913652" lon="4.598193747771">
        <ele>7.8</ele>
        <time>2020-06-20T11:45:54Z</time>
      </trkpt>
      <trkpt lat="51.203492625567" lon="4.598279829884">
        <ele>2.2</ele>
        <time>2020-06-20T11:46:04Z</time>
      </trkpt>
      <trkpt lat="51.203544593347" lon="4.598288463241">
        <ele>2.2</ele>
        <time>2020-06-20T11:46:05Z</time>
      </trkpt>
      <trkpt lat="51.2036943779" lon="4.598376724648">
        <ele>0.6</ele>
        <time>2020-06-20T11:46:08Z</time>
      </trkpt>
      <trkpt lat="51.203744501662" lon="4.598525251916">
        <ele>0.6</ele>
        <time>2020-06-20T11:46:10Z</time>
      </trkpt>
      <trkpt lat="51.203805186618" lon="4.59865818885">
        <ele>1</ele>
        <time>2020-06-20T11:46:12Z</time>
      </trkpt>
      <trkpt lat="51.203930412204" lon="4.598735050873">
        <ele>1.4</ele>
        <time>2020-06-20T11:46:15Z</time>
      </trkpt>
      <trkpt lat="51.204014901756" lon="4.598704456938">
        <ele>1</ele>
        <time>2020-06-20T11:46:17Z</time>
      </trkpt>
      <trkpt lat="51.204086231725" lon="4.598627678734">
        <ele>0.2</ele>
        <time>2020-06-20T11:46:19Z</time>
      </trkpt>
      <trkpt lat="51.2041553824" lon="4.598555762032">
        <ele>0.4</ele>
        <time>2020-06-20T11:46:21Z</time>
      </trkpt>
      <trkpt lat="51.204237022106" lon="4.598540926069">
        <ele>0.4</ele>
        <time>2020-06-20T11:46:23Z</time>
      </trkpt>
      <trkpt lat="51.20478151033" lon="4.598657183022">
        <ele>1.6</ele>
        <time>2020-06-20T11:46:34Z</time>
      </trkpt>
      <trkpt lat="51.205347707675" lon="4.598815852389">
        <ele>6.4</ele>
        <time>2020-06-20T11:46:46Z</time>
      </trkpt>
      <trkpt lat="51.205924550033" lon="4.598992961936">
        <ele>9.4</ele>
        <time>2020-06-20T11:46:58Z</time>
      </trkpt>
      <trkpt lat="51.206010464508" lon="4.599060184774">
        <ele>9.4</ele>
        <time>2020-06-20T11:46:59Z</time>
      </trkpt>
      <trkpt lat="51.206482533116" lon="4.599478609222">
        <ele>12.6</ele>
        <time>2020-06-20T11:47:14Z</time>
      </trkpt>
      <trkpt lat="51.206988716057" lon="4.599927962881">
        <ele>9</ele>
        <time>2020-06-20T11:47:28Z</time>
      </trkpt>
      <trkpt lat="51.207527336951" lon="4.600332808651">
        <ele>12.8</ele>
        <time>2020-06-20T11:47:39Z</time>
      </trkpt>
      <trkpt lat="51.207786337661" lon="4.600528777473">
        <ele>11.4</ele>
        <time>2020-06-20T11:47:44Z</time>
      </trkpt>
      <trkpt lat="51.207898906578" lon="4.600555767191">
        <ele>10.4</ele>
        <time>2020-06-20T11:47:46Z</time>
      </trkpt>
      <trkpt lat="51.208498547704" lon="4.600527771645">
        <ele>6</ele>
        <time>2020-06-20T11:47:55Z</time>
      </trkpt>
      <trkpt lat="51.209070947655" lon="4.600484269584">
        <ele>4.8</ele>
        <time>2020-06-20T11:48:03Z</time>
      </trkpt>
      <trkpt lat="51.209678551586" lon="4.600453256554">
        <ele>5.8</ele>
        <time>2020-06-20T11:48:11Z</time>
      </trkpt>
      <trkpt lat="51.210111979635" lon="4.600478066978">
        <ele>3.8</ele>
        <time>2020-06-20T11:48:17Z</time>
      </trkpt>
      <trkpt lat="51.210252879374" lon="4.600607986428">
        <ele>2.6</ele>
        <time>2020-06-20T11:48:20Z</time>
      </trkpt>
      <trkpt lat="51.210382882643" lon="4.600550905689">
        <ele>1.6</ele>
        <time>2020-06-20T11:48:23Z</time>
      </trkpt>
      <trkpt lat="51.210420768831" lon="4.600408245751">
        <ele>1.4</ele>
        <time>2020-06-20T11:48:25Z</time>
      </trkpt>
      <trkpt lat="51.210345080274" lon="4.600164919194">
        <ele>0</ele>
        <time>2020-06-20T11:48:28Z</time>
      </trkpt>
      <trkpt lat="51.210255477763" lon="4.600101216754">
        <ele>0</ele>
        <time>2020-06-20T11:48:30Z</time>
      </trkpt>
      <trkpt lat="51.210158415361" lon="4.600141198417">
        <ele>0</ele>
        <time>2020-06-20T11:48:32Z</time>
      </trkpt>
      <trkpt lat="51.210060179493" lon="4.600214204766">
        <ele>0</ele>
        <time>2020-06-20T11:48:34Z</time>
      </trkpt>
      <trkpt lat="51.209950711879" lon="4.600235997706">
        <ele>0.4</ele>
        <time>2020-06-20T11:48:36Z</time>
      </trkpt>
      <trkpt lat="51.20963043948" lon="4.600239601923">
        <ele>2.4</ele>
        <time>2020-06-20T11:48:42Z</time>
      </trkpt>
      <trkpt lat="51.209571263266" lon="4.600155531466">
        <ele>3</ele>
        <time>2020-06-20T11:48:44Z</time>
      </trkpt>
      <trkpt lat="51.209551817258" lon="4.599999209031">
        <ele>3.6</ele>
        <time>2020-06-20T11:48:46Z</time>
      </trkpt>
      <trkpt lat="51.209551314344" lon="4.59908482756">
        <ele>5.8</ele>
        <time>2020-06-20T11:48:57Z</time>
      </trkpt>
      <trkpt lat="51.209560450615" lon="4.598877710811">
        <ele>5.6</ele>
        <time>2020-06-20T11:49:00Z</time>
      </trkpt>
      <trkpt lat="51.209541926616" lon="4.598746617895">
        <ele>5.8</ele>
        <time>2020-06-20T11:49:02Z</time>
      </trkpt>
      <trkpt lat="51.20954662048" lon="4.598401032158">
        <ele>6.8</ele>
        <time>2020-06-20T11:49:07Z</time>
      </trkpt>
      <trkpt lat="51.209541758978" lon="4.598133984824">
        <ele>6.6</ele>
        <time>2020-06-20T11:49:11Z</time>
      </trkpt>
      <trkpt lat="51.20947202157" lon="4.598058631543">
        <ele>5.6</ele>
        <time>2020-06-20T11:49:13Z</time>
      </trkpt>
      <trkpt lat="51.209381161774" lon="4.598029630169">
        <ele>5.6</ele>
        <time>2020-06-20T11:49:15Z</time>
      </trkpt>
      <trkpt lat="51.209286530123" lon="4.597994007094">
        <ele>5.4</ele>
        <time>2020-06-20T11:49:17Z</time>
      </trkpt>
      <trkpt lat="51.208753189826" lon="4.597737520954">
        <ele>7.4</ele>
        <time>2020-06-20T11:49:29Z</time>
      </trkpt>
      <trkpt lat="51.208249772912" lon="4.597552783878">
        <ele>10.6</ele>
        <time>2020-06-20T11:49:39Z</time>
      </trkpt>
      <trkpt lat="51.208196128752" lon="4.597453877458">
        <ele>10.6</ele>
        <time>2020-06-20T11:49:41Z</time>
      </trkpt>
      <trkpt lat="51.208221106814" lon="4.597300991602">
        <ele>10</ele>
        <time>2020-06-20T11:49:43Z</time>
      </trkpt>
      <trkpt lat="51.208491255451" lon="4.596508566776">
        <ele>8.4</ele>
        <time>2020-06-20T11:49:53Z</time>
      </trkpt>
      <trkpt lat="51.208735336379" lon="4.595743047849">
        <ele>7.6</ele>
        <time>2020-06-20T11:50:03Z</time>
      </trkpt>
      <trkpt lat="51.208998947134" lon="4.594951377394">
        <ele>7.8</ele>
        <time>2020-06-20T11:50:14Z</time>
      </trkpt>
      <trkpt lat="51.209251242324" lon="4.594175800187">
        <ele>8</ele>
        <time>2020-06-20T11:50:25Z</time>
      </trkpt>
      <trkpt lat="51.209517619106" lon="4.593376334565">
        <ele>7.8</ele>
        <time>2020-06-20T11:50:36Z</time>
      </trkpt>
      <trkpt lat="51.209789360304" lon="4.592595141485">
        <ele>6.6</ele>
        <time>2020-06-20T11:50:48Z</time>
      </trkpt>
      <trkpt lat="51.210057581104" lon="4.591769272878">
        <ele>7.6</ele>
        <time>2020-06-20T11:51:00Z</time>
      </trkpt>
      <trkpt lat="51.210232762814" lon="4.59122847269">
        <ele>7.2</ele>
        <time>2020-06-20T11:51:08Z</time>
      </trkpt>
      <trkpt lat="51.210474580629" lon="4.590426576317">
        <ele>6.8</ele>
        <time>2020-06-20T11:51:20Z</time>
      </trkpt>
      <trkpt lat="51.210512382998" lon="4.590289448433">
        <ele>6.8</ele>
        <time>2020-06-20T11:51:21Z</time>
      </trkpt>
      <trkpt lat="51.21079217082" lon="4.589537172908">
        <ele>6.6</ele>
        <time>2020-06-20T11:51:33Z</time>
      </trkpt>
      <trkpt lat="51.211041867621" lon="4.588764613185">
        <ele>6</ele>
        <time>2020-06-20T11:51:44Z</time>
      </trkpt>
      <trkpt lat="51.211242195031" lon="4.588154578503">
        <ele>5.8</ele>
        <time>2020-06-20T11:51:53Z</time>
      </trkpt>
      <trkpt lat="51.211297347933" lon="4.587977049861">
        <ele>5.8</ele>
        <time>2020-06-20T11:51:56Z</time>
      </trkpt>
      <trkpt lat="51.211524665061" lon="4.587284369645">
        <ele>5.8</ele>
        <time>2020-06-20T11:52:06Z</time>
      </trkpt>
      <trkpt lat="51.211775200052" lon="4.586508373343">
        <ele>5.2</ele>
        <time>2020-06-20T11:52:17Z</time>
      </trkpt>
      <trkpt lat="51.212034200762" lon="4.585713936861">
        <ele>5.2</ele>
        <time>2020-06-20T11:52:28Z</time>
      </trkpt>
      <trkpt lat="51.212292111825" lon="4.584924864795">
        <ele>4.4</ele>
        <time>2020-06-20T11:52:39Z</time>
      </trkpt>
      <trkpt lat="51.212560248806" lon="4.584098577093">
        <ele>6.6</ele>
        <time>2020-06-20T11:52:51Z</time>
      </trkpt>
      <trkpt lat="51.212822434638" lon="4.583326939379">
        <ele>7</ele>
        <time>2020-06-20T11:53:02Z</time>
      </trkpt>
      <trkpt lat="51.212929052406" lon="4.583010690292">
        <ele>6.8</ele>
        <time>2020-06-20T11:53:07Z</time>
      </trkpt>
      <trkpt lat="51.213195513007" lon="4.582234610171">
        <ele>6.4</ele>
        <time>2020-06-20T11:53:19Z</time>
      </trkpt>
      <trkpt lat="51.213466499834" lon="4.581403880062">
        <ele>5.2</ele>
        <time>2020-06-20T11:53:31Z</time>
      </trkpt>
      <trkpt lat="51.213718208291" lon="4.580622267887">
        <ele>5.4</ele>
        <time>2020-06-20T11:53:43Z</time>
      </trkpt>
      <trkpt lat="51.213976706087" lon="4.579822047894">
        <ele>6.8</ele>
        <time>2020-06-20T11:53:57Z</time>
      </trkpt>
      <trkpt lat="51.214223133947" lon="4.579022917548">
        <ele>7.2</ele>
        <time>2020-06-20T11:54:12Z</time>
      </trkpt>
      <trkpt lat="51.214495713335" lon="4.578217416958">
        <ele>7.4</ele>
        <time>2020-06-20T11:54:26Z</time>
      </trkpt>
      <trkpt lat="51.214766364886" lon="4.577532364271">
        <ele>8.8</ele>
        <time>2020-06-20T11:54:39Z</time>
      </trkpt>
      <trkpt lat="51.214929560479" lon="4.576955605732">
        <ele>10.8</ele>
        <time>2020-06-20T11:55:31Z</time>
      </trkpt>
      <trkpt lat="51.214929644298" lon="4.576955689551">
        <ele>10.8</ele>
        <time>2020-06-20T11:55:32Z</time>
      </trkpt>
      <trkpt lat="51.214922938778" lon="4.576969268229">
        <ele>10.6</ele>
        <time>2020-06-20T11:55:46Z</time>
      </trkpt>
      <trkpt lat="51.214922854959" lon="4.576969519686">
        <ele>10.6</ele>
        <time>2020-06-20T11:55:47Z</time>
      </trkpt>
      <trkpt lat="51.214959316224" lon="4.576876899691">
        <ele>11.8</ele>
        <time>2020-06-20T11:57:15Z</time>
      </trkpt>
      <trkpt lat="51.215051265667" lon="4.576645894527">
        <ele>11.8</ele>
        <time>2020-06-20T11:57:19Z</time>
      </trkpt>
      <trkpt lat="51.215268775972" lon="4.575794377306">
        <ele>11.6</ele>
        <time>2020-06-20T11:57:29Z</time>
      </trkpt>
      <trkpt lat="51.215525848845" lon="4.574963647197">
        <ele>8</ele>
        <time>2020-06-20T11:57:40Z</time>
      </trkpt>
      <trkpt lat="51.215639172133" lon="4.574695929311">
        <ele>6.2</ele>
        <time>2020-06-20T11:57:44Z</time>
      </trkpt>
      <trkpt lat="51.21577856313" lon="4.57424422872">
        <ele>5</ele>
        <time>2020-06-20T11:57:50Z</time>
      </trkpt>
      <trkpt lat="51.215944021836" lon="4.573731004983">
        <ele>4.2</ele>
        <time>2020-06-20T11:57:57Z</time>
      </trkpt>
      <trkpt lat="51.216211236808" lon="4.572892060612">
        <ele>0.8</ele>
        <time>2020-06-20T11:58:09Z</time>
      </trkpt>
      <trkpt lat="51.21645246789" lon="4.572096031569">
        <ele>0</ele>
        <time>2020-06-20T11:58:20Z</time>
      </trkpt>
      <trkpt lat="51.216685652348" lon="4.571317939792">
        <ele>1.8</ele>
        <time>2020-06-20T11:58:31Z</time>
      </trkpt>
      <trkpt lat="51.217180100629" lon="4.569766953016">
        <ele>3.4</ele>
        <time>2020-06-20T11:58:53Z</time>
      </trkpt>
      <trkpt lat="51.217431054715" lon="4.568982490995">
        <ele>2.8</ele>
        <time>2020-06-20T11:59:04Z</time>
      </trkpt>
      <trkpt lat="51.217541192881" lon="4.568606646599">
        <ele>3.2</ele>
        <time>2020-06-20T11:59:09Z</time>
      </trkpt>
      <trkpt lat="51.21781285026" lon="4.567789998082">
        <ele>3.2</ele>
        <time>2020-06-20T11:59:21Z</time>
      </trkpt>
      <trkpt lat="51.218072772979" lon="4.567025820259">
        <ele>3.6</ele>
        <time>2020-06-20T11:59:33Z</time>
      </trkpt>
      <trkpt lat="51.218229011595" lon="4.566498095835">
        <ele>3.4</ele>
        <time>2020-06-20T11:59:43Z</time>
      </trkpt>
      <trkpt lat="51.218492957626" lon="4.565685219173">
        <ele>3</ele>
        <time>2020-06-20T11:59:57Z</time>
      </trkpt>
      <trkpt lat="51.218749527585" lon="4.564870833769">
        <ele>3</ele>
        <time>2020-06-20T12:00:08Z</time>
      </trkpt>
      <trkpt lat="51.219000900766" lon="4.564050497216">
        <ele>2</ele>
        <time>2020-06-20T12:00:20Z</time>
      </trkpt>
      <trkpt lat="51.219258057458" lon="4.563236195631">
        <ele>4.2</ele>
        <time>2020-06-20T12:00:33Z</time>
      </trkpt>
      <trkpt lat="51.219520075652" lon="4.562418289829">
        <ele>3</ele>
        <time>2020-06-20T12:00:45Z</time>
      </trkpt>
      <trkpt lat="51.219785278968" lon="4.56161354361">
        <ele>4</ele>
        <time>2020-06-20T12:00:58Z</time>
      </trkpt>
      <trkpt lat="51.219801288397" lon="4.561553277749">
        <ele>4</ele>
        <time>2020-06-20T12:00:59Z</time>
      </trkpt>
      <trkpt lat="51.220026929145" lon="4.560747358064">
        <ele>5.4</ele>
        <time>2020-06-20T12:01:11Z</time>
      </trkpt>
      <trkpt lat="51.220268663141" lon="4.559976307083">
        <ele>5</ele>
        <time>2020-06-20T12:01:22Z</time>
      </trkpt>
      <trkpt lat="51.220531435706" lon="4.55916602881">
        <ele>5.2</ele>
        <time>2020-06-20T12:01:34Z</time>
      </trkpt>
      <trkpt lat="51.220704186665" lon="4.55861869074">
        <ele>5.6</ele>
        <time>2020-06-20T12:01:42Z</time>
      </trkpt>
      <trkpt lat="51.22095941552" lon="4.557811429951">
        <ele>5.6</ele>
        <time>2020-06-20T12:01:53Z</time>
      </trkpt>
      <trkpt lat="51.221216153117" lon="4.556998050375">
        <ele>4.8</ele>
        <time>2020-06-20T12:02:04Z</time>
      </trkpt>
      <trkpt lat="51.221480434424" lon="4.556242505909">
        <ele>6.4</ele>
        <time>2020-06-20T12:02:16Z</time>
      </trkpt>
      <trkpt lat="51.221698028548" lon="4.555453350024">
        <ele>6</ele>
        <time>2020-06-20T12:02:26Z</time>
      </trkpt>
      <trkpt lat="51.221935152499" lon="4.554610298522">
        <ele>5.8</ele>
        <time>2020-06-20T12:02:37Z</time>
      </trkpt>
      <trkpt lat="51.222185100757" lon="4.553829608356">
        <ele>5.4</ele>
        <time>2020-06-20T12:02:48Z</time>
      </trkpt>
      <trkpt lat="51.222436138662" lon="4.553038189358">
        <ele>5.2</ele>
        <time>2020-06-20T12:02:59Z</time>
      </trkpt>
      <trkpt lat="51.222698408313" lon="4.552213661855">
        <ele>5.2</ele>
        <time>2020-06-20T12:03:10Z</time>
      </trkpt>
      <trkpt lat="51.222959504498" lon="4.551404976143">
        <ele>4.4</ele>
        <time>2020-06-20T12:03:21Z</time>
      </trkpt>
      <trkpt lat="51.223225965099" lon="4.550624118339">
        <ele>3.8</ele>
        <time>2020-06-20T12:03:34Z</time>
      </trkpt>
      <trkpt lat="51.223245243469" lon="4.550567289057">
        <ele>3.8</ele>
        <time>2020-06-20T12:03:35Z</time>
      </trkpt>
      <trkpt lat="51.223476332452" lon="4.549769667453">
        <ele>4.8</ele>
        <time>2020-06-20T12:03:46Z</time>
      </trkpt>
      <trkpt lat="51.223730387841" lon="4.548962155207">
        <ele>3.6</ele>
        <time>2020-06-20T12:03:58Z</time>
      </trkpt>
      <trkpt lat="51.223974552588" lon="4.548196133366">
        <ele>3.6</ele>
        <time>2020-06-20T12:04:10Z</time>
      </trkpt>
      <trkpt lat="51.22422919471" lon="4.547403792359">
        <ele>3.4</ele>
        <time>2020-06-20T12:04:22Z</time>
      </trkpt>
      <trkpt lat="51.224477215131" lon="4.546612121904">
        <ele>4</ele>
        <time>2020-06-20T12:04:35Z</time>
      </trkpt>
      <trkpt lat="51.224571930601" lon="4.546302243061">
        <ele>4.4</ele>
        <time>2020-06-20T12:04:39Z</time>
      </trkpt>
      <trkpt lat="51.224642170923" lon="4.546092695561">
        <ele>4.4</ele>
        <time>2020-06-20T12:04:42Z</time>
      </trkpt>
      <trkpt lat="51.224722553344" lon="4.545926566303">
        <ele>4.2</ele>
        <time>2020-06-20T12:04:45Z</time>
      </trkpt>
      <trkpt lat="51.224889269335" lon="4.545381323708">
        <ele>3.2</ele>
        <time>2020-06-20T12:04:55Z</time>
      </trkpt>
      <trkpt lat="51.224944925151" lon="4.545278645433">
        <ele>3.4</ele>
        <time>2020-06-20T12:04:57Z</time>
      </trkpt>
      <trkpt lat="51.224988175755" lon="4.545043030224">
        <ele>3</ele>
        <time>2020-06-20T12:05:01Z</time>
      </trkpt>
      <trkpt lat="51.225246422094" lon="4.544256472728">
        <ele>4</ele>
        <time>2020-06-20T12:05:13Z</time>
      </trkpt>
      <trkpt lat="51.225468626263" lon="4.543518781709">
        <ele>4.6</ele>
        <time>2020-06-20T12:05:25Z</time>
      </trkpt>
      <trkpt lat="51.225503411148" lon="4.543256428239">
        <ele>4.6</ele>
        <time>2020-06-20T12:05:29Z</time>
      </trkpt>
      <trkpt lat="51.22576475879" lon="4.542483030326">
        <ele>4.4</ele>
        <time>2020-06-20T12:05:41Z</time>
      </trkpt>
      <trkpt lat="51.226030297382" lon="4.541682894152">
        <ele>5.4</ele>
        <time>2020-06-20T12:05:56Z</time>
      </trkpt>
      <trkpt lat="51.226285442418" lon="4.540860462124">
        <ele>8.2</ele>
        <time>2020-06-20T12:06:08Z</time>
      </trkpt>
      <trkpt lat="51.226517788686" lon="4.540023026495">
        <ele>7.2</ele>
        <time>2020-06-20T12:06:20Z</time>
      </trkpt>
      <trkpt lat="51.226729683118" lon="4.539144938651">
        <ele>6.8</ele>
        <time>2020-06-20T12:06:31Z</time>
      </trkpt>
      <trkpt lat="51.226981559213" lon="4.538370115815">
        <ele>6.2</ele>
        <time>2020-06-20T12:06:43Z</time>
      </trkpt>
      <trkpt lat="51.227090104818" lon="4.538122011575">
        <ele>5.8</ele>
        <time>2020-06-20T12:06:47Z</time>
      </trkpt>
      <trkpt lat="51.22719135817" lon="4.537960157086">
        <ele>5.8</ele>
        <time>2020-06-20T12:06:50Z</time>
      </trkpt>
      <trkpt lat="51.227469301974" lon="4.537206959552">
        <ele>5.6</ele>
        <time>2020-06-20T12:07:02Z</time>
      </trkpt>
      <trkpt lat="51.227629982997" lon="4.536815776279">
        <ele>4.2</ele>
        <time>2020-06-20T12:07:07Z</time>
      </trkpt>
      <trkpt lat="51.227736516946" lon="4.536586698952">
        <ele>3.2</ele>
        <time>2020-06-20T12:07:09Z</time>
      </trkpt>
      <trkpt lat="51.227749341253" lon="4.536497515536">
        <ele>3.2</ele>
        <time>2020-06-20T12:07:11Z</time>
      </trkpt>
      <trkpt lat="51.227767529976" lon="4.536308084596">
        <ele>3.2</ele>
        <time>2020-06-20T12:07:13Z</time>
      </trkpt>
      <trkpt lat="51.228010772714" lon="4.535475510469">
        <ele>3</ele>
        <time>2020-06-20T12:07:23Z</time>
      </trkpt>
      <trkpt lat="51.228042456296" lon="4.535410969839">
        <ele>3</ele>
        <time>2020-06-20T12:07:24Z</time>
      </trkpt>
      <trkpt lat="51.228131304436" lon="4.535336622386">
        <ele>2.8</ele>
        <time>2020-06-20T12:07:26Z</time>
      </trkpt>
      <trkpt lat="51.228212441228" lon="4.535268058444">
        <ele>2.8</ele>
        <time>2020-06-20T12:07:28Z</time>
      </trkpt>
      <trkpt lat="51.228250411235" lon="4.535139563917">
        <ele>3.2</ele>
        <time>2020-06-20T12:07:30Z</time>
      </trkpt>
      <trkpt lat="51.228313526942" lon="4.534649474224">
        <ele>3.2</ele>
        <time>2020-06-20T12:07:36Z</time>
      </trkpt>
      <trkpt lat="51.228558697517" lon="4.533858977235">
        <ele>2.2</ele>
        <time>2020-06-20T12:07:47Z</time>
      </trkpt>
      <trkpt lat="51.228776878374" lon="4.533136289817">
        <ele>3.8</ele>
        <time>2020-06-20T12:07:58Z</time>
      </trkpt>
      <trkpt lat="51.229034202704" lon="4.532328945209">
        <ele>2.6</ele>
        <time>2020-06-20T12:08:10Z</time>
      </trkpt>
      <trkpt lat="51.229069658141" lon="4.532206318012">
        <ele>2.2</ele>
        <time>2020-06-20T12:08:12Z</time>
      </trkpt>
      <trkpt lat="51.229371155084" lon="4.531466447699">
        <ele>0.6</ele>
        <time>2020-06-20T12:08:24Z</time>
      </trkpt>
      <trkpt lat="51.229625713387" lon="4.530695312899">
        <ele>0</ele>
        <time>2020-06-20T12:08:36Z</time>
      </trkpt>
      <trkpt lat="51.229664102489" lon="4.530580229412">
        <ele>0</ele>
        <time>2020-06-20T12:08:38Z</time>
      </trkpt>
      <trkpt lat="51.229910195073" lon="4.529809010793">
        <ele>0.2</ele>
        <time>2020-06-20T12:08:50Z</time>
      </trkpt>
      <trkpt lat="51.230193503293" lon="4.529051622309">
        <ele>0</ele>
        <time>2020-06-20T12:09:02Z</time>
      </trkpt>
      <trkpt lat="51.230457449324" lon="4.528271351238">
        <ele>0.6</ele>
        <time>2020-06-20T12:09:13Z</time>
      </trkpt>
      <trkpt lat="51.230544621084" lon="4.528128607481">
        <ele>1</ele>
        <time>2020-06-20T12:09:15Z</time>
      </trkpt>
      <trkpt lat="51.230821978155" lon="4.527761228804">
        <ele>0.8</ele>
        <time>2020-06-20T12:09:24Z</time>
      </trkpt>
      <trkpt lat="51.231069830938" lon="4.526967630512">
        <ele>0.2</ele>
        <time>2020-06-20T12:09:36Z</time>
      </trkpt>
      <trkpt lat="51.231335201892" lon="4.526150646719">
        <ele>0.8</ele>
        <time>2020-06-20T12:09:49Z</time>
      </trkpt>
      <trkpt lat="51.231578947544" lon="4.525371800571">
        <ele>0</ele>
        <time>2020-06-20T12:10:01Z</time>
      </trkpt>
      <trkpt lat="51.231822106463" lon="4.524592954423">
        <ele>0</ele>
        <time>2020-06-20T12:10:12Z</time>
      </trkpt>
      <trkpt lat="51.232068618142" lon="4.523801200149">
        <ele>0</ele>
        <time>2020-06-20T12:10:24Z</time>
      </trkpt>
      <trkpt lat="51.232332480354" lon="4.522996370111">
        <ele>0</ele>
        <time>2020-06-20T12:10:37Z</time>
      </trkpt>
      <trkpt lat="51.232598354222" lon="4.522172261703">
        <ele>0</ele>
        <time>2020-06-20T12:10:49Z</time>
      </trkpt>
      <trkpt lat="51.232846290824" lon="4.521332814418">
        <ele>0</ele>
        <time>2020-06-20T12:11:02Z</time>
      </trkpt>
      <trkpt lat="51.233097915462" lon="4.520530415131">
        <ele>0.8</ele>
        <time>2020-06-20T12:11:15Z</time>
      </trkpt>
      <trkpt lat="51.23335289286" lon="4.519747210395">
        <ele>0.4</ele>
        <time>2020-06-20T12:11:26Z</time>
      </trkpt>
      <trkpt lat="51.233486416527" lon="4.519305651903">
        <ele>0</ele>
        <time>2020-06-20T12:11:32Z</time>
      </trkpt>
      <trkpt lat="51.233662268789" lon="4.518444746954">
        <ele>0.4</ele>
        <time>2020-06-20T12:11:44Z</time>
      </trkpt>
      <trkpt lat="51.233837450499" lon="4.517559534495">
        <ele>0.4</ele>
        <time>2020-06-20T12:11:56Z</time>
      </trkpt>
      <trkpt lat="51.234057223917" lon="4.516716399174">
        <ele>0</ele>
        <time>2020-06-20T12:12:10Z</time>
      </trkpt>
      <trkpt lat="51.234094607191" lon="4.516596621823">
        <ele>0.6</ele>
        <time>2020-06-20T12:12:11Z</time>
      </trkpt>
      <trkpt lat="51.234287642348" lon="4.516169983113">
        <ele>0</ele>
        <time>2020-06-20T12:12:19Z</time>
      </trkpt>
      <trkpt lat="51.234542955022" lon="4.515337241348">
        <ele>1.6</ele>
        <time>2020-06-20T12:12:30Z</time>
      </trkpt>
      <trkpt lat="51.234788628511" lon="4.514545989988">
        <ele>3.4</ele>
        <time>2020-06-20T12:12:41Z</time>
      </trkpt>
      <trkpt lat="51.235046791031" lon="4.513698915174">
        <ele>1.8</ele>
        <time>2020-06-20T12:12:52Z</time>
      </trkpt>
      <trkpt lat="51.235302774257" lon="4.51289458805">
        <ele>0</ele>
        <time>2020-06-20T12:13:03Z</time>
      </trkpt>
      <trkpt lat="51.235546016995" lon="4.512103671966">
        <ele>0</ele>
        <time>2020-06-20T12:13:16Z</time>
      </trkpt>
      <trkpt lat="51.235796384348" lon="4.51129699791">
        <ele>0</ele>
        <time>2020-06-20T12:13:28Z</time>
      </trkpt>
      <trkpt lat="51.236056977619" lon="4.510541201987">
        <ele>0</ele>
        <time>2020-06-20T12:13:39Z</time>
      </trkpt>
      <trkpt lat="51.23631002718" lon="4.50973125899">
        <ele>0</ele>
        <time>2020-06-20T12:13:50Z</time>
      </trkpt>
      <trkpt lat="51.236559472524" lon="4.508923076192">
        <ele>0</ele>
        <time>2020-06-20T12:14:01Z</time>
      </trkpt>
      <trkpt lat="51.236781425236" lon="4.508127382425">
        <ele>0.6</ele>
        <time>2020-06-20T12:14:12Z</time>
      </trkpt>
      <trkpt lat="51.237009161459" lon="4.507328252079">
        <ele>0</ele>
        <time>2020-06-20T12:14:23Z</time>
      </trkpt>
      <trkpt lat="51.237178727296" lon="4.506833552341">
        <ele>0</ele>
        <time>2020-06-20T12:14:30Z</time>
      </trkpt>
      <trkpt lat="51.237404870958" lon="4.506048419768">
        <ele>1.4</ele>
        <time>2020-06-20T12:14:42Z</time>
      </trkpt>
      <trkpt lat="51.237624560557" lon="4.505214420718">
        <ele>2.4</ele>
        <time>2020-06-20T12:14:55Z</time>
      </trkpt>
      <trkpt lat="51.23782463651" lon="4.50438109222">
        <ele>1.4</ele>
        <time>2020-06-20T12:15:07Z</time>
      </trkpt>
      <trkpt lat="51.238000321134" lon="4.503529994094">
        <ele>2.4</ele>
        <time>2020-06-20T12:15:21Z</time>
      </trkpt>
      <trkpt lat="51.23811967939" lon="4.502858520085">
        <ele>2.8</ele>
        <time>2020-06-20T12:15:30Z</time>
      </trkpt>
      <trkpt lat="51.238239875836" lon="4.502237253657">
        <ele>3</ele>
        <time>2020-06-20T12:15:38Z</time>
      </trkpt>
      <trkpt lat="51.23839879666" lon="4.501474081662">
        <ele>4</ele>
        <time>2020-06-20T12:15:48Z</time>
      </trkpt>
      <trkpt lat="51.238452943734" lon="4.501350029542">
        <ele>3.8</ele>
        <time>2020-06-20T12:15:50Z</time>
      </trkpt>
      <trkpt lat="51.238558555674" lon="4.501176943307">
        <ele>3.6</ele>
        <time>2020-06-20T12:15:53Z</time>
      </trkpt>
      <trkpt lat="51.238646146529" lon="4.501089352452">
        <ele>3.4</ele>
        <time>2020-06-20T12:15:55Z</time>
      </trkpt>
      <trkpt lat="51.2387810113" lon="4.501019531225">
        <ele>3.2</ele>
        <time>2020-06-20T12:15:58Z</time>
      </trkpt>
      <trkpt lat="51.239089716677" lon="4.501077701611">
        <ele>2.6</ele>
        <time>2020-06-20T12:16:05Z</time>
      </trkpt>
      <trkpt lat="51.239610232667" lon="4.501358411442">
        <ele>0</ele>
        <time>2020-06-20T12:16:16Z</time>
      </trkpt>
      <trkpt lat="51.240123204947" lon="4.501663764059">
        <ele>0</ele>
        <time>2020-06-20T12:16:29Z</time>
      </trkpt>
      <trkpt lat="51.240656545244" lon="4.501969284314">
        <ele>1</ele>
        <time>2020-06-20T12:16:42Z</time>
      </trkpt>
      <trkpt lat="51.240998191488" lon="4.501533844609">
        <ele>6.2</ele>
        <time>2020-06-20T12:17:02Z</time>
      </trkpt>
      <trkpt lat="51.241001879524" lon="4.500974268965">
        <ele>6.8</ele>
        <time>2020-06-20T12:17:11Z</time>
      </trkpt>
      <trkpt lat="51.240493601108" lon="4.500654583299">
        <ele>7</ele>
        <time>2020-06-20T12:17:22Z</time>
      </trkpt>
      <trkpt lat="51.240233929846" lon="4.500504295832">
        <ele>7.8</ele>
        <time>2020-06-20T12:17:28Z</time>
      </trkpt>
      <trkpt lat="51.239821456547" lon="4.499925777094">
        <ele>9.6</ele>
        <time>2020-06-20T12:17:40Z</time>
      </trkpt>
      <trkpt lat="51.239680221532" lon="4.499655377">
        <ele>9.6</ele>
        <time>2020-06-20T12:17:45Z</time>
      </trkpt>
      <trkpt lat="51.239653315633" lon="4.499526882473">
        <ele>10.6</ele>
        <time>2020-06-20T12:17:47Z</time>
      </trkpt>
      <trkpt lat="51.239619788033" lon="4.499174842673">
        <ele>7.8</ele>
        <time>2020-06-20T12:17:52Z</time>
      </trkpt>
      <trkpt lat="51.239706540698" lon="4.498320727063">
        <ele>4.2</ele>
        <time>2020-06-20T12:18:02Z</time>
      </trkpt>
      <trkpt lat="51.239720957566" lon="4.497428725265">
        <ele>2.6</ele>
        <time>2020-06-20T12:18:11Z</time>
      </trkpt>
      <trkpt lat="51.239695225133" lon="4.496479810366">
        <ele>0</ele>
        <time>2020-06-20T12:18:20Z</time>
      </trkpt>
      <trkpt lat="51.239712575666" lon="4.495595352278">
        <ele>0.4</ele>
        <time>2020-06-20T12:18:28Z</time>
      </trkpt>
      <trkpt lat="51.23980108853" lon="4.494652639985">
        <ele>5.2</ele>
        <time>2020-06-20T12:18:37Z</time>
      </trkpt>
      <trkpt lat="51.239952549463" lon="4.493738677609">
        <ele>4.4</ele>
        <time>2020-06-20T12:18:47Z</time>
      </trkpt>
      <trkpt lat="51.240112308477" lon="4.492910294432">
        <ele>2</ele>
        <time>2020-06-20T12:18:57Z</time>
      </trkpt>
      <trkpt lat="51.240250106913" lon="4.492067578206">
        <ele>3.4</ele>
        <time>2020-06-20T12:19:08Z</time>
      </trkpt>
      <trkpt lat="51.240275923165" lon="4.491851325186">
        <ele>3.8</ele>
        <time>2020-06-20T12:19:11Z</time>
      </trkpt>
      <trkpt lat="51.240328645316" lon="4.491744036866">
        <ele>3.8</ele>
        <time>2020-06-20T12:19:13Z</time>
      </trkpt>
      <trkpt lat="51.240475328566" lon="4.491740013554">
        <ele>3.4</ele>
        <time>2020-06-20T12:19:15Z</time>
      </trkpt>
      <trkpt lat="51.241019481514" lon="4.491748814549">
        <ele>2</ele>
        <time>2020-06-20T12:19:28Z</time>
      </trkpt>
      <trkpt lat="51.241464141309" lon="4.491851660462">
        <ele>0</ele>
        <time>2020-06-20T12:19:38Z</time>
      </trkpt>
      <trkpt lat="51.241552318897" lon="4.491941682068">
        <ele>0</ele>
        <time>2020-06-20T12:19:40Z</time>
      </trkpt>
      <trkpt lat="51.241625995798" lon="4.492060285953">
        <ele>0</ele>
        <time>2020-06-20T12:19:42Z</time>
      </trkpt>
      <trkpt lat="51.241718364336" lon="4.492328842029">
        <ele>0</ele>
        <time>2020-06-20T12:19:46Z</time>
      </trkpt>
      <trkpt lat="51.241889271277" lon="4.493044069556">
        <ele>0</ele>
        <time>2020-06-20T12:19:57Z</time>
      </trkpt>
      <trkpt lat="51.241995805226" lon="4.493895754415">
        <ele>0.8</ele>
        <time>2020-06-20T12:20:08Z</time>
      </trkpt>
      <trkpt lat="51.242180290845" lon="4.494754144794">
        <ele>1.2</ele>
        <time>2020-06-20T12:20:19Z</time>
      </trkpt>
      <trkpt lat="51.242324710982" lon="4.495666095514">
        <ele>2.2</ele>
        <time>2020-06-20T12:20:31Z</time>
      </trkpt>
      <trkpt lat="51.242549597359" lon="4.496528509205">
        <ele>2.2</ele>
        <time>2020-06-20T12:20:43Z</time>
      </trkpt>
      <trkpt lat="51.242868528654" lon="4.497280281816">
        <ele>2.6</ele>
        <time>2020-06-20T12:20:55Z</time>
      </trkpt>
      <trkpt lat="51.243137168549" lon="4.498058708869">
        <ele>0</ele>
        <time>2020-06-20T12:21:07Z</time>
      </trkpt>
      <trkpt lat="51.243467750685" lon="4.498763459021">
        <ele>0</ele>
        <time>2020-06-20T12:21:19Z</time>
      </trkpt>
      <trkpt lat="51.243594233556" lon="4.49892698989">
        <ele>0</ele>
        <time>2020-06-20T12:21:24Z</time>
      </trkpt>
      <trkpt lat="51.243586689846" lon="4.498778797898">
        <ele>0</ele>
        <time>2020-06-20T12:21:28Z</time>
      </trkpt>
      <trkpt lat="51.243247474353" lon="4.498079328343">
        <ele>0</ele>
        <time>2020-06-20T12:21:38Z</time>
      </trkpt>
      <trkpt lat="51.242942205555" lon="4.497257483048">
        <ele>0</ele>
        <time>2020-06-20T12:21:48Z</time>
      </trkpt>
      <trkpt lat="51.242605756089" lon="4.496504956066">
        <ele>0</ele>
        <time>2020-06-20T12:21:58Z</time>
      </trkpt>
      <trkpt lat="51.242347425931" lon="4.495745053012">
        <ele>0</ele>
        <time>2020-06-20T12:22:08Z</time>
      </trkpt>
      <trkpt lat="51.242201916147" lon="4.494865288788">
        <ele>0</ele>
        <time>2020-06-20T12:22:18Z</time>
      </trkpt>
      <trkpt lat="51.242063195702" lon="4.494026512055">
        <ele>0</ele>
        <time>2020-06-20T12:22:27Z</time>
      </trkpt>
      <trkpt lat="51.241946184378" lon="4.493163008717">
        <ele>0</ele>
        <time>2020-06-20T12:22:36Z</time>
      </trkpt>
      <trkpt lat="51.241916596271" lon="4.492966788438">
        <ele>0</ele>
        <time>2020-06-20T12:22:38Z</time>
      </trkpt>
      <trkpt lat="51.241795813092" lon="4.492127844067">
        <ele>0</ele>
        <time>2020-06-20T12:22:47Z</time>
      </trkpt>
      <trkpt lat="51.241665642185" lon="4.491760549209">
        <ele>1.2</ele>
        <time>2020-06-20T12:22:51Z</time>
      </trkpt>
      <trkpt lat="51.241412257348" lon="4.491363247149">
        <ele>4.8</ele>
        <time>2020-06-20T12:22:57Z</time>
      </trkpt>
      <trkpt lat="51.240881934535" lon="4.491036772144">
        <ele>6.2</ele>
        <time>2020-06-20T12:23:07Z</time>
      </trkpt>
      <trkpt lat="51.240334596465" lon="4.490829823033">
        <ele>8.6</ele>
        <time>2020-06-20T12:23:17Z</time>
      </trkpt>
      <trkpt lat="51.23978516292" lon="4.490585658286">
        <ele>7.2</ele>
        <time>2020-06-20T12:23:28Z</time>
      </trkpt>
      <trkpt lat="51.239595983437" lon="4.490500582001">
        <ele>7.2</ele>
        <time>2020-06-20T12:23:32Z</time>
      </trkpt>
      <trkpt lat="51.239065241529" lon="4.4902425033">
        <ele>5.2</ele>
        <time>2020-06-20T12:23:42Z</time>
      </trkpt>
      <trkpt lat="51.238488734447" lon="4.490047121211">
        <ele>3.6</ele>
        <time>2020-06-20T12:23:52Z</time>
      </trkpt>
      <trkpt lat="51.237937875979" lon="4.490050306333">
        <ele>3.6</ele>
        <time>2020-06-20T12:24:01Z</time>
      </trkpt>
      <trkpt lat="51.237367403865" lon="4.490324897377">
        <ele>0.8</ele>
        <time>2020-06-20T12:24:10Z</time>
      </trkpt>
      <trkpt lat="51.236848899531" lon="4.490552130686">
        <ele>0</ele>
        <time>2020-06-20T12:24:19Z</time>
      </trkpt>
      <trkpt lat="51.236561148904" lon="4.490492703015">
        <ele>0</ele>
        <time>2020-06-20T12:24:25Z</time>
      </trkpt>
      <trkpt lat="51.236284378566" lon="4.490130856392">
        <ele>0</ele>
        <time>2020-06-20T12:24:36Z</time>
      </trkpt>
      <trkpt lat="51.235765538956" lon="4.489463489514">
        <ele>4.6</ele>
        <time>2020-06-20T12:28:32Z</time>
      </trkpt>
      <trkpt lat="51.235686162363" lon="4.4893121124">
        <ele>4.8</ele>
        <time>2020-06-20T12:28:35Z</time>
      </trkpt>
      <trkpt lat="51.235324734835" lon="4.488647595368">
        <ele>4.8</ele>
        <time>2020-06-20T12:28:46Z</time>
      </trkpt>
      <trkpt lat="51.234957272339" lon="4.487982910698">
        <ele>3.6</ele>
        <time>2020-06-20T12:28:56Z</time>
      </trkpt>
      <trkpt lat="51.234573381319" lon="4.487297355097">
        <ele>2.8</ele>
        <time>2020-06-20T12:29:07Z</time>
      </trkpt>
      <trkpt lat="51.234450837941" lon="4.487036091274">
        <ele>2.8</ele>
        <time>2020-06-20T12:29:11Z</time>
      </trkpt>
      <trkpt lat="51.23435201534" lon="4.486774492175">
        <ele>2.6</ele>
        <time>2020-06-20T12:29:14Z</time>
      </trkpt>
      <trkpt lat="51.2339698007" lon="4.486086422004">
        <ele>2.4</ele>
        <time>2020-06-20T12:29:26Z</time>
      </trkpt>
      <trkpt lat="51.233596638512" lon="4.485416875832">
        <ele>2.2</ele>
        <time>2020-06-20T12:29:36Z</time>
      </trkpt>
      <trkpt lat="51.233231606767" lon="4.484742551977">
        <ele>1.8</ele>
        <time>2020-06-20T12:29:46Z</time>
      </trkpt>
      <trkpt lat="51.232851906697" lon="4.484067222294">
        <ele>0</ele>
        <time>2020-06-20T12:29:56Z</time>
      </trkpt>
      <trkpt lat="51.23248033707" lon="4.483396837932">
        <ele>0</ele>
        <time>2020-06-20T12:30:08Z</time>
      </trkpt>
      <trkpt lat="51.232445552185" lon="4.483347133265">
        <ele>0</ele>
        <time>2020-06-20T12:30:09Z</time>
      </trkpt>
      <trkpt lat="51.232364583031" lon="4.483281083893">
        <ele>0</ele>
        <time>2020-06-20T12:30:11Z</time>
      </trkpt>
      <trkpt lat="51.231822525558" lon="4.483254010356">
        <ele>0</ele>
        <time>2020-06-20T12:30:21Z</time>
      </trkpt>
      <trkpt lat="51.231270745081" lon="4.48323858766">
        <ele>0</ele>
        <time>2020-06-20T12:30:30Z</time>
      </trkpt>
      <trkpt lat="51.230706140297" lon="4.483146889674">
        <ele>0</ele>
        <time>2020-06-20T12:30:40Z</time>
      </trkpt>
      <trkpt lat="51.230147570481" lon="4.483057790077">
        <ele>0</ele>
        <time>2020-06-20T12:30:51Z</time>
      </trkpt>
      <trkpt lat="51.229567962096" lon="4.482946646083">
        <ele>0</ele>
        <time>2020-06-20T12:31:02Z</time>
      </trkpt>
      <trkpt lat="51.229005704244" lon="4.482797783539">
        <ele>0</ele>
        <time>2020-06-20T12:31:13Z</time>
      </trkpt>
      <trkpt lat="51.228442524383" lon="4.482707678114">
        <ele>0</ele>
        <time>2020-06-20T12:31:24Z</time>
      </trkpt>
      <trkpt lat="51.22785352827" lon="4.482707761933">
        <ele>0</ele>
        <time>2020-06-20T12:31:36Z</time>
      </trkpt>
      <trkpt lat="51.227470559259" lon="4.482597959043">
        <ele>0</ele>
        <time>2020-06-20T12:31:44Z</time>
      </trkpt>
      <trkpt lat="51.226941829007" lon="4.482194957291">
        <ele>0</ele>
        <time>2020-06-20T12:31:56Z</time>
      </trkpt>
      <trkpt lat="51.226770670609" lon="4.482017680106">
        <ele>0</ele>
        <time>2020-06-20T12:32:00Z</time>
      </trkpt>
      <trkpt lat="51.22628192202" lon="4.481507557672">
        <ele>0</ele>
        <time>2020-06-20T12:32:11Z</time>
      </trkpt>
      <trkpt lat="51.225822510081" lon="4.481011684468">
        <ele>0</ele>
        <time>2020-06-20T12:32:22Z</time>
      </trkpt>
      <trkpt lat="51.225348513636" lon="4.480586722138">
        <ele>0</ele>
        <time>2020-06-20T12:32:33Z</time>
      </trkpt>
      <trkpt lat="51.225010974523" lon="4.480520421309">
        <ele>0</ele>
        <time>2020-06-20T12:32:39Z</time>
      </trkpt>
      <trkpt lat="51.224559106294" lon="4.480654364071">
        <ele>0</ele>
        <time>2020-06-20T12:32:49Z</time>
      </trkpt>
      <trkpt lat="51.224474700561" lon="4.480598456798">
        <ele>0</ele>
        <time>2020-06-20T12:32:51Z</time>
      </trkpt>
      <trkpt lat="51.224434970355" lon="4.480458646706">
        <ele>0</ele>
        <time>2020-06-20T12:32:53Z</time>
      </trkpt>
      <trkpt lat="51.224241348465" lon="4.479615008471">
        <ele>0</ele>
        <time>2020-06-20T12:33:04Z</time>
      </trkpt>
      <trkpt lat="51.224219052611" lon="4.479478215863">
        <ele>0</ele>
        <time>2020-06-20T12:33:06Z</time>
      </trkpt>
      <trkpt lat="51.224121571114" lon="4.479357348865">
        <ele>0</ele>
        <time>2020-06-20T12:33:09Z</time>
      </trkpt>
      <trkpt lat="51.22402132359" lon="4.479340836522">
        <ele>0</ele>
        <time>2020-06-20T12:33:11Z</time>
      </trkpt>
      <trkpt lat="51.223443140128" lon="4.479355001933">
        <ele>0</ele>
        <time>2020-06-20T12:33:22Z</time>
      </trkpt>
      <trkpt lat="51.223008203337" lon="4.479384506221">
        <ele>4.8</ele>
        <time>2020-06-20T12:33:31Z</time>
      </trkpt>
      <trkpt lat="51.2229224565" lon="4.479274870969">
        <ele>8.6</ele>
        <time>2020-06-20T12:33:34Z</time>
      </trkpt>
      <trkpt lat="51.22291156003" lon="4.479159619844">
        <ele>9</ele>
        <time>2020-06-20T12:33:36Z</time>
      </trkpt>
      <trkpt lat="51.2230146574" lon="4.478913191984">
        <ele>8.4</ele>
        <time>2020-06-20T12:33:40Z</time>
      </trkpt>
      <trkpt lat="51.223047598267" lon="4.478759132662">
        <ele>6.6</ele>
        <time>2020-06-20T12:33:42Z</time>
      </trkpt>
      <trkpt lat="51.223006191681" lon="4.477827735934">
        <ele>5.4</ele>
        <time>2020-06-20T12:33:53Z</time>
      </trkpt>
      <trkpt lat="51.222776443802" lon="4.477293808904">
        <ele>8.2</ele>
        <time>2020-06-20T12:34:01Z</time>
      </trkpt>
      <trkpt lat="51.222679465219" lon="4.477155172278">
        <ele>7.4</ele>
        <time>2020-06-20T12:34:04Z</time>
      </trkpt>
      <trkpt lat="51.222288449584" lon="4.476530469271">
        <ele>4.8</ele>
        <time>2020-06-20T12:34:15Z</time>
      </trkpt>
      <trkpt lat="51.221877568846" lon="4.475914315802">
        <ele>2</ele>
        <time>2020-06-20T12:34:25Z</time>
      </trkpt>
      <trkpt lat="51.221447828833" lon="4.475392207251">
        <ele>1.2</ele>
        <time>2020-06-20T12:34:35Z</time>
      </trkpt>
      <trkpt lat="51.220945836842" lon="4.474972693156">
        <ele>0.6</ele>
        <time>2020-06-20T12:34:46Z</time>
      </trkpt>
      <trkpt lat="51.220905184627" lon="4.474940674298">
        <ele>0.4</ele>
        <time>2020-06-20T12:34:47Z</time>
      </trkpt>
      <trkpt lat="51.220382405524" lon="4.474596262027">
        <ele>0</ele>
        <time>2020-06-20T12:34:58Z</time>
      </trkpt>
      <trkpt lat="51.220017709055" lon="4.474382104482">
        <ele>0</ele>
        <time>2020-06-20T12:35:07Z</time>
      </trkpt>
      <trkpt lat="51.22004327385" lon="4.474216981052">
        <ele>1.6</ele>
        <time>2020-06-20T12:35:09Z</time>
      </trkpt>
      <trkpt lat="51.220161626278" lon="4.473653130639">
        <ele>1.6</ele>
        <time>2020-06-20T12:35:16Z</time>
      </trkpt>
      <trkpt lat="51.220134385103" lon="4.473509129597">
        <ele>2.2</ele>
        <time>2020-06-20T12:35:18Z</time>
      </trkpt>
      <trkpt lat="51.220054421777" lon="4.47341919181">
        <ele>2.8</ele>
        <time>2020-06-20T12:35:20Z</time>
      </trkpt>
      <trkpt lat="51.219509011544" lon="4.473263707565">
        <ele>0</ele>
        <time>2020-06-20T12:35:30Z</time>
      </trkpt>
      <trkpt lat="51.219361573923" lon="4.47324233372">
        <ele>0.2</ele>
        <time>2020-06-20T12:35:33Z</time>
      </trkpt>
      <trkpt lat="51.219328884513" lon="4.473151306286">
        <ele>0.6</ele>
        <time>2020-06-20T12:35:35Z</time>
      </trkpt>
      <trkpt lat="51.219486799509" lon="4.472320995272">
        <ele>0</ele>
        <time>2020-06-20T12:35:46Z</time>
      </trkpt>
      <trkpt lat="51.219642367573" lon="4.471429077293">
        <ele>0</ele>
        <time>2020-06-20T12:35:56Z</time>
      </trkpt>
      <trkpt lat="51.219797348904" lon="4.47058275685">
        <ele>0</ele>
        <time>2020-06-20T12:36:07Z</time>
      </trkpt>
      <trkpt lat="51.219991222251" lon="4.46969930459">
        <ele>0</ele>
        <time>2020-06-20T12:36:19Z</time>
      </trkpt>
      <trkpt lat="51.220084009884" lon="4.469245173248">
        <ele>0</ele>
        <time>2020-06-20T12:36:25Z</time>
      </trkpt>
      <trkpt lat="51.220135055655" lon="4.469128078105">
        <ele>0</ele>
        <time>2020-06-20T12:36:27Z</time>
      </trkpt>
      <trkpt lat="51.220209822203" lon="4.469056748136">
        <ele>0</ele>
        <time>2020-06-20T12:36:29Z</time>
      </trkpt>
      <trkpt lat="51.220298335067" lon="4.469020286871">
        <ele>0</ele>
        <time>2020-06-20T12:36:31Z</time>
      </trkpt>
      <trkpt lat="51.220835447219" lon="4.468920793718">
        <ele>8.4</ele>
        <time>2020-06-20T12:36:42Z</time>
      </trkpt>
      <trkpt lat="51.221043737434" lon="4.468937557518">
        <ele>12.6</ele>
        <time>2020-06-20T12:36:46Z</time>
      </trkpt>
      <trkpt lat="51.22115471379" lon="4.468973934964">
        <ele>12.2</ele>
        <time>2020-06-20T12:36:48Z</time>
      </trkpt>
      <trkpt lat="51.221268959087" lon="4.469010815324">
        <ele>12</ele>
        <time>2020-06-20T12:36:50Z</time>
      </trkpt>
      <trkpt lat="51.221817470623" lon="4.469091030107">
        <ele>6.4</ele>
        <time>2020-06-20T12:36:59Z</time>
      </trkpt>
      <trkpt lat="51.222390624945" lon="4.469132101417">
        <ele>4.4</ele>
        <time>2020-06-20T12:37:09Z</time>
      </trkpt>
      <trkpt lat="51.222832015799" lon="4.469178704781">
        <ele>4.2</ele>
        <time>2020-06-20T12:37:17Z</time>
      </trkpt>
      <trkpt lat="51.222990182252" lon="4.469225978697">
        <ele>3</ele>
        <time>2020-06-20T12:37:20Z</time>
      </trkpt>
      <trkpt lat="51.223529557517" lon="4.469213741123">
        <ele>2</ele>
        <time>2020-06-20T12:37:30Z</time>
      </trkpt>
      <trkpt lat="51.223834910134" lon="4.469244335058">
        <ele>1</ele>
        <time>2020-06-20T12:37:36Z</time>
      </trkpt>
      <trkpt lat="51.223986873981" lon="4.469292195707">
        <ele>0</ele>
        <time>2020-06-20T12:37:39Z</time>
      </trkpt>
      <trkpt lat="51.224579809587" lon="4.469233438588">
        <ele>2</ele>
        <time>2020-06-20T12:37:50Z</time>
      </trkpt>
      <trkpt lat="51.225151958081" lon="4.469248609827">
        <ele>3.8</ele>
        <time>2020-06-20T12:38:01Z</time>
      </trkpt>
      <trkpt lat="51.225717233417" lon="4.469335111035">
        <ele>2.4</ele>
        <time>2020-06-20T12:38:12Z</time>
      </trkpt>
      <trkpt lat="51.225820666063" lon="4.469361681658">
        <ele>1.6</ele>
        <time>2020-06-20T12:38:14Z</time>
      </trkpt>
      <trkpt lat="51.226375966938" lon="4.469319939796">
        <ele>0</ele>
        <time>2020-06-20T12:38:25Z</time>
      </trkpt>
      <trkpt lat="51.226951300554" lon="4.469301415797">
        <ele>0.6</ele>
        <time>2020-06-20T12:38:36Z</time>
      </trkpt>
      <trkpt lat="51.227504170678" lon="4.469227571258">
        <ele>0</ele>
        <time>2020-06-20T12:38:45Z</time>
      </trkpt>
      <trkpt lat="51.22799182962" lon="4.469178956238">
        <ele>2.4</ele>
        <time>2020-06-20T12:38:55Z</time>
      </trkpt>
      <trkpt lat="51.228054610051" lon="4.469282891798">
        <ele>3.4</ele>
        <time>2020-06-20T12:38:57Z</time>
      </trkpt>
      <trkpt lat="51.228143793467" lon="4.4695895017">
        <ele>3.4</ele>
        <time>2020-06-20T12:39:01Z</time>
      </trkpt>
      <trkpt lat="51.228226355182" lon="4.469801312313">
        <ele>2.2</ele>
        <time>2020-06-20T12:39:04Z</time>
      </trkpt>
      <trkpt lat="51.228779979677" lon="4.470183275496">
        <ele>0</ele>
        <time>2020-06-20T12:40:59Z</time>
      </trkpt>
      <trkpt lat="51.229349110687" lon="4.470189478102">
        <ele>0</ele>
        <time>2020-06-20T12:41:10Z</time>
      </trkpt>
      <trkpt lat="51.229919415163" lon="4.470011027451">
        <ele>0</ele>
        <time>2020-06-20T12:41:20Z</time>
      </trkpt>
      <trkpt lat="51.230434818194" lon="4.469646582439">
        <ele>0</ele>
        <time>2020-06-20T12:41:30Z</time>
      </trkpt>
      <trkpt lat="51.230948628664" lon="4.469274677536">
        <ele>0</ele>
        <time>2020-06-20T12:41:40Z</time>
      </trkpt>
      <trkpt lat="51.231078631933" lon="4.469164455551">
        <ele>0</ele>
        <time>2020-06-20T12:41:43Z</time>
      </trkpt>
      <trkpt lat="51.231468893197" lon="4.468463980168">
        <ele>0</ele>
        <time>2020-06-20T12:41:54Z</time>
      </trkpt>
      <trkpt lat="51.231826381232" lon="4.467733078488">
        <ele>0</ele>
        <time>2020-06-20T12:42:05Z</time>
      </trkpt>
      <trkpt lat="51.231919923236" lon="4.467573487112">
        <ele>0</ele>
        <time>2020-06-20T12:42:08Z</time>
      </trkpt>
      <trkpt lat="51.232003658417" lon="4.467533505449">
        <ele>0</ele>
        <time>2020-06-20T12:42:10Z</time>
      </trkpt>
      <trkpt lat="51.232170458227" lon="4.467198900001">
        <ele>0.4</ele>
        <time>2020-06-20T12:42:18Z</time>
      </trkpt>
      <trkpt lat="51.232173894806" lon="4.467043583394">
        <ele>0.8</ele>
        <time>2020-06-20T12:42:20Z</time>
      </trkpt>
      <trkpt lat="51.232211780994" lon="4.466889021158">
        <ele>1</ele>
        <time>2020-06-20T12:42:22Z</time>
      </trkpt>
      <trkpt lat="51.232498609612" lon="4.466124591878">
        <ele>3.6</ele>
        <time>2020-06-20T12:42:32Z</time>
      </trkpt>
      <trkpt lat="51.232526018425" lon="4.466056698488">
        <ele>3.8</ele>
        <time>2020-06-20T12:42:33Z</time>
      </trkpt>
      <trkpt lat="51.232872693809" lon="4.465371226706">
        <ele>2.4</ele>
        <time>2020-06-20T12:42:43Z</time>
      </trkpt>
      <trkpt lat="51.233205706696" lon="4.464629763832">
        <ele>3.2</ele>
        <time>2020-06-20T12:42:53Z</time>
      </trkpt>
      <trkpt lat="51.233414835101" lon="4.464179739621">
        <ele>3.4</ele>
        <time>2020-06-20T12:43:00Z</time>
      </trkpt>
      <trkpt lat="51.233488344364" lon="4.464010173784">
        <ele>3.8</ele>
        <time>2020-06-20T12:43:04Z</time>
      </trkpt>
      <trkpt lat="51.233464120673" lon="4.46381604898">
        <ele>3.4</ele>
        <time>2020-06-20T12:43:07Z</time>
      </trkpt>
      <trkpt lat="51.23343838824" lon="4.463468283949">
        <ele>2.2</ele>
        <time>2020-06-20T12:43:11Z</time>
      </trkpt>
      <trkpt lat="51.23329338137" lon="4.462582149481">
        <ele>1</ele>
        <time>2020-06-20T12:43:21Z</time>
      </trkpt>
      <trkpt lat="51.233170837992" lon="4.461711856804">
        <ele>0</ele>
        <time>2020-06-20T12:43:32Z</time>
      </trkpt>
      <trkpt lat="51.233069333183" lon="4.460789093433">
        <ele>8</ele>
        <time>2020-06-20T12:43:43Z</time>
      </trkpt>
      <trkpt lat="51.232896833681" lon="4.459951825442">
        <ele>5.4</ele>
        <time>2020-06-20T12:43:53Z</time>
      </trkpt>
      <trkpt lat="51.232741265617" lon="4.459183791945">
        <ele>2.6</ele>
        <time>2020-06-20T12:44:03Z</time>
      </trkpt>
      <trkpt lat="51.232579662585" lon="4.458292460699">
        <ele>0</ele>
        <time>2020-06-20T12:44:15Z</time>
      </trkpt>
      <trkpt lat="51.232413030413" lon="4.457429795551">
        <ele>0.6</ele>
        <time>2020-06-20T12:44:27Z</time>
      </trkpt>
      <trkpt lat="51.232352177819" lon="4.457300211377">
        <ele>3.6</ele>
        <time>2020-06-20T12:44:30Z</time>
      </trkpt>
      <trkpt lat="51.23183995991" lon="4.456883882404">
        <ele>0.8</ele>
        <time>2020-06-20T12:44:42Z</time>
      </trkpt>
      <trkpt lat="51.231354480262" lon="4.456500159022">
        <ele>0</ele>
        <time>2020-06-20T12:44:53Z</time>
      </trkpt>
      <trkpt lat="51.231046864532" lon="4.456208552721">
        <ele>0</ele>
        <time>2020-06-20T12:45:00Z</time>
      </trkpt>
      <trkpt lat="51.230836981756" lon="4.455933291125">
        <ele>0</ele>
        <time>2020-06-20T12:45:06Z</time>
      </trkpt>
      <trkpt lat="51.230600109262" lon="4.455511430098">
        <ele>0</ele>
        <time>2020-06-20T12:45:13Z</time>
      </trkpt>
      <trkpt lat="51.230072301019" lon="4.455120582101">
        <ele>0</ele>
        <time>2020-06-20T12:45:24Z</time>
      </trkpt>
      <trkpt lat="51.230032067899" lon="4.455094849668">
        <ele>0</ele>
        <time>2020-06-20T12:45:25Z</time>
      </trkpt>
      <trkpt lat="51.229471654065" lon="4.454861497572">
        <ele>0</ele>
        <time>2020-06-20T12:45:35Z</time>
      </trkpt>
      <trkpt lat="51.228934458094" lon="4.454707689707">
        <ele>0</ele>
        <time>2020-06-20T12:45:45Z</time>
      </trkpt>
      <trkpt lat="51.22837236788" lon="4.454577099705">
        <ele>0</ele>
        <time>2020-06-20T12:45:55Z</time>
      </trkpt>
      <trkpt lat="51.227805332345" lon="4.454507446116">
        <ele>0</ele>
        <time>2020-06-20T12:46:05Z</time>
      </trkpt>
      <trkpt lat="51.227253468049" lon="4.454499818587">
        <ele>0</ele>
        <time>2020-06-20T12:46:15Z</time>
      </trkpt>
      <trkpt lat="51.226689366179" lon="4.454514738369">
        <ele>0</ele>
        <time>2020-06-20T12:46:25Z</time>
      </trkpt>
      <trkpt lat="51.226526338224" lon="4.454500070044">
        <ele>0</ele>
        <time>2020-06-20T12:46:29Z</time>
      </trkpt>
      <trkpt lat="51.225950585513" lon="4.454497723112">
        <ele>0</ele>
        <time>2020-06-20T12:46:40Z</time>
      </trkpt>
      <trkpt lat="51.225638108281" lon="4.454509122496">
        <ele>0</ele>
        <time>2020-06-20T12:46:46Z</time>
      </trkpt>
      <trkpt lat="51.225594773858" lon="4.454635856824">
        <ele>0</ele>
        <time>2020-06-20T12:46:51Z</time>
      </trkpt>
      <trkpt lat="51.226166084162" lon="4.454608783287">
        <ele>4.2</ele>
        <time>2020-06-20T12:46:59Z</time>
      </trkpt>
      <trkpt lat="51.226740663407" lon="4.454591181297">
        <ele>5.8</ele>
        <time>2020-06-20T12:47:09Z</time>
      </trkpt>
      <trkpt lat="51.227321026163" lon="4.454612471323">
        <ele>2.6</ele>
        <time>2020-06-20T12:47:20Z</time>
      </trkpt>
      <trkpt lat="51.227429990863" lon="4.454640299231">
        <ele>0</ele>
        <time>2020-06-20T12:47:21Z</time>
      </trkpt>
      <trkpt lat="51.227473157648" lon="4.45469151264">
        <ele>0</ele>
        <time>2020-06-20T12:47:23Z</time>
      </trkpt>
      <trkpt lat="51.227531495672" lon="4.454830987456">
        <ele>0</ele>
        <time>2020-06-20T12:47:25Z</time>
      </trkpt>
      <trkpt lat="51.227803823603" lon="4.455622490273">
        <ele>0</ele>
        <time>2020-06-20T12:47:35Z</time>
      </trkpt>
      <trkpt lat="51.228091155135" lon="4.456359259283">
        <ele>0</ele>
        <time>2020-06-20T12:47:44Z</time>
      </trkpt>
      <trkpt lat="51.22834135485" lon="4.457026290885">
        <ele>0</ele>
        <time>2020-06-20T12:47:53Z</time>
      </trkpt>
      <trkpt lat="51.228345713438" lon="4.457160149828">
        <ele>0</ele>
        <time>2020-06-20T12:47:55Z</time>
      </trkpt>
      <trkpt lat="51.228382342341" lon="4.457359722867">
        <ele>0</ele>
        <time>2020-06-20T12:47:59Z</time>
      </trkpt>
      <trkpt lat="51.22842685023" lon="4.457471872689">
        <ele>0</ele>
        <time>2020-06-20T12:48:01Z</time>
      </trkpt>
      <trkpt lat="51.228542017536" lon="4.45837619588">
        <ele>0.4</ele>
        <time>2020-06-20T12:48:10Z</time>
      </trkpt>
      <trkpt lat="51.228653748263" lon="4.459243638711">
        <ele>1.6</ele>
        <time>2020-06-20T12:48:19Z</time>
      </trkpt>
      <trkpt lat="51.228741758213" lon="4.45932083601">
        <ele>0.8</ele>
        <time>2020-06-20T12:48:21Z</time>
      </trkpt>
      <trkpt lat="51.228853824216" lon="4.459314046671">
        <ele>0</ele>
        <time>2020-06-20T12:48:23Z</time>
      </trkpt>
      <trkpt lat="51.229122296473" lon="4.459225449988">
        <ele>0</ele>
        <time>2020-06-20T12:48:28Z</time>
      </trkpt>
      <trkpt lat="51.229673406398" lon="4.459038701256">
        <ele>0</ele>
        <time>2020-06-20T12:48:38Z</time>
      </trkpt>
      <trkpt lat="51.230213703672" lon="4.458915654964">
        <ele>0</ele>
        <time>2020-06-20T12:48:48Z</time>
      </trkpt>
      <trkpt lat="51.230786690356" lon="4.458758159063">
        <ele>0</ele>
        <time>2020-06-20T12:48:58Z</time>
      </trkpt>
      <trkpt lat="51.231181058751" lon="4.458603093913">
        <ele>0</ele>
        <time>2020-06-20T12:49:06Z</time>
      </trkpt>
      <trkpt lat="51.231256663489" lon="4.458506702063">
        <ele>0</ele>
        <time>2020-06-20T12:49:08Z</time>
      </trkpt>
      <trkpt lat="51.231288263252" lon="4.458364293582">
        <ele>0</ele>
        <time>2020-06-20T12:49:10Z</time>
      </trkpt>
      <trkpt lat="51.231276360954" lon="4.458216017771">
        <ele>0</ele>
        <time>2020-06-20T12:49:12Z</time>
      </trkpt>
      <trkpt lat="51.231178125086" lon="4.457622914527">
        <ele>0</ele>
        <time>2020-06-20T12:49:20Z</time>
      </trkpt>
      <trkpt lat="51.231087432928" lon="4.457509591239">
        <ele>0</ele>
        <time>2020-06-20T12:49:22Z</time>
      </trkpt>
      <trkpt lat="51.231034207863" lon="4.457518895148">
        <ele>0</ele>
        <time>2020-06-20T12:49:24Z</time>
      </trkpt>
      <trkpt lat="51.230468597251" lon="4.457699022179">
        <ele>0</ele>
        <time>2020-06-20T12:49:35Z</time>
      </trkpt>
      <trkpt lat="51.229934167307" lon="4.457935475578">
        <ele>2</ele>
        <time>2020-06-20T12:49:47Z</time>
      </trkpt>
      <trkpt lat="51.22938993054" lon="4.458057013128">
        <ele>9.4</ele>
        <time>2020-06-20T12:49:58Z</time>
      </trkpt>
      <trkpt lat="51.228827253593" lon="4.458250299742">
        <ele>12.8</ele>
        <time>2020-06-20T12:50:09Z</time>
      </trkpt>
      <trkpt lat="51.228404135281" lon="4.458440820329">
        <ele>10.8</ele>
        <time>2020-06-20T12:50:20Z</time>
      </trkpt>
      <trkpt lat="51.227895018675" lon="4.458740389435">
        <ele>8.4</ele>
        <time>2020-06-20T12:50:31Z</time>
      </trkpt>
      <trkpt lat="51.22734726151" lon="4.459028810614">
        <ele>9.6</ele>
        <time>2020-06-20T12:50:42Z</time>
      </trkpt>
      <trkpt lat="51.226788272599" lon="4.459336677801">
        <ele>9.2</ele>
        <time>2020-06-20T12:50:52Z</time>
      </trkpt>
      <trkpt lat="51.226457355187" lon="4.459540860885">
        <ele>6.4</ele>
        <time>2020-06-20T12:50:58Z</time>
      </trkpt>
    </trkseg>
  </trk>
</gpx>